Provisional Data: Hunts Run near Cameron, PA


Please select a monitoring station.
Please select start date.
Please select start date.

Toggle Unit: C/F Toggle Unit: C/F
Sample Time Temperature (C) Temperature (F) Specific Conductivity (mS/cm) pH   Turbidity (NTU+) DO (mg/L)
10/22/2021 12:00:00 AM 12.82 55.076 0.038 6.78 6.8 9.83
10/22/2021 12:15:00 AM 12.77 54.986 0.038 6.72 8.7 9.86
10/22/2021 12:30:00 AM 12.73 54.914 0.038 6.79 9.23 9.88
10/22/2021 12:45:00 AM 12.69 54.842 0.037 6.78 9.35 9.92
10/22/2021 1:00:00 AM 12.67 54.806 0.037 6.72 9.25 9.94
10/22/2021 1:15:00 AM 12.64 54.752 0.037 6.8 8.6 9.96
10/22/2021 1:30:00 AM 12.62 54.716 0.038 6.81 8.45 9.98
10/22/2021 1:45:00 AM 12.6 54.68 0.038 6.82 8.27 10
10/22/2021 2:00:00 AM 12.57 54.626 0.037 6.82 7.63 10.02
10/22/2021 2:15:00 AM 12.54 54.572 0.037 6.81 7.86 10.04
10/22/2021 2:30:00 AM 12.51 54.518 0.037 6.76 8.25 10.05
10/22/2021 2:45:00 AM 12.49 54.482 0.037 6.83 7.47 10.07
10/22/2021 3:00:00 AM 12.46 54.428 0.037 6.84 7.52 10.08
10/22/2021 3:15:00 AM 12.44 54.392 0.036 6.82 7.64 10.1
10/22/2021 3:30:00 AM 12.43 54.374 0.036 6.81 7.11 10.1
10/22/2021 3:45:00 AM 12.42 54.356 0.036 6.83 7.66 10.12
10/22/2021 4:00:00 AM 12.41 54.338 0.035 6.82 7.32 10.11
10/22/2021 4:15:00 AM 12.4 54.32 0.035 6.8 7.54 10.1
10/22/2021 4:30:00 AM 12.38 54.284 0.035 6.71 7.53 10.12
10/22/2021 4:45:00 AM 12.37 54.266 0.035 6.8 7.04 10.12
10/22/2021 5:00:00 AM 12.36 54.248 0.035 6.8 6.46 10.12
10/22/2021 5:15:00 AM 12.34 54.212 0.034 6.75 6.5 10.13
10/22/2021 5:30:00 AM 12.33 54.194 0.034 6.78 6.11 10.12
10/22/2021 5:45:00 AM 12.31 54.158 0.034 6.78 6.55 10.15
10/22/2021 6:00:00 AM 12.3 54.14 0.034 6.77 6.35 10.15
10/22/2021 6:15:00 AM 12.28 54.104 0.034 6.73 6.25 10.15
10/22/2021 6:30:00 AM 12.26 54.068 0.034 6.77 6.65 10.15
10/22/2021 6:45:00 AM 12.25 54.05 0.034 6.69 7.26 10.15
10/22/2021 7:00:00 AM 12.23 54.014 0.034 6.74 7.34 10.16
10/22/2021 7:15:00 AM 12.22 53.996 0.034 6.76 6.93 10.16
10/22/2021 7:30:00 AM 12.21 53.978 0.034 6.67 6.98 10.17
10/22/2021 7:45:00 AM 12.2 53.96 0.034 6.71 6.92 10.17
10/22/2021 8:00:00 AM 12.19 53.942 0.034 6.74 6.51 10.17
10/22/2021 8:15:00 AM 12.19 53.942 0.034 6.75 6.68 10.19
10/22/2021 8:30:00 AM 12.18 53.924 0.034 6.73 6.24 10.2
10/22/2021 8:45:00 AM 12.19 53.942 0.034 6.69 5.98 10.23
10/22/2021 9:00:00 AM 12.2 53.96 0.034 6.72 6.05 10.25
10/22/2021 9:15:00 AM 12.22 53.996 0.034 6.77 5.65 10.28
10/22/2021 9:30:00 AM 12.25 54.05 0.033 6.78 5.56 10.31
10/22/2021 9:45:00 AM 12.27 54.086 0.033 6.74 5.01 10.3
10/22/2021 10:00:00 AM 12.29 54.122 0.033 6.76 4.86 10.32
10/22/2021 10:15:00 AM 12.31 54.158 0.033 6.78 4.74 10.34
10/22/2021 10:30:00 AM 12.35 54.23 0.033 6.79 4.46 10.35
10/22/2021 10:45:00 AM 12.39 54.302 0.033 6.79 4.37 10.34
10/22/2021 11:00:00 AM 12.41 54.338 0.033 6.77 4.2 10.35
10/22/2021 11:15:00 AM 12.47 54.446 0.033 6.72 4.13 10.36
10/22/2021 11:30:00 AM 12.54 54.572 0.033 6.76 4.1 10.37
10/22/2021 11:45:00 AM 12.56 54.608 0.033 6.77 3.95 10.35
10/22/2021 12:00:00 PM 12.54 54.572 0.033 6.8 3.95 10.32
10/22/2021 12:15:00 PM 12.55 54.59 0.033 6.78 3.89 10.33
10/22/2021 12:30:00 PM 12.55 54.59 0.033 6.81 3.67 10.34
10/22/2021 12:45:00 PM 12.57 54.626 0.033 6.8 3.72 10.35
10/22/2021 1:00:00 PM 12.61 54.698 0.033 6.78 3.65 10.35
10/22/2021 1:15:00 PM 12.7 54.86 0.033 6.8 3.65 10.36
10/22/2021 1:30:00 PM 12.84 55.112 0.033 6.79 3.58 10.38
10/22/2021 1:45:00 PM 12.84 55.112 0.033 6.84 3.59 10.36
10/22/2021 2:00:00 PM 12.81 55.058 0.033 6.82 3.51 10.33
10/22/2021 2:15:00 PM 12.75 54.95 0.033 6.83 3.51 10.32
10/22/2021 2:30:00 PM 12.7 54.86 0.033 6.82 3.44 10.31
10/22/2021 2:45:00 PM 12.66 54.788 0.033 6.78 3.43 10.28
10/22/2021 3:00:00 PM 12.63 54.734 0.033 6.81 3.52 10.28
10/22/2021 3:15:00 PM 12.62 54.716 0.033 6.71 3.31 10.25
10/22/2021 3:30:00 PM 12.67 54.806 0.033 6.82 3.2 10.3
10/22/2021 3:45:00 PM 12.71 54.878 0.033 6.81 3.29 10.33
10/22/2021 4:00:00 PM 12.69 54.842 0.033 6.83 3.33 10.31
10/22/2021 4:15:00 PM 12.67 54.806 0.033 6.77 3.2 10.29
10/22/2021 4:30:00 PM 12.64 54.752 0.033 6.75 3.21 10.28
10/22/2021 4:45:00 PM 12.64 54.752 0.033 6.82 3.21 10.28
10/22/2021 5:00:00 PM 12.61 54.698 0.033 6.81 3.21 10.28
10/22/2021 5:15:00 PM 12.59 54.662 0.033 6.8 3.18 10.23
10/22/2021 5:30:00 PM 12.55 54.59 0.033 6.79 3.12 10.23
10/22/2021 5:45:00 PM 12.5 54.5 0.033 6.78 3.13 10.21
10/22/2021 6:00:00 PM 12.45 54.41 0.033 6.77 3.16 10.18
10/22/2021 6:15:00 PM 12.4 54.32 0.034 6.76 3.22 10.16
10/22/2021 6:30:00 PM 12.35 54.23 0.034 6.76 3.09 10.15
10/22/2021 6:45:00 PM 12.31 54.158 0.034 6.76 3.15 10.13
10/22/2021 7:00:00 PM 12.26 54.068 0.034 6.73 3.2 10.11
10/22/2021 7:15:00 PM 12.21 53.978 0.034 6.72 3.09 10.14
10/22/2021 7:30:00 PM 12.16 53.888 0.034 6.69 3.14 10.14
10/22/2021 7:45:00 PM 12.12 53.816 0.034 6.73 3.11 10.15
10/22/2021 8:00:00 PM 12.09 53.762 0.034 6.74 3.07 10.16
10/22/2021 8:15:00 PM 12.05 53.69 0.034 6.69 3.05 10.16
10/22/2021 8:30:00 PM 12 53.6 0.034 6.73 3.18 10.17
10/22/2021 8:45:00 PM 11.95 53.51 0.034 6.73 3.16 10.19
10/22/2021 9:00:00 PM 11.9 53.42 0.034 6.72 3.15 10.2
10/22/2021 9:15:00 PM 11.86 53.348 0.034 6.7 3.03 10.21
10/22/2021 9:30:00 PM 11.83 53.294 0.034 6.68 3.04 10.22
10/22/2021 9:45:00 PM 11.8 53.24 0.034 6.73 3.05 10.24
10/22/2021 10:00:00 PM 11.77 53.186 0.034 6.74 3.01 10.25
10/22/2021 10:15:00 PM 11.74 53.132 0.034 6.74 3.02 10.25
10/22/2021 10:30:00 PM 11.71 53.078 0.034 6.74 2.94 10.25
10/22/2021 10:45:00 PM 11.69 53.042 0.034 6.62 2.94 10.26
10/22/2021 11:00:00 PM 11.66 52.988 0.034 6.73 2.93 10.27
10/22/2021 11:15:00 PM 11.63 52.934 0.034 6.74 3.8 10.28
10/22/2021 11:30:00 PM 11.6 52.88 0.034 6.74 3.1 10.3
10/22/2021 11:45:00 PM 11.57 52.826 0.034 6.74 2.99 10.31
10/23/2021 12:00:00 AM 11.55 52.79 0.034 6.64 3.02 10.32
10/23/2021 12:15:00 AM 11.52 52.736 0.034 6.74 2.94 10.32
10/23/2021 12:30:00 AM 11.5 52.7 0.034 6.73 2.91 10.32
10/23/2021 12:45:00 AM 11.47 52.646 0.034 6.73 2.94 10.34
10/23/2021 1:00:00 AM 11.44 52.592 0.034 6.66 2.98 10.34
10/23/2021 1:15:00 AM 11.42 52.556 0.034 6.73 2.95 10.35
10/23/2021 1:30:00 AM 11.4 52.52 0.034 6.74 2.95 10.35
10/23/2021 1:45:00 AM 11.37 52.466 0.034 6.73 2.94 10.37
10/23/2021 2:00:00 AM 11.34 52.412 0.034 6.66 3.03 10.37
10/23/2021 2:15:00 AM 11.31 52.358 0.034 6.7 2.91 10.37
10/23/2021 2:30:00 AM 11.28 52.304 0.034 6.71 2.91 10.38
10/23/2021 2:45:00 AM 11.26 52.268 0.034 6.7 2.9 10.39
10/23/2021 3:00:00 AM 11.23 52.214 0.034 6.74 2.91 10.39
10/23/2021 3:15:00 AM 11.21 52.178 0.034 6.71 2.91 10.4
10/23/2021 3:30:00 AM 11.18 52.124 0.034 6.69 2.87 10.41
10/23/2021 3:45:00 AM 11.15 52.07 0.034 6.7 2.91 10.41
10/23/2021 4:00:00 AM 11.12 52.016 0.034 6.7 2.91 10.42
10/23/2021 4:15:00 AM 11.1 51.98 0.034 6.72 2.87 10.42
10/23/2021 4:30:00 AM 11.08 51.944 0.034 6.7 2.87 10.43
10/23/2021 4:45:00 AM 11.06 51.908 0.034 6.7 2.89 10.44
10/23/2021 5:00:00 AM 11.04 51.872 0.034 6.72 2.84 10.45
10/23/2021 5:15:00 AM 11.01 51.818 0.034 6.69 2.85 10.45
10/23/2021 5:30:00 AM 10.99 51.782 0.034 6.7 2.88 10.46
10/23/2021 5:45:00 AM 10.97 51.746 0.034 6.7 2.94 10.46
10/23/2021 6:00:00 AM 10.95 51.71 0.034 6.73 2.9 10.47
10/23/2021 6:15:00 AM 10.93 51.674 0.034 6.73 2.86 10.46
10/23/2021 6:30:00 AM 10.91 51.638 0.034 6.72 2.78 10.48
10/23/2021 6:45:00 AM 10.89 51.602 0.034 6.72 2.85 10.49
10/23/2021 7:00:00 AM 10.87 51.566 0.034 6.68 2.88 10.5
10/23/2021 7:15:00 AM 10.85 51.53 0.034 6.74 2.83 10.5
10/23/2021 7:30:00 AM 10.84 51.512 0.034 6.74 2.79 10.5
10/23/2021 7:45:00 AM 10.82 51.476 0.034 6.74 2.79 10.52
10/23/2021 8:00:00 AM 10.8 51.44 0.034 6.75 2.79 10.53
10/23/2021 8:15:00 AM 10.78 51.404 0.034 6.74 2.81 10.55
10/23/2021 8:30:00 AM 10.77 51.386 0.034 6.74 2.76 10.58
10/23/2021 8:45:00 AM 10.77 51.386 0.034 6.75 2.8 10.62
10/23/2021 9:00:00 AM 10.77 51.386 0.034 6.74 2.8 10.65
10/23/2021 9:15:00 AM 10.77 51.386 0.034 6.75 2.75 10.67
10/23/2021 9:30:00 AM 10.77 51.386 0.034 6.76 2.75 10.69
10/23/2021 9:45:00 AM 10.76 51.368 0.034 6.77 2.73 10.68
10/23/2021 10:00:00 AM 10.76 51.368 0.034 6.68 2.9 10.66
10/23/2021 10:15:00 AM 10.76 51.368 0.034 6.74 2.76 10.69
10/23/2021 10:30:00 AM 10.78 51.404 0.034 6.79 2.77 10.73
10/23/2021 10:45:00 AM 10.79 51.422 0.034 6.79 2.74 10.75
10/23/2021 11:00:00 AM 10.79 51.422 0.034 6.79 2.71 10.74
10/23/2021 11:15:00 AM 10.79 51.422 0.034 6.74 2.7 10.76
10/23/2021 11:30:00 AM 10.8 51.44 0.034 6.78 2.71 10.8
10/23/2021 11:45:00 AM 10.84 51.512 0.034 6.83 2.71 10.84
10/23/2021 12:00:00 PM 10.89 51.602 0.034 6.84 2.72 10.85
10/23/2021 12:15:00 PM 10.93 51.674 0.034 6.83 2.69 10.86
10/23/2021 12:30:00 PM 10.95 51.71 0.034 6.85 2.75 10.86
10/23/2021 12:45:00 PM 10.99 51.782 0.034 6.86 2.75 10.84
10/23/2021 1:00:00 PM 11.02 51.836 0.034 6.81 2.73 10.84
10/23/2021 1:15:00 PM 11.05 51.89 0.034 6.86 2.76 10.85
10/23/2021 1:30:00 PM 11.07 51.926 0.034 6.86 2.75 10.83
10/23/2021 1:45:00 PM 11.1 51.98 0.034 6.86 2.76 10.83
10/23/2021 2:00:00 PM 11.12 52.016 0.034 6.8 2.78 10.83
10/23/2021 2:15:00 PM 11.13 52.034 0.034 6.86 2.85 10.81
10/23/2021 2:30:00 PM 11.14 52.052 0.034 6.87 2.76 10.78
10/23/2021 2:45:00 PM 11.15 52.07 0.034 6.8 2.83 10.77
10/23/2021 3:00:00 PM 11.19 52.142 0.034 6.84 2.83 10.79
10/23/2021 3:15:00 PM 11.23 52.214 0.034 6.87 2.79 10.8
10/23/2021 3:30:00 PM 11.27 52.286 0.034 6.88 2.76 10.79
10/23/2021 3:45:00 PM 11.29 52.322 0.034 6.88 2.83 10.78
10/23/2021 4:00:00 PM 11.3 52.34 0.034 6.87 2.78 10.74
10/23/2021 4:15:00 PM 11.29 52.322 0.034 6.87 2.83 10.73
10/23/2021 4:30:00 PM 11.29 52.322 0.034 6.84 2.83 10.71
10/23/2021 4:45:00 PM 11.26 52.268 0.034 6.84 2.84 10.66
10/23/2021 5:00:00 PM 11.24 52.232 0.034 6.84 2.84 10.61
10/23/2021 5:15:00 PM 11.22 52.196 0.034 6.83 2.82 10.58
10/23/2021 5:30:00 PM 11.19 52.142 0.034 6.78 2.8 10.55
10/23/2021 5:45:00 PM 11.15 52.07 0.034 6.77 2.97 10.55
10/23/2021 6:00:00 PM 11.13 52.034 0.034 6.81 2.77 10.54
10/23/2021 6:15:00 PM 11.1 51.98 0.034 6.76 2.73 10.52
10/23/2021 6:30:00 PM 11.06 51.908 0.034 6.78 2.69 10.51
10/23/2021 6:45:00 PM 11.02 51.836 0.034 6.78 2.76 10.5
10/23/2021 7:00:00 PM 10.99 51.782 0.034 6.78 2.76 10.5
10/23/2021 7:15:00 PM 10.97 51.746 0.034 6.71 2.73 10.5
10/23/2021 7:30:00 PM 10.95 51.71 0.034 6.74 2.8 10.5
10/23/2021 7:45:00 PM 10.93 51.674 0.034 6.76 2.86 10.51
10/23/2021 8:00:00 PM 10.9 51.62 0.034 6.77 2.77 10.51
10/23/2021 8:15:00 PM 10.88 51.584 0.034 6.72 2.77 10.52
10/23/2021 8:30:00 PM 10.86 51.548 0.034 6.71 2.78 10.52
10/23/2021 8:45:00 PM 10.83 51.494 0.034 6.76 2.86 10.53
10/23/2021 9:00:00 PM 10.81 51.458 0.034 6.74 2.87 10.54
10/23/2021 9:15:00 PM 10.78 51.404 0.034 6.75 2.84 10.54
10/23/2021 9:30:00 PM 10.76 51.368 0.034 6.75 2.8 10.55
10/23/2021 9:45:00 PM 10.74 51.332 0.034 6.75 2.86 10.56
10/23/2021 10:00:00 PM 10.72 51.296 0.034 6.76 2.77 10.56
10/23/2021 10:15:00 PM 10.7 51.26 0.034 6.75 2.85 10.57
10/23/2021 10:30:00 PM 10.68 51.224 0.034 6.75 2.79 10.58
10/23/2021 10:45:00 PM 10.66 51.188 0.034 6.69 2.83 10.59
10/23/2021 11:00:00 PM 10.64 51.152 0.034 6.73 2.8 10.59
10/23/2021 11:15:00 PM 10.62 51.116 0.034 6.74 2.82 10.59
10/23/2021 11:30:00 PM 10.61 51.098 0.034 6.75 2.82 10.6
10/23/2021 11:45:00 PM 10.59 51.062 0.034 6.75 2.76 10.61
10/24/2021 12:00:00 AM 10.58 51.044 0.034 6.73 2.81 10.61
10/24/2021 12:15:00 AM 10.56 51.008 0.034 6.75 2.73 10.62
10/24/2021 12:30:00 AM 10.55 50.99 0.034 6.74 2.79 10.61
10/24/2021 12:45:00 AM 10.54 50.972 0.034 6.67 2.8 10.62
10/24/2021 1:00:00 AM 10.53 50.954 0.034 6.75 2.73 10.62
10/24/2021 1:15:00 AM 10.52 50.936 0.034 6.75 2.78 10.63
10/24/2021 1:30:00 AM 10.51 50.918 0.034 6.71 2.74 10.63
10/24/2021 1:45:00 AM 10.49 50.882 0.034 6.73 2.71 10.63
10/24/2021 2:00:00 AM 10.47 50.846 0.034 6.73 2.75 10.64
10/24/2021 2:15:00 AM 10.45 50.81 0.034 6.69 2.72 10.65
10/24/2021 2:30:00 AM 10.42 50.756 0.034 6.7 2.76 10.65
10/24/2021 2:45:00 AM 10.41 50.738 0.034 6.72 2.68 10.66
10/24/2021 3:00:00 AM 10.4 50.72 0.034 6.74 2.72 10.66
10/24/2021 3:15:00 AM 10.38 50.684 0.034 6.73 2.68 10.67
10/24/2021 3:30:00 AM 10.36 50.648 0.034 6.73 2.75 10.67
10/24/2021 3:45:00 AM 10.35 50.63 0.034 6.65 2.74 10.68
10/24/2021 4:00:00 AM 10.34 50.612 0.034 6.7 2.7 10.69
10/24/2021 4:15:00 AM 10.33 50.594 0.034 6.71 2.7 10.68
10/24/2021 4:30:00 AM 10.32 50.576 0.034 6.74 2.75 10.7
10/24/2021 4:45:00 AM 10.31 50.558 0.034 6.73 2.67 10.69
10/24/2021 5:00:00 AM 10.3 50.54 0.034 6.74 2.7 10.7
10/24/2021 5:15:00 AM 10.29 50.522 0.034 6.74 2.68 10.7
10/24/2021 5:30:00 AM 10.27 50.486 0.034 6.64 2.77 10.7
10/24/2021 5:45:00 AM 10.26 50.468 0.034 6.71 2.69 10.71
10/24/2021 6:00:00 AM 10.24 50.432 0.034 6.73 2.69 10.71
10/24/2021 6:15:00 AM 10.23 50.414 0.034 6.71 2.61 10.71
10/24/2021 6:30:00 AM 10.22 50.396 0.034 6.72 2.71 10.73
10/24/2021 6:45:00 AM 10.2 50.36 0.034 6.72 2.72 10.73
10/24/2021 7:00:00 AM 10.19 50.342 0.034 6.66 2.66 10.73
10/24/2021 7:15:00 AM 10.18 50.324 0.034 6.72 2.71 10.74
10/24/2021 7:30:00 AM 10.16 50.288 0.034 6.73 2.67 10.74
10/24/2021 7:45:00 AM 10.15 50.27 0.034 6.73 2.72 10.75
10/24/2021 8:00:00 AM 10.14 50.252 0.034 6.71 2.65 10.76
10/24/2021 8:15:00 AM 10.14 50.252 0.034 6.72 2.66 10.79
10/24/2021 8:30:00 AM 10.13 50.234 0.034 6.73 2.67 10.82
10/24/2021 8:45:00 AM 10.12 50.216 0.034 6.69 2.65 10.84
10/24/2021 9:00:00 AM 10.12 50.216 0.034 6.74 2.63 10.85
10/24/2021 9:15:00 AM 10.12 50.216 0.034 6.69 2.6 10.87
10/24/2021 9:30:00 AM 10.13 50.234 0.034 6.73 2.61 10.93
10/24/2021 9:45:00 AM 10.14 50.252 0.034 6.77 2.62 10.95
10/24/2021 10:00:00 AM 10.15 50.27 0.034 6.78 2.64 10.98
10/24/2021 10:15:00 AM 10.17 50.306 0.034 6.73 2.61 11.02
10/24/2021 10:30:00 AM 10.21 50.378 0.034 6.78 2.58 11.06
10/24/2021 10:45:00 AM 10.25 50.45 0.034 6.81 2.62 11.08
10/24/2021 11:00:00 AM 10.31 50.558 0.034 6.83 2.6 11.08
10/24/2021 11:15:00 AM 10.32 50.576 0.034 6.78 2.61 11.05
10/24/2021 11:30:00 AM 10.32 50.576 0.034 6.78 2.61 11
10/24/2021 11:45:00 AM 10.32 50.576 0.034 6.81 2.58 10.99
10/24/2021 12:00:00 PM 10.32 50.576 0.034 6.81 2.63 10.98
10/24/2021 12:15:00 PM 10.33 50.594 0.034 6.82 2.61 10.98
10/24/2021 12:30:00 PM 10.4 50.72 0.034 6.84 2.61 11.01
10/24/2021 12:45:00 PM 10.48 50.864 0.034 6.82 2.59 11.04
10/24/2021 1:00:00 PM 10.6 51.08 0.034 6.86 2.61 11.06
10/24/2021 1:15:00 PM 10.7 51.26 0.034 6.84 2.57 11.06
10/24/2021 1:30:00 PM 10.79 51.422 0.034 6.88 2.61 11.04
10/24/2021 1:45:00 PM 10.83 51.494 0.034 6.88 2.61 11.02
10/24/2021 2:00:00 PM 10.88 51.584 0.034 6.88 2.59 11
10/24/2021 2:15:00 PM 10.89 51.602 0.034 6.85 2.59 10.98
10/24/2021 2:30:00 PM 10.9 51.62 0.034 6.88 2.59 10.94
10/24/2021 2:45:00 PM 10.89 51.602 0.034 6.86 2.65 10.88
10/24/2021 3:00:00 PM 10.88 51.584 0.034 6.86 2.59 10.83
10/24/2021 3:15:00 PM 10.89 51.602 0.034 6.83 2.51 10.8
10/24/2021 3:30:00 PM 10.9 51.62 0.034 6.78 2.53 10.79
10/24/2021 3:45:00 PM 10.91 51.638 0.034 6.84 2.6 10.76
10/24/2021 4:00:00 PM 10.92 51.656 0.034 6.83 2.56 10.74
10/24/2021 4:15:00 PM 10.93 51.674 0.034 6.81 2.59 10.72
10/24/2021 4:30:00 PM 10.95 51.71 0.034 6.77 2.52 10.72
10/24/2021 4:45:00 PM 10.96 51.728 0.034 6.83 2.59 10.7
10/24/2021 5:00:00 PM 10.97 51.746 0.034 6.75 2.59 10.66
10/24/2021 5:15:00 PM 10.97 51.746 0.034 6.77 2.58 10.64
10/24/2021 5:30:00 PM 10.97 51.746 0.034 6.78 2.62 10.61
10/24/2021 5:45:00 PM 10.97 51.746 0.034 6.79 2.65 10.58
10/24/2021 6:00:00 PM 10.97 51.746 0.034 6.79 2.57 10.57
10/24/2021 6:15:00 PM 10.97 51.746 0.034 6.76 2.61 10.54
10/24/2021 6:30:00 PM 10.97 51.746 0.034 6.77 2.65 10.53
10/24/2021 6:45:00 PM 10.97 51.746 0.034 6.76 2.65 10.51
10/24/2021 7:00:00 PM 10.96 51.728 0.034 6.74 2.67 10.49
10/24/2021 7:15:00 PM 10.96 51.728 0.034 6.76 3 10.49
10/24/2021 7:30:00 PM 10.96 51.728 0.034 6.75 2.68 10.51
10/24/2021 7:45:00 PM 10.96 51.728 0.034 6.75 2.72 10.49
10/24/2021 8:00:00 PM 10.96 51.728 0.034 6.76 2.74 10.5
10/24/2021 8:15:00 PM 10.96 51.728 0.034 6.76 2.71 10.49
10/24/2021 8:30:00 PM 10.96 51.728 0.034 6.66 2.69 10.49
10/24/2021 8:45:00 PM 10.96 51.728 0.034 6.71 2.77 10.49
10/24/2021 9:00:00 PM 10.96 51.728 0.034 6.76 2.83 10.49
10/24/2021 9:15:00 PM 10.95 51.71 0.034 6.76 2.99 10.5
10/24/2021 9:30:00 PM 10.95 51.71 0.034 6.74 3.02 10.49
10/24/2021 9:45:00 PM 10.95 51.71 0.034 6.73 3.03 10.48
10/24/2021 10:00:00 PM 10.95 51.71 0.034 6.73 3.14 10.49
10/24/2021 10:15:00 PM 10.95 51.71 0.034 6.75 3.16 10.48
10/24/2021 10:30:00 PM 10.95 51.71 0.034 6.73 3.39 10.48
10/24/2021 10:45:00 PM 10.95 51.71 0.034 6.72 3.39 10.48
10/24/2021 11:00:00 PM 10.95 51.71 0.035 6.7 3.42 10.48
10/24/2021 11:15:00 PM 10.95 51.71 0.035 6.71 3.57 10.48
10/24/2021 11:30:00 PM 10.95 51.71 0.035 6.76 3.65 10.48
10/24/2021 11:45:00 PM 10.95 51.71 0.035 6.75 3.78 10.48
10/25/2021 12:00:00 AM 10.96 51.728 0.035 6.76 3.76 10.49
10/25/2021 12:15:00 AM 10.96 51.728 0.035 6.71 3.87 10.48
10/25/2021 12:30:00 AM 10.96 51.728 0.034 6.73 4.12 10.49
10/25/2021 12:45:00 AM 10.97 51.746 0.034 6.75 3.93 10.48
10/25/2021 1:00:00 AM 10.97 51.746 0.034 6.74 4.04 10.49
10/25/2021 1:15:00 AM 10.97 51.746 0.034 6.75 3.96 10.5
10/25/2021 1:30:00 AM 10.98 51.764 0.034 6.75 4.12 10.49
10/25/2021 1:45:00 AM 10.98 51.764 0.034 6.75 4.07 10.49
10/25/2021 2:00:00 AM 10.99 51.782 0.034 6.75 4.08 10.49
10/25/2021 2:15:00 AM 10.99 51.782 0.034 6.75 4.13 10.5
10/25/2021 2:30:00 AM 10.99 51.782 0.034 6.7 4 10.5
10/25/2021 2:45:00 AM 10.98 51.764 0.034 6.71 3.98 10.5
10/25/2021 3:00:00 AM 10.98 51.764 0.034 6.71 4.07 10.49
10/25/2021 3:15:00 AM 10.98 51.764 0.034 6.74 4.01 10.5
10/25/2021 3:30:00 AM 10.98 51.764 0.034 6.74 4.19 10.49
10/25/2021 3:45:00 AM 10.97 51.746 0.034 6.73 4.37 10.5
10/25/2021 4:00:00 AM 10.97 51.746 0.034 6.71 4.31 10.5
10/25/2021 4:15:00 AM 10.96 51.728 0.034 6.73 4.31 10.51
10/25/2021 4:30:00 AM 10.96 51.728 0.034 6.71 4.49 10.5
10/25/2021 4:45:00 AM 10.95 51.71 0.034 6.74 4.64 10.51
10/25/2021 5:00:00 AM 10.95 51.71 0.034 6.64 4.45 10.51
10/25/2021 5:15:00 AM 10.94 51.692 0.033 6.72 4.5 10.51
10/25/2021 5:30:00 AM 10.93 51.674 0.033 6.74 4.59 10.52
10/25/2021 5:45:00 AM 10.92 51.656 0.033 6.69 4.45 10.53
10/25/2021 6:00:00 AM 10.91 51.638 0.033 6.71 4.47 10.53
10/25/2021 6:15:00 AM 10.9 51.62 0.033 6.7 4.36 10.53
10/25/2021 6:30:00 AM 10.88 51.584 0.033 6.68 4.41 10.54
10/25/2021 6:45:00 AM 10.87 51.566 0.033 6.64 4.47 10.54
10/25/2021 7:00:00 AM 10.86 51.548 0.033 6.71 4.67 10.55
10/25/2021 7:15:00 AM 10.86 51.548 0.033 6.7 5.03 10.57
10/25/2021 7:30:00 AM 10.85 51.53 0.033 6.69 4.71 10.57
10/25/2021 7:45:00 AM 10.85 51.53 0.032 6.71 4.8 10.57
10/25/2021 8:00:00 AM 10.85 51.53 0.032 6.63 4.67 10.55
10/25/2021 8:15:00 AM 10.85 51.53 0.032 6.66 4.67 10.58
10/25/2021 8:30:00 AM 10.86 51.548 0.032 6.66 4.66 10.59
10/25/2021 8:45:00 AM 10.87 51.566 0.032 6.66 4.49 10.6
10/25/2021 9:00:00 AM 10.88 51.584 0.032 6.69 4.54 10.62
10/25/2021 9:15:00 AM 10.89 51.602 0.032 6.68 4.43 10.65
10/25/2021 9:30:00 AM 10.87 51.566 0.032 6.72 4.35 10.67
10/25/2021 9:45:00 AM 10.88 51.584 0.032 6.72 4.5 10.68
10/25/2021 10:00:00 AM 10.92 51.656 0.031 6.72 4.31 10.71
10/25/2021 10:15:00 AM 10.95 51.71 0.031 6.74 4.3 10.72
10/25/2021 10:30:00 AM 10.99 51.782 0.031 6.75 4.29 10.72
10/25/2021 10:45:00 AM 11.02 51.836 0.031 6.73 4.4 10.7
10/25/2021 11:00:00 AM 11.06 51.908 0.031 6.67 4.07 10.7
10/25/2021 11:15:00 AM 11.11 51.998 0.031 6.7 3.84 10.68
10/25/2021 11:30:00 AM 11.18 52.124 0.031 6.75 3.94 10.68
10/25/2021 11:45:00 AM 11.26 52.268 0.031 6.74 3.94 10.67
10/25/2021 12:00:00 PM 11.35 52.43 0.031 6.75 3.88 10.65
10/25/2021 12:15:00 PM 11.45 52.61 0.031 6.73 3.85 10.65
10/25/2021 12:30:00 PM 11.56 52.808 0.031 6.77 3.7 10.63
10/25/2021 12:45:00 PM 11.66 52.988 0.031 6.77 3.68 10.61
10/25/2021 1:00:00 PM 11.77 53.186 0.031 6.74 3.73 10.6
10/25/2021 1:15:00 PM 11.85 53.33 0.031 6.8 3.67 10.59
10/25/2021 1:30:00 PM 11.89 53.402 0.031 6.7 3.54 10.57
10/25/2021 1:45:00 PM 11.97 53.546 0.031 6.77 3.49 10.55
10/25/2021 2:00:00 PM 12.05 53.69 0.031 6.77 3.53 10.54
10/25/2021 2:15:00 PM 12.2 53.96 0.031 6.77 4.05 10.52
10/25/2021 2:30:00 PM 12.35 54.23 0.031 6.8 3.48 10.49
10/25/2021 2:45:00 PM 12.45 54.41 0.031 6.81 3.46 10.44
10/25/2021 3:00:00 PM 12.51 54.518 0.031 6.83 3.47 10.42
10/25/2021 3:15:00 PM 12.53 54.554 0.031 6.81 3.27 10.38
10/25/2021 3:30:00 PM 12.55 54.59 0.031 6.81 3.58 10.35
10/25/2021 3:45:00 PM 12.56 54.608 0.031 6.7 3.26 10.3
10/25/2021 4:00:00 PM 12.56 54.608 0.031 6.74 3.34 10.26
10/25/2021 4:15:00 PM 12.58 54.644 0.031 6.73 3.36 10.23
10/25/2021 4:30:00 PM 12.61 54.698 0.031 6.77 3.24 10.24
10/25/2021 4:45:00 PM 12.61 54.698 0.031 6.75 3.19 10.22
10/25/2021 5:00:00 PM 12.61 54.698 0.031 6.73 3.32 10.18
10/25/2021 5:15:00 PM 12.6 54.68 0.031 6.75 3.4 10.16
10/25/2021 5:30:00 PM 12.59 54.662 0.031 6.73 3.3 10.14
10/25/2021 5:45:00 PM 12.58 54.644 0.031 6.61 3.24 10.11
10/25/2021 6:00:00 PM 12.57 54.626 0.031 6.69 3.25 10.12
10/25/2021 6:15:00 PM 12.55 54.59 0.031 6.64 3.24 10.07
10/25/2021 6:30:00 PM 12.54 54.572 0.031 6.7 3.11 10.08
10/25/2021 6:45:00 PM 12.53 54.554 0.031 6.69 3.19 10.06
10/25/2021 7:00:00 PM 12.52 54.536 0.031 6.69 3.25 10.06
10/25/2021 7:15:00 PM 12.51 54.518 0.031 6.68 3.29 10.05
10/25/2021 7:30:00 PM 12.51 54.518 0.031 6.59 3.21 10.05
10/25/2021 7:45:00 PM 12.5 54.5 0.032 6.63 3.47 10.05
10/25/2021 8:00:00 PM 12.5 54.5 0.032 6.67 3.19 10.06
10/25/2021 8:15:00 PM 12.49 54.482 0.032 6.66 3.17 10.04
10/25/2021 8:30:00 PM 12.49 54.482 0.032 6.65 3.06 10.04
10/25/2021 8:45:00 PM 12.49 54.482 0.032 6.66 3.13 10.05
10/25/2021 9:00:00 PM 12.48 54.464 0.032 6.65 3.03 10.04
10/25/2021 9:15:00 PM 12.48 54.464 0.032 6.61 3.14 10.04
10/25/2021 9:30:00 PM 12.48 54.464 0.032 6.64 3.05 10.03
10/25/2021 9:45:00 PM 12.47 54.446 0.032 6.66 3.06 10.04
10/25/2021 10:00:00 PM 12.47 54.446 0.032 6.64 3.08 10.03
10/25/2021 10:15:00 PM 12.47 54.446 0.032 6.62 3.06 10.03
10/25/2021 10:30:00 PM 12.47 54.446 0.032 6.65 3.11 10.03
10/25/2021 10:45:00 PM 12.46 54.428 0.032 6.64 3 10.03
10/25/2021 11:00:00 PM 12.46 54.428 0.032 6.64 3.05 10.04
10/25/2021 11:15:00 PM 12.45 54.41 0.032 6.66 3.08 10.05
10/25/2021 11:30:00 PM 12.45 54.41 0.032 6.66 3.13 10.05
10/25/2021 11:45:00 PM 12.46 54.428 0.032 6.65 3.08 10.04
10/26/2021 12:00:00 AM 12.46 54.428 0.032 6.66 3.34 10.06
10/26/2021 12:15:00 AM 12.47 54.446 0.032 6.68 5.69 10.06
10/26/2021 12:30:00 AM 12.46 54.428 0.032 6.67 4.85 10.06
10/26/2021 12:45:00 AM 12.46 54.428 0.032 6.67 4.67 10.05
10/26/2021 1:00:00 AM 12.45 54.41 0.032 6.6 4.16 10.04
10/26/2021 1:15:00 AM 12.45 54.41 0.032 6.68 4.49 10.05
10/26/2021 1:30:00 AM 12.44 54.392 0.032 6.58 5.75 10.05
10/26/2021 1:45:00 AM 12.43 54.374 0.032 6.68 6.58 10.06
10/26/2021 2:00:00 AM 12.43 54.374 0.032 6.67 5.7 10.04
10/26/2021 2:15:00 AM 12.42 54.356 0.032 6.67 5.32 10.05
10/26/2021 2:30:00 AM 12.42 54.356 0.032 6.66 5.57 10.05
10/26/2021 2:45:00 AM 12.42 54.356 0.032 6.67 5.48 10.07
10/26/2021 3:00:00 AM 12.41 54.338 0.032 6.67 5.65 10.05
10/26/2021 3:15:00 AM 12.41 54.338 0.033 6.66 5.82 10.04
10/26/2021 3:30:00 AM 12.41 54.338 0.033 6.68 5.51 10.07
10/26/2021 3:45:00 AM 12.4 54.32 0.033 6.63 5.29 10.06
10/26/2021 4:00:00 AM 12.4 54.32 0.033 6.63 4.76 10.06
10/26/2021 4:15:00 AM 12.4 54.32 0.033 6.68 4.92 10.07
10/26/2021 4:30:00 AM 12.4 54.32 0.033 6.67 4.41 10.07
10/26/2021 4:45:00 AM 12.39 54.302 0.033 6.68 4.46 10.07
10/26/2021 5:00:00 AM 12.39 54.302 0.033 6.63 4.38 10.07
10/26/2021 5:15:00 AM 12.39 54.302 0.033 6.63 4.8 10.06
10/26/2021 5:30:00 AM 12.39 54.302 0.033 6.67 4.3 10.07
10/26/2021 5:45:00 AM 12.38 54.284 0.033 6.6 6.13 10.07
10/26/2021 6:00:00 AM 12.38 54.284 0.033 6.69 4.32 10.07
10/26/2021 6:15:00 AM 12.38 54.284 0.033 6.59 4.27 10.07
10/26/2021 6:30:00 AM 12.38 54.284 0.033 6.67 4.41 10.06
10/26/2021 6:45:00 AM 12.37 54.266 0.033 6.66 4.2 10.09
10/26/2021 7:00:00 AM 12.37 54.266 0.033 6.67 4.14 10.08
10/26/2021 7:15:00 AM 12.37 54.266 0.033 6.64 4.32 10.08
10/26/2021 7:30:00 AM 12.36 54.248 0.033 6.59 4.29 10.06
10/26/2021 7:45:00 AM 12.36 54.248 0.033 6.64 4.47 10.07
10/26/2021 8:00:00 AM 12.35 54.23 0.033 6.67 4.44 10.05
10/26/2021 8:15:00 AM 12.35 54.23 0.033 6.66 4.64 10.05
10/26/2021 8:30:00 AM 12.35 54.23 0.033 6.68 4.65 10.08
10/26/2021 8:45:00 AM 12.34 54.212 0.033 6.72 4.87 10.13
10/26/2021 9:00:00 AM 12.33 54.194 0.033 6.73 4.66 10.13
10/26/2021 9:15:00 AM 12.32 54.176 0.033 6.73 5.04 10.14
10/26/2021 9:30:00 AM 12.31 54.158 0.032 6.74 5.2 10.16
10/26/2021 9:45:00 AM 12.29 54.122 0.032 6.74 5.05 10.16
10/26/2021 10:00:00 AM 12.26 54.068 0.032 6.76 5.79 10.2
10/26/2021 10:15:00 AM 12.23 54.014 0.032 6.76 5.9 10.25
10/26/2021 10:30:00 AM 12.19 53.942 0.032 6.69 6.87 10.28
10/26/2021 10:45:00 AM 12.17 53.906 0.032 6.79 6.58 10.31
10/26/2021 11:00:00 AM 12.12 53.816 0.032 6.8 7.29 10.33
10/26/2021 11:15:00 AM 12.08 53.744 0.032 6.75 7.96 10.33
10/26/2021 11:30:00 AM 12.05 53.69 0.031 6.71 7.97 10.34
10/26/2021 11:45:00 AM 12.02 53.636 0.031 6.76 8.05 10.34
10/26/2021 12:00:00 PM 11.98 53.564 0.031 6.73 9.36 10.38
10/26/2021 12:15:00 PM 11.95 53.51 0.031 6.78 11.39 10.39
10/26/2021 12:30:00 PM 11.91 53.438 0.031 6.77 8.55 10.39
10/26/2021 12:45:00 PM 11.87 53.366 0.031 6.79 11 10.41
10/26/2021 1:00:00 PM 11.85 53.33 0.031 6.73 8.3 10.42
10/26/2021 1:15:00 PM 11.81 53.258 0.031 6.74 8.47 10.44
10/26/2021 1:30:00 PM 11.78 53.204 0.031 6.77 8.19 10.44
10/26/2021 1:45:00 PM 11.73 53.114 0.031 6.77 8.27 10.44
10/26/2021 2:00:00 PM 11.7 53.06 0.031 6.77 8.23 10.45
10/26/2021 2:15:00 PM 11.66 52.988 0.031 6.76 8.25 10.46
10/26/2021 2:30:00 PM 11.62 52.916 0.03 6.76 8.2 10.46
10/26/2021 2:45:00 PM 11.58 52.844 0.03 6.75 8.23 10.46
10/26/2021 3:00:00 PM 11.55 52.79 0.03 6.74 8.53 10.47
10/26/2021 3:15:00 PM 11.53 52.754 0.03 6.75 8.37 10.49
10/26/2021 3:30:00 PM 11.5 52.7 0.03 6.66 8.85 10.5
10/26/2021 3:45:00 PM 11.46 52.628 0.03 6.72 8.92 10.51
10/26/2021 4:00:00 PM 11.43 52.574 0.03 6.75 9.41 10.51
10/26/2021 4:15:00 PM 11.39 52.502 0.03 6.72 8.72 10.52
10/26/2021 4:30:00 PM 11.36 52.448 0.03 6.72 8.76 10.53
10/26/2021 4:45:00 PM 11.32 52.376 0.03 6.74 8.98 10.53
10/26/2021 5:00:00 PM 11.28 52.304 0.03 6.65 8.6 10.54
10/26/2021 5:15:00 PM 11.25 52.25 0.03 6.66 8.8 10.55
10/26/2021 5:30:00 PM 11.21 52.178 0.03 6.71 9.19 10.56
10/26/2021 5:45:00 PM 11.17 52.106 0.03 6.7 9.12 10.56
10/26/2021 6:00:00 PM 11.13 52.034 0.03 6.7 9.67 10.57
10/26/2021 6:15:00 PM 11.09 51.962 0.03 6.65 9.83 10.57
10/26/2021 6:30:00 PM 11.05 51.89 0.03 6.71 9.46 10.59
10/26/2021 6:45:00 PM 11.02 51.836 0.03 6.69 9.77 10.6
10/26/2021 7:00:00 PM 10.98 51.764 0.03 6.59 9.98 10.61
10/26/2021 7:15:00 PM 10.96 51.728 0.03 6.69 10.66 10.62
10/26/2021 7:30:00 PM 10.93 51.674 0.03 6.65 10.12 10.63
10/26/2021 7:45:00 PM 10.91 51.638 0.03 6.67 10.48 10.64
10/26/2021 8:00:00 PM 10.88 51.584 0.03 6.67 10.3 10.65
10/26/2021 8:15:00 PM 10.86 51.548 0.03 6.61 10.63 10.65
10/26/2021 8:30:00 PM 10.84 51.512 0.03 6.61 10.78 10.66
10/26/2021 8:45:00 PM 10.83 51.494 0.03 6.65 10.71 10.66
10/26/2021 9:00:00 PM 10.81 51.458 0.03 6.6 10.42 10.67
10/26/2021 9:15:00 PM 10.8 51.44 0.03 6.65 10.81 10.68
10/26/2021 9:30:00 PM 10.79 51.422 0.03 6.62 10.38 10.69
10/26/2021 9:45:00 PM 10.77 51.386 0.03 6.64 10.28 10.7
10/26/2021 10:00:00 PM 10.76 51.368 0.03 6.63 10.04 10.7
10/26/2021 10:15:00 PM 10.75 51.35 0.03 6.56 9.79 10.71
10/26/2021 10:30:00 PM 10.75 51.35 0.03 6.57 10.01 10.71
10/26/2021 10:45:00 PM 10.74 51.332 0.03 6.58 9.7 10.71
10/26/2021 11:00:00 PM 10.73 51.314 0.03 6.62 9.72 10.72
10/26/2021 11:15:00 PM 10.73 51.314 0.029 6.58 9.08 10.72
10/26/2021 11:30:00 PM 10.73 51.314 0.029 6.62 9.04 10.73
10/26/2021 11:45:00 PM 10.73 51.314 0.029 6.61 8.64 10.72
10/27/2021 12:00:00 AM 10.72 51.296 0.029 6.61 8.45 10.72
10/27/2021 12:15:00 AM 10.72 51.296 0.029 6.54 8.43 10.73
10/27/2021 12:30:00 AM 10.72 51.296 0.029 6.58 8.27 10.73
10/27/2021 12:45:00 AM 10.72 51.296 0.029 6.61 8.21 10.73
10/27/2021 1:00:00 AM 10.73 51.314 0.029 6.59 7.99 10.73
10/27/2021 1:15:00 AM 10.73 51.314 0.029 6.58 7.63 10.73
10/27/2021 1:30:00 AM 10.73 51.314 0.029 6.62 7.55 10.73
10/27/2021 1:45:00 AM 10.73 51.314 0.029 6.58 7.44 10.74
10/27/2021 2:00:00 AM 10.73 51.314 0.029 6.61 6.61 10.73
10/27/2021 2:15:00 AM 10.74 51.332 0.03 6.61 7.32 10.73
10/27/2021 2:30:00 AM 10.74 51.332 0.03 6.59 7.76 10.73
10/27/2021 2:45:00 AM 10.74 51.332 0.03 6.63 6.98 10.74
10/27/2021 3:00:00 AM 10.74 51.332 0.03 6.57 6.73 10.74
10/27/2021 3:15:00 AM 10.75 51.35 0.03 6.62 6.24 10.74
10/27/2021 3:30:00 AM 10.75 51.35 0.03 6.61 6.55 10.74
10/27/2021 3:45:00 AM 10.76 51.368 0.03 6.62 6.4 10.74
10/27/2021 4:00:00 AM 10.76 51.368 0.03 6.62 6.23 10.74
10/27/2021 4:15:00 AM 10.76 51.368 0.03 6.57 6.05 10.74
10/27/2021 4:30:00 AM 10.77 51.386 0.03 6.58 6.27 10.74
10/27/2021 4:45:00 AM 10.77 51.386 0.03 6.62 6.09 10.74
10/27/2021 5:00:00 AM 10.77 51.386 0.03 6.57 5.9 10.74
10/27/2021 5:15:00 AM 10.78 51.404 0.03 6.65 5.73 10.74
10/27/2021 5:30:00 AM 10.78 51.404 0.03 6.58 5.98 10.74
10/27/2021 5:45:00 AM 10.79 51.422 0.03 6.63 5.64 10.73
10/27/2021 6:00:00 AM 10.79 51.422 0.03 6.61 5.79 10.74
10/27/2021 6:15:00 AM 10.79 51.422 0.03 6.64 5.8 10.74
10/27/2021 6:30:00 AM 10.8 51.44 0.03 6.63 5.79 10.74
10/27/2021 6:45:00 AM 10.8 51.44 0.03 6.55 5.69 10.74
10/27/2021 7:00:00 AM 10.81 51.458 0.03 6.63 5.84 10.74
10/27/2021 7:15:00 AM 10.81 51.458 0.03 6.62 5.87 10.74
10/27/2021 7:30:00 AM 10.82 51.476 0.03 6.63 5.54 10.74
10/27/2021 7:45:00 AM 10.82 51.476 0.03 6.64 5.33 10.74
10/27/2021 8:00:00 AM 10.83 51.494 0.03 6.55 5.32 10.74
10/27/2021 8:15:00 AM 10.84 51.512 0.03 6.64 5.53 10.75
10/27/2021 8:30:00 AM 10.85 51.53 0.03 6.65 5.47 10.75
10/27/2021 8:45:00 AM 10.86 51.548 0.03 6.63 5.38 10.75
10/27/2021 9:00:00 AM 10.88 51.584 0.03 6.66 5.11 10.77
10/27/2021 9:15:00 AM 10.89 51.602 0.03 6.61 5.22 10.77
10/27/2021 9:30:00 AM 10.91 51.638 0.03 6.66 4.85 10.77
10/27/2021 9:45:00 AM 10.93 51.674 0.03 6.65 4.9 10.77
10/27/2021 10:00:00 AM 10.95 51.71 0.03 6.65 5.06 10.77
10/27/2021 10:15:00 AM 10.98 51.764 0.03 6.67 4.88 10.77
10/27/2021 10:30:00 AM 11.01 51.818 0.03 6.66 5.1 10.77
10/27/2021 10:45:00 AM 11.03 51.854 0.03 6.68 4.86 10.78
10/27/2021 11:00:00 AM 11.08 51.944 0.03 6.69 4.96 10.78
10/27/2021 11:15:00 AM 11.13 52.034 0.03 6.7 4.8 10.78
10/27/2021 11:30:00 AM 11.18 52.124 0.03 6.68 4.92 10.78
10/27/2021 11:45:00 AM 11.22 52.196 0.03 6.72 4.84 10.77
10/27/2021 12:00:00 PM 11.26 52.268 0.03 6.7 4.71 10.75
10/27/2021 12:15:00 PM 11.33 52.394 0.03 6.71 4.83 10.74
10/27/2021 12:30:00 PM 11.39 52.502 0.03 6.71 4.87 10.73
10/27/2021 12:45:00 PM 11.47 52.646 0.03 6.64 4.74 10.7
10/27/2021 1:00:00 PM 11.56 52.808 0.03 6.71 4.56 10.69
10/27/2021 1:15:00 PM 11.63 52.934 0.03 6.74 4.91 10.67
10/27/2021 1:30:00 PM 11.72 53.096 0.03 6.7 4.82 10.65
10/27/2021 1:45:00 PM 11.81 53.258 0.03 6.74 4.58 10.63
10/27/2021 2:00:00 PM 11.89 53.402 0.03 6.75 4.65 10.61
10/27/2021 2:15:00 PM 11.96 53.528 0.03 6.66 4.55 10.6
10/27/2021 2:30:00 PM 12.02 53.636 0.03 6.73 4.56 10.58
10/27/2021 2:45:00 PM 12.07 53.726 0.03 6.75 4.48 10.57
10/27/2021 3:00:00 PM 12.09 53.762 0.03 6.65 4.62 10.56
10/27/2021 3:15:00 PM 12.1 53.78 0.03 6.74 4.46 10.55
10/27/2021 3:30:00 PM 12.1 53.78 0.03 6.74 4.65 10.54
10/27/2021 3:45:00 PM 12.09 53.762 0.03 6.74 4.49 10.53
10/27/2021 4:00:00 PM 12.09 53.762 0.03 6.71 4.41 10.52
10/27/2021 4:15:00 PM 12.08 53.744 0.03 6.73 4.46 10.52
10/27/2021 4:30:00 PM 12.08 53.744 0.03 6.62 4.4 10.51
10/27/2021 4:45:00 PM 12.06 53.708 0.03 6.73 4.46 10.5
10/27/2021 5:00:00 PM 12.03 53.654 0.03 6.7 4.34 10.49
10/27/2021 5:15:00 PM 12.01 53.618 0.03 6.72 4.32 10.49
10/27/2021 5:30:00 PM 11.97 53.546 0.03 6.69 4.32 10.49
10/27/2021 5:45:00 PM 11.94 53.492 0.03 6.68 4.25 10.49
10/27/2021 6:00:00 PM 11.9 53.42 0.03 6.69 4.35 10.49
10/27/2021 6:15:00 PM 11.86 53.348 0.03 6.68 4.4 10.49
10/27/2021 6:30:00 PM 11.82 53.276 0.03 6.59 4.27 10.49
10/27/2021 6:45:00 PM 11.78 53.204 0.03 6.68 4.3 10.5
10/27/2021 7:00:00 PM 11.74 53.132 0.03 6.67 4.45 10.52
10/27/2021 7:15:00 PM 11.69 53.042 0.03 6.67 4.5 10.52
10/27/2021 7:30:00 PM 11.65 52.97 0.03 6.59 4.5 10.53
10/27/2021 7:45:00 PM 11.6 52.88 0.03 6.66 4.4 10.54
10/27/2021 8:00:00 PM 11.56 52.808 0.03 6.66 4.35 10.56
10/27/2021 8:15:00 PM 11.51 52.718 0.03 6.64 4.39 10.57
10/27/2021 8:30:00 PM 11.45 52.61 0.03 6.65 4.32 10.59
10/27/2021 8:45:00 PM 11.4 52.52 0.03 6.65 4.3 10.6
10/27/2021 9:00:00 PM 11.35 52.43 0.03 6.53 4.36 10.62
10/27/2021 9:15:00 PM 11.29 52.322 0.03 6.62 4.46 10.63
10/27/2021 9:30:00 PM 11.24 52.232 0.03 6.63 4.27 10.65
10/27/2021 9:45:00 PM 11.19 52.142 0.03 6.58 4.42 10.66
10/27/2021 10:00:00 PM 11.13 52.034 0.03 6.63 4.31 10.68
10/27/2021 10:15:00 PM 11.07 51.926 0.03 6.54 4.41 10.69
10/27/2021 10:30:00 PM 11.01 51.818 0.03 6.62 4.34 10.71
10/27/2021 10:45:00 PM 10.95 51.71 0.03 6.53 4.14 10.73
10/27/2021 11:00:00 PM 10.9 51.62 0.03 6.6 4.14 10.74
10/27/2021 11:15:00 PM 10.84 51.512 0.03 6.61 4.22 10.75
10/27/2021 11:30:00 PM 10.78 51.404 0.03 6.61 4.18 10.77
10/27/2021 11:45:00 PM 10.73 51.314 0.03 6.57 4.21 10.78
10/28/2021 12:00:00 AM 10.67 51.206 0.03 6.6 4.22 10.8
10/28/2021 12:15:00 AM 10.61 51.098 0.03 6.6 4.11 10.81
10/28/2021 12:30:00 AM 10.55 50.99 0.03 6.6 4.48 10.83
10/28/2021 12:45:00 AM 10.5 50.9 0.03 6.58 4.08 10.85
10/28/2021 1:00:00 AM 10.45 50.81 0.03 6.52 4.11 10.86
10/28/2021 1:15:00 AM 10.39 50.702 0.03 6.59 4.12 10.87
10/28/2021 1:30:00 AM 10.34 50.612 0.03 6.57 3.94 10.89
10/28/2021 1:45:00 AM 10.29 50.522 0.03 6.58 4.06 10.91
10/28/2021 2:00:00 AM 10.24 50.432 0.03 6.58 4.21 10.92
10/28/2021 2:15:00 AM 10.19 50.342 0.03 6.6 3.95 10.93
10/28/2021 2:30:00 AM 10.13 50.234 0.03 6.54 4.02 10.95
10/28/2021 2:45:00 AM 10.08 50.144 0.03 6.55 4.11 10.96
10/28/2021 3:00:00 AM 10.03 50.054 0.03 6.59 3.97 10.97
10/28/2021 3:15:00 AM 9.98 49.964 0.03 6.59 4.02 10.98
10/28/2021 3:30:00 AM 9.94 49.892 0.03 6.56 4.21 10.99
10/28/2021 3:45:00 AM 9.9 49.82 0.03 6.54 3.98 11
10/28/2021 4:00:00 AM 9.86 49.748 0.03 6.59 3.83 11.02
10/28/2021 4:15:00 AM 9.82 49.676 0.03 6.59 3.92 11.02
10/28/2021 4:30:00 AM 9.77 49.586 0.03 6.6 3.89 11.04
10/28/2021 4:45:00 AM 9.72 49.496 0.03 6.59 4 11.05
10/28/2021 5:00:00 AM 9.67 49.406 0.03 6.59 3.86 11.06
10/28/2021 5:15:00 AM 9.63 49.334 0.03 6.58 3.92 11.08
10/28/2021 5:30:00 AM 9.59 49.262 0.03 6.52 3.99 11.09
10/28/2021 5:45:00 AM 9.55 49.19 0.03 6.55 3.91 11.1
10/28/2021 6:00:00 AM 9.5 49.1 0.03 6.55 3.87 11.11
10/28/2021 6:15:00 AM 9.46 49.028 0.03 6.55 4.02 11.12
10/28/2021 6:30:00 AM 9.43 48.974 0.03 6.55 4.02 11.13
10/28/2021 6:45:00 AM 9.39 48.902 0.03 6.55 3.76 11.14
10/28/2021 7:00:00 AM 9.37 48.866 0.03 6.56 3.76 11.16
10/28/2021 7:15:00 AM 9.33 48.794 0.03 6.55 3.93 11.16
10/28/2021 7:30:00 AM 9.3 48.74 0.03 6.56 3.81 11.17
10/28/2021 7:45:00 AM 9.27 48.686 0.03 6.6 3.92 11.18
10/28/2021 8:00:00 AM 9.25 48.65 0.03 6.52 3.8 11.19
10/28/2021 8:15:00 AM 9.23 48.614 0.03 6.6 4.31 11.21
10/28/2021 8:30:00 AM 9.22 48.596 0.03 6.59 3.82 11.23
10/28/2021 8:45:00 AM 9.2 48.56 0.03 6.63 3.72 11.25
10/28/2021 9:00:00 AM 9.2 48.56 0.03 6.62 3.82 11.27
10/28/2021 9:15:00 AM -99999.99 -179968 -99999.99 -99999.99 -99999.99 -99999.99
10/28/2021 9:30:00 AM 9.19 48.542 0.03 6.63 3.73 11.29
10/28/2021 9:45:00 AM 9.19 48.542 0.03 6.62 3.82 11.3
10/28/2021 10:00:00 AM 9.2 48.56 0.03 6.64 3.67 11.3
10/28/2021 10:15:00 AM -99999.99 -179968 -99999.99 -99999.99 -99999.99 -99999.99
10/28/2021 10:30:00 AM 9.2 48.56 0.03 6.64 3.69 11.3
10/28/2021 10:45:00 AM 9.22 48.596 0.03 6.65 3.66 11.3
10/28/2021 11:00:00 AM 9.26 48.668 0.03 6.65 3.77 11.29
10/28/2021 11:15:00 AM 9.32 48.776 0.03 6.62 3.75 11.29
10/28/2021 11:30:00 AM 9.38 48.884 0.03 6.64 3.67 11.27
10/28/2021 11:45:00 AM 9.46 49.028 0.03 6.69 3.68 11.25
10/28/2021 12:00:00 PM 9.56 49.208 0.03 6.69 3.62 11.23
10/28/2021 12:15:00 PM 9.67 49.406 0.03 6.7 3.68 11.2
10/28/2021 12:30:00 PM 9.78 49.604 0.03 6.7 3.62 11.17
10/28/2021 12:45:00 PM 9.9 49.82 0.03 6.69 3.72 11.14
10/28/2021 1:00:00 PM 10.01 50.018 0.03 6.68 3.58 11.11
10/28/2021 1:15:00 PM 10.13 50.234 0.03 6.74 3.63 11.07
10/28/2021 1:30:00 PM 10.24 50.432 0.03 6.71 3.9 11.04
10/28/2021 1:45:00 PM 10.36 50.648 0.029 6.74 3.7 11.01
10/28/2021 2:00:00 PM 10.47 50.846 0.029 6.74 3.6 10.98
10/28/2021 2:15:00 PM 10.57 51.026 0.029 6.74 3.64 10.94
10/28/2021 2:30:00 PM 10.68 51.224 0.029 6.72 3.6 10.92
10/28/2021 2:45:00 PM 10.76 51.368 0.029 6.73 3.55 10.88
10/28/2021 3:00:00 PM 10.82 51.476 0.029 6.75 3.62 10.86
10/28/2021 3:15:00 PM 10.88 51.584 0.029 6.75 3.61 10.83
10/28/2021 3:30:00 PM 10.96 51.728 0.029 6.67 3.7 10.82
10/28/2021 3:45:00 PM 11.02 51.836 0.029 6.75 3.55 10.8
10/28/2021 4:00:00 PM 11.06 51.908 0.029 6.69 3.58 10.78
10/28/2021 4:15:00 PM 11.09 51.962 0.03 6.74 3.61 10.76
10/28/2021 4:30:00 PM 11.13 52.034 0.03 6.74 3.52 10.73
10/28/2021 4:45:00 PM 11.15 52.07 0.03 6.72 3.53 10.71
10/28/2021 5:00:00 PM 11.18 52.124 0.03 6.68 3.72 10.7
10/28/2021 5:15:00 PM 11.21 52.178 0.03 6.72 3.55 10.68
10/28/2021 5:30:00 PM 11.22 52.196 0.03 6.66 3.51 10.67
10/28/2021 5:45:00 PM 11.23 52.214 0.03 6.7 3.61 10.65
10/28/2021 6:00:00 PM 11.24 52.232 0.03 6.68 3.49 10.63
10/28/2021 6:15:00 PM 11.25 52.25 0.03 6.68 3.59 10.62
10/28/2021 6:30:00 PM 11.25 52.25 0.03 6.66 3.76 10.61
10/28/2021 6:45:00 PM 11.26 52.268 0.03 6.66 3.58 10.61
10/28/2021 7:00:00 PM 11.26 52.268 0.03 6.66 3.56 10.6
10/28/2021 7:15:00 PM 11.26 52.268 0.03 6.67 3.63 10.6
10/28/2021 7:30:00 PM 11.27 52.286 0.03 6.58 3.67 10.6
10/28/2021 7:45:00 PM 11.27 52.286 0.03 6.6 3.57 10.6
10/28/2021 8:00:00 PM 11.28 52.304 0.03 6.63 3.67 10.6
10/28/2021 8:15:00 PM 11.28 52.304 0.03 6.61 3.49 10.59
10/28/2021 8:30:00 PM 11.29 52.322 0.03 6.64 3.73 10.59
10/28/2021 8:45:00 PM 11.29 52.322 0.03 6.59 3.54 10.59
10/28/2021 9:00:00 PM 11.29 52.322 0.03 6.66 3.58 10.59
10/28/2021 9:15:00 PM 11.3 52.34 0.03 6.63 3.57 10.59
10/28/2021 9:30:00 PM 11.3 52.34 0.03 6.64 3.55 10.59
10/28/2021 9:45:00 PM 11.3 52.34 0.03 6.65 3.6 10.59
10/28/2021 10:00:00 PM 11.31 52.358 0.03 6.59 3.56 10.59
10/28/2021 10:15:00 PM 11.31 52.358 0.03 6.59 3.7 10.59
10/28/2021 10:30:00 PM 11.31 52.358 0.03 6.65 3.55 10.59
10/28/2021 10:45:00 PM 11.31 52.358 0.03 6.65 3.56 10.58
10/28/2021 11:00:00 PM 11.32 52.376 0.03 6.65 3.48 10.58
10/28/2021 11:15:00 PM 11.32 52.376 0.03 6.66 3.6 10.58
10/28/2021 11:30:00 PM 11.32 52.376 0.03 6.61 3.55 10.58
10/28/2021 11:45:00 PM 11.32 52.376 0.03 6.65 3.63 10.58
10/29/2021 12:00:00 AM 11.32 52.376 0.03 6.66 3.55 10.58
10/29/2021 12:15:00 AM 11.32 52.376 0.03 6.64 3.56 10.58
10/29/2021 12:30:00 AM 11.33 52.394 0.03 6.65 3.51 10.57
10/29/2021 12:45:00 AM 11.33 52.394 0.03 6.64 3.5 10.57
10/29/2021 1:00:00 AM 11.33 52.394 0.03 6.64 3.61 10.57
10/29/2021 1:15:00 AM 11.33 52.394 0.03 6.66 3.6 10.57
10/29/2021 1:30:00 AM 11.33 52.394 0.03 6.61 3.48 10.57
10/29/2021 1:45:00 AM 11.33 52.394 0.03 6.65 3.45 10.57
10/29/2021 2:00:00 AM 11.33 52.394 0.03 6.64 3.57 10.57
10/29/2021 2:15:00 AM 11.33 52.394 0.03 6.62 3.59 10.57
10/29/2021 2:30:00 AM 11.33 52.394 0.03 6.66 3.56 10.56
10/29/2021 2:45:00 AM 11.33 52.394 0.03 6.65 3.5 10.57
10/29/2021 3:00:00 AM 11.34 52.412 0.03 6.66 3.53 10.56
10/29/2021 3:15:00 AM 11.34 52.412 0.03 6.66 3.51 10.56
10/29/2021 3:30:00 AM 11.34 52.412 0.03 6.66 3.51 10.56
10/29/2021 3:45:00 AM 11.33 52.394 0.03 6.67 3.5 10.56
10/29/2021 4:00:00 AM 11.33 52.394 0.03 6.57 3.5 10.56
10/29/2021 4:15:00 AM 11.33 52.394 0.03 6.66 3.52 10.56
10/29/2021 4:30:00 AM 11.32 52.376 0.03 6.67 3.56 10.56
10/29/2021 4:45:00 AM 11.32 52.376 0.03 6.59 3.43 10.56
10/29/2021 5:00:00 AM 11.32 52.376 0.03 6.63 3.43 10.56
10/29/2021 5:15:00 AM 11.31 52.358 0.03 6.62 3.5 10.56
10/29/2021 5:30:00 AM 11.31 52.358 0.03 6.63 3.52 10.56
10/29/2021 5:45:00 AM 11.3 52.34 0.03 6.62 3.55 10.56
10/29/2021 6:00:00 AM 11.3 52.34 0.03 6.68 3.54 10.56
10/29/2021 6:15:00 AM 11.29 52.322 0.03 6.66 3.47 10.56
10/29/2021 6:30:00 AM 11.29 52.322 0.03 6.57 3.5 10.56
10/29/2021 6:45:00 AM 11.28 52.304 0.03 6.67 3.48 10.56
10/29/2021 7:00:00 AM 11.27 52.286 0.03 6.67 3.42 10.56
10/29/2021 7:15:00 AM 11.26 52.268 0.03 6.66 3.55 10.56
10/29/2021 7:30:00 AM 11.25 52.25 0.03 6.68 3.49 10.57
10/29/2021 7:45:00 AM 11.23 52.214 0.03 6.66 3.49 10.57
10/29/2021 8:00:00 AM 11.22 52.196 0.03 6.67 3.53 10.57
10/29/2021 8:15:00 AM 11.2 52.16 0.03 6.67 3.56 10.58
10/29/2021 8:30:00 AM 11.18 52.124 0.03 6.67 3.53 10.59
10/29/2021 8:45:00 AM 11.17 52.106 0.03 6.63 3.5 10.6
10/29/2021 9:00:00 AM 11.16 52.088 0.03 6.62 3.47 10.62
10/29/2021 9:15:00 AM 11.15 52.07 0.03 6.7 3.5 10.65
10/29/2021 9:30:00 AM 11.14 52.052 0.03 6.67 3.48 10.66
10/29/2021 9:45:00 AM 11.12 52.016 0.03 6.7 3.45 10.66
10/29/2021 10:00:00 AM 11.11 51.998 0.03 6.71 3.54 10.66
10/29/2021 10:15:00 AM 11.1 51.98 0.03 6.7 3.51 10.67
10/29/2021 10:30:00 AM 11.1 51.98 0.03 6.62 3.43 10.67
10/29/2021 10:45:00 AM 11.09 51.962 0.03 6.71 3.52 10.67
10/29/2021 11:00:00 AM 11.09 51.962 0.03 6.7 3.42 10.66
10/29/2021 11:15:00 AM 11.08 51.944 0.03 6.72 3.44 10.66
10/29/2021 11:30:00 AM 11.08 51.944 0.03 6.7 3.42 10.67
10/29/2021 11:45:00 AM 11.07 51.926 0.03 6.71 3.43 10.67
10/29/2021 12:00:00 PM 11.06 51.908 0.03 6.7 3.37 10.66
10/29/2021 12:15:00 PM 11.05 51.89 0.03 6.7 3.37 10.67
10/29/2021 12:30:00 PM 11.05 51.89 0.03 6.67 3.4 10.66
10/29/2021 12:45:00 PM 11.04 51.872 0.03 6.71 3.5 10.66
10/29/2021 1:00:00 PM 11.03 51.854 0.03 6.7 3.38 10.66
10/29/2021 1:15:00 PM 11.02 51.836 0.03 6.7 3.4 10.66
10/29/2021 1:30:00 PM 11.01 51.818 0.029 6.7 3.6 10.66
10/29/2021 1:45:00 PM 10.99 51.782 0.029 6.67 3.5 10.65
10/29/2021 2:00:00 PM 10.97 51.746 0.029 6.7 3.55 10.65
10/29/2021 2:15:00 PM -99999.99 -179968 -99999.99 -99999.99 -99999.99 -99999.99
10/29/2021 2:30:00 PM 10.99 51.782 0.029 6.73 4.12 10.69
10/29/2021 2:45:00 PM 10.99 51.782 0.029 6.73 4.45 10.69
10/29/2021 3:00:00 PM 10.97 51.746 0.029 6.72 4.68 10.67
10/29/2021 3:15:00 PM 10.96 51.728 0.029 6.7 4.77 10.65
10/29/2021 3:30:00 PM 10.94 51.692 0.029 6.71 4.97 10.65
10/29/2021 3:45:00 PM 10.92 51.656 0.029 6.7 5.15 10.66
10/29/2021 4:00:00 PM 10.9 51.62 0.029 6.68 5.32 10.66
10/29/2021 4:15:00 PM 10.89 51.602 0.029 6.7 6.27 10.67
10/29/2021 4:30:00 PM 10.88 51.584 0.029 6.6 6.62 10.68
10/29/2021 4:45:00 PM 10.88 51.584 0.029 6.7 7.18 10.68
10/29/2021 5:00:00 PM 10.87 51.566 0.029 6.65 8.18 10.67
10/29/2021 5:15:00 PM 10.86 51.548 0.029 6.67 8.84 10.66
10/29/2021 5:30:00 PM 10.86 51.548 0.029 6.61 9.95 10.67
10/29/2021 5:45:00 PM 10.84 51.512 0.029 6.69 10.62 10.66
10/29/2021 6:00:00 PM 10.83 51.494 0.029 6.59 10.91 10.66
10/29/2021 6:15:00 PM 10.82 51.476 0.029 6.67 11.61 10.66
10/29/2021 6:30:00 PM 10.81 51.458 0.029 6.66 12.11 10.66
10/29/2021 6:45:00 PM 10.8 51.44 0.029 6.65 11.66 10.66
10/29/2021 7:00:00 PM 10.79 51.422 0.029 6.65 13.44 10.66
10/29/2021 7:15:00 PM 10.78 51.404 0.029 6.64 12.75 10.67
10/29/2021 7:30:00 PM 10.77 51.386 0.029 6.56 12.71 10.67
10/29/2021 7:45:00 PM 10.77 51.386 0.028 6.64 12.63 10.67
10/29/2021 8:00:00 PM 10.76 51.368 0.028 6.63 12.57 10.67
10/29/2021 8:15:00 PM 10.76 51.368 0.028 6.64 11.72 10.67
10/29/2021 8:30:00 PM 10.75 51.35 0.028 6.62 11.18 10.67
10/29/2021 8:45:00 PM 10.75 51.35 0.028 6.61 11.65 10.67
10/29/2021 9:00:00 PM 10.75 51.35 0.028 6.61 10.46 10.67
10/29/2021 9:15:00 PM 10.75 51.35 0.028 6.61 9.89 10.67
10/29/2021 9:30:00 PM 10.75 51.35 0.028 6.62 9.39 10.67
10/29/2021 9:45:00 PM 10.75 51.35 0.028 6.61 9.11 10.67
10/29/2021 10:00:00 PM 10.75 51.35 0.028 6.61 8.62 10.67
10/29/2021 10:15:00 PM 10.75 51.35 0.028 6.6 8.14 10.67
10/29/2021 10:30:00 PM 10.75 51.35 0.028 6.6 7.81 10.67
10/29/2021 10:45:00 PM 10.75 51.35 0.028 6.61 8.12 10.67
10/29/2021 11:00:00 PM 10.74 51.332 0.028 6.61 7.21 10.67
10/29/2021 11:15:00 PM 10.74 51.332 0.028 6.58 7.42 10.67
10/29/2021 11:30:00 PM 10.73 51.314 0.028 6.61 7.14 10.67
10/29/2021 11:45:00 PM 10.72 51.296 0.028 6.59 6.82 10.67
10/30/2021 12:00:00 AM 10.72 51.296 0.028 6.53 6.64 10.67
10/30/2021 12:15:00 AM 10.71 51.278 0.028 6.56 6.28 10.67
10/30/2021 12:30:00 AM 10.7 51.26 0.028 6.6 6.38 10.68
10/30/2021 12:45:00 AM 10.7 51.26 0.028 6.6 6.24 10.67
10/30/2021 1:00:00 AM 10.69 51.242 0.028 6.59 6.33 10.67
10/30/2021 1:15:00 AM 10.69 51.242 0.028 6.59 6.34 10.68
10/30/2021 1:30:00 AM 10.68 51.224 0.028 6.54 5.95 10.68
10/30/2021 1:45:00 AM 10.67 51.206 0.028 6.56 5.96 10.68
10/30/2021 2:00:00 AM 10.67 51.206 0.028 6.6 5.72 10.68
10/30/2021 2:15:00 AM 10.66 51.188 0.028 6.6 5.57 10.68
10/30/2021 2:30:00 AM 10.66 51.188 0.028 6.61 5.52 10.68
10/30/2021 2:45:00 AM 10.65 51.17 0.028 6.53 5.47 10.68
10/30/2021 3:00:00 AM 10.65 51.17 0.028 6.62 5.65 10.68
10/30/2021 3:15:00 AM 10.64 51.152 0.028 6.61 5.57 10.68
10/30/2021 3:30:00 AM 10.64 51.152 0.028 6.62 5.51 10.68
10/30/2021 3:45:00 AM 10.63 51.134 0.028 6.62 5.5 10.68
10/30/2021 4:00:00 AM 10.62 51.116 0.028 6.54 5.37 10.68
10/30/2021 4:15:00 AM 10.62 51.116 0.028 6.59 5.41 10.69
10/30/2021 4:30:00 AM 10.61 51.098 0.028 6.56 5.38 10.68
10/30/2021 4:45:00 AM 10.61 51.098 0.028 6.61 5.04 10.69
10/30/2021 5:00:00 AM 10.6 51.08 0.028 6.62 5.2 10.68
10/30/2021 5:15:00 AM 10.59 51.062 0.028 6.58 5.4 10.69
10/30/2021 5:30:00 AM 10.59 51.062 0.028 6.55 5.35 10.69
10/30/2021 5:45:00 AM 10.58 51.044 0.028 6.57 4.95 10.69
10/30/2021 6:00:00 AM 10.57 51.026 0.028 6.57 5 10.7
10/30/2021 6:15:00 AM 10.57 51.026 0.028 6.61 5.63 10.7
10/30/2021 6:30:00 AM 10.56 51.008 0.028 6.61 4.86 10.7
10/30/2021 6:45:00 AM 10.56 51.008 0.029 6.55 4.98 10.7
10/30/2021 7:00:00 AM 10.55 50.99 0.029 6.57 5.15 10.71
10/30/2021 7:15:00 AM 10.55 50.99 0.029 6.58 4.83 10.7
10/30/2021 7:30:00 AM 10.55 50.99 0.029 6.57 4.79 10.71
10/30/2021 7:45:00 AM 10.54 50.972 0.029 6.59 4.87 10.71
10/30/2021 8:00:00 AM 10.54 50.972 0.029 6.6 4.78 10.72
10/30/2021 8:15:00 AM 10.54 50.972 0.029 6.63 4.88 10.72
10/30/2021 8:30:00 AM 10.54 50.972 0.029 6.62 4.83 10.73
10/30/2021 8:45:00 AM 10.54 50.972 0.029 6.59 4.72 10.74
10/30/2021 9:00:00 AM 10.55 50.99 0.029 6.62 4.6 10.75
10/30/2021 9:15:00 AM 10.56 51.008 0.029 6.64 4.79 10.76
10/30/2021 9:30:00 AM 10.58 51.044 0.029 6.59 4.7 10.77
10/30/2021 9:45:00 AM 10.6 51.08 0.029 6.65 4.69 10.78
10/30/2021 10:00:00 AM -99999.99 -179968 -99999.99 -99999.99 -99999.99 -99999.99
10/30/2021 10:15:00 AM -99999.99 -179968 -99999.99 -99999.99 -99999.99 -99999.99
10/30/2021 10:30:00 AM 10.66 51.188 0.029 6.67 4.63 10.78
10/30/2021 10:45:00 AM -99999.99 -179968 -99999.99 -99999.99 -99999.99 -99999.99
10/30/2021 11:00:00 AM -99999.99 -179968 -99999.99 -99999.99 -99999.99 -99999.99
10/30/2021 11:15:00 AM -99999.99 -179968 -99999.99 -99999.99 -99999.99 -99999.99
10/30/2021 11:30:00 AM 10.78 51.404 0.029 6.68 4.61 10.75
10/30/2021 11:45:00 AM 10.82 51.476 0.029 6.65 4.74 10.74
10/30/2021 12:00:00 PM 10.87 51.566 0.029 6.68 4.55 10.75
10/30/2021 12:15:00 PM 10.91 51.638 0.029 6.66 4.44 10.74
10/30/2021 12:30:00 PM 10.95 51.71 0.029 6.68 4.46 10.72
10/30/2021 12:45:00 PM 10.98 51.764 0.029 6.69 4.41 10.71
10/30/2021 1:00:00 PM 11.01 51.818 0.029 6.59 4.38 10.7
10/30/2021 1:15:00 PM 11.05 51.89 0.029 6.65 4.32 10.7
10/30/2021 1:30:00 PM 11.08 51.944 0.029 6.69 4.64 10.69
10/30/2021 1:45:00 PM 11.12 52.016 0.029 6.69 4.3 10.69
10/30/2021 2:00:00 PM 11.16 52.088 0.029 6.67 4.41 10.67
10/30/2021 2:15:00 PM 11.19 52.142 0.029 6.68 4.53 10.66
10/30/2021 2:30:00 PM 11.24 52.232 0.029 6.69 4.38 10.65
10/30/2021 2:45:00 PM 11.28 52.304 0.029 6.69 4.37 10.63
10/30/2021 3:00:00 PM 11.3 52.34 0.029 6.6 4.43 10.62
10/30/2021 3:15:00 PM 11.31 52.358 0.029 6.7 4.33 10.6
10/30/2021 3:30:00 PM 11.34 52.412 0.029 6.68 4.42 10.61
10/30/2021 3:45:00 PM 11.37 52.466 0.029 6.64 4.33 10.61
10/30/2021 4:00:00 PM 11.38 52.484 0.029 6.71 4.37 10.59
10/30/2021 4:15:00 PM 11.39 52.502 0.029 6.7 4.39 10.58
10/30/2021 4:30:00 PM 11.4 52.52 0.029 6.67 4.47 10.57
10/30/2021 4:45:00 PM 11.4 52.52 0.029 6.67 4.37 10.54
10/30/2021 5:00:00 PM 11.4 52.52 0.029 6.67 4.33 10.53
10/30/2021 5:15:00 PM 11.4 52.52 0.029 6.66 4.38 10.52
10/30/2021 5:30:00 PM 11.4 52.52 0.029 6.67 4.3 10.51
10/30/2021 5:45:00 PM 11.4 52.52 0.029 6.64 4.48 10.51
10/30/2021 6:00:00 PM 11.4 52.52 0.029 6.59 4.41 10.5
10/30/2021 6:15:00 PM 11.39 52.502 0.029 6.65 4.44 10.5
10/30/2021 6:30:00 PM 11.39 52.502 0.029 6.65 4.47 10.5
10/30/2021 6:45:00 PM 11.38 52.484 0.029 6.66 4.43 10.5
10/30/2021 7:00:00 PM 11.38 52.484 0.029 6.53 4.46 10.5
10/30/2021 7:15:00 PM 11.37 52.466 0.029 6.65 4.62 10.51
10/30/2021 7:30:00 PM 11.37 52.466 0.029 6.63 4.48 10.5
10/30/2021 7:45:00 PM 11.36 52.448 0.029 6.63 4.41 10.51
10/30/2021 8:00:00 PM 11.35 52.43 0.029 6.64 4.52 10.51
10/30/2021 8:15:00 PM 11.35 52.43 0.029 6.64 4.4 10.51
10/30/2021 8:30:00 PM 11.34 52.412 0.029 6.63 4.39 10.52
10/30/2021 8:45:00 PM 11.33 52.394 0.029 6.6 4.36 10.52
10/30/2021 9:00:00 PM 11.33 52.394 0.03 6.57 4.48 10.52
10/30/2021 9:15:00 PM 11.32 52.376 0.029 6.6 4.37 10.52
10/30/2021 9:30:00 PM 11.31 52.358 0.03 6.64 4.43 10.52
10/30/2021 9:45:00 PM 11.3 52.34 0.03 6.64 4.31 10.52
10/30/2021 10:00:00 PM 11.3 52.34 0.03 6.62 4.4 10.53
10/30/2021 10:15:00 PM 11.29 52.322 0.03 6.62 4.38 10.53
10/30/2021 10:30:00 PM 11.28 52.304 0.03 6.63 4.34 10.53
10/30/2021 10:45:00 PM 11.27 52.286 0.03 6.62 4.29 10.53
10/30/2021 11:00:00 PM 11.27 52.286 0.03 6.57 4.39 10.53
10/30/2021 11:15:00 PM 11.26 52.268 0.03 6.64 4.41 10.53
10/30/2021 11:30:00 PM 11.25 52.25 0.03 6.54 4.33 10.54
10/30/2021 11:45:00 PM 11.25 52.25 0.03 6.62 4.41 10.54
10/31/2021 12:00:00 AM 11.24 52.232 0.03 6.58 4.2 10.54
10/31/2021 12:15:00 AM 11.23 52.214 0.03 6.59 4.33 10.54
10/31/2021 12:30:00 AM 11.23 52.214 0.03 6.59 4.24 10.54
10/31/2021 12:45:00 AM 11.22 52.196 0.03 6.63 4.33 10.54
10/31/2021 1:00:00 AM 11.22 52.196 0.03 6.56 4.4 10.54
10/31/2021 1:15:00 AM 11.21 52.178 0.03 6.63 4.18 10.54
10/31/2021 1:30:00 AM 11.21 52.178 0.03 6.64 4.27 10.54
10/31/2021 1:45:00 AM 11.2 52.16 0.03 6.58 4.2 10.54
10/31/2021 2:00:00 AM 11.2 52.16 0.03 6.64 4.21 10.54
10/31/2021 2:15:00 AM 11.19 52.142 0.03 6.63 4.24 10.54
10/31/2021 2:30:00 AM 11.19 52.142 0.03 6.63 4.25 10.54
10/31/2021 2:45:00 AM 11.18 52.124 0.03 6.63 4.26 10.54
10/31/2021 3:00:00 AM 11.18 52.124 0.03 6.62 4.24 10.55
10/31/2021 3:15:00 AM 11.17 52.106 0.03 6.62 4.31 10.55
10/31/2021 3:30:00 AM 11.16 52.088 0.03 6.61 4.16 10.55
10/31/2021 3:45:00 AM 11.15 52.07 0.03 6.63 4.23 10.55
10/31/2021 4:00:00 AM 11.15 52.07 0.03 6.62 4.51 10.55
10/31/2021 4:15:00 AM 11.14 52.052 0.03 6.64 4.15 10.55
10/31/2021 4:30:00 AM 11.14 52.052 0.03 6.62 4.18 10.56
10/31/2021 4:45:00 AM 11.13 52.034 0.03 6.63 4.26 10.56
10/31/2021 5:00:00 AM 11.13 52.034 0.03 6.62 4.25 10.56
10/31/2021 5:15:00 AM 11.12 52.016 0.03 6.63 4.13 10.56
10/31/2021 5:30:00 AM 11.12 52.016 0.03 6.63 4.27 10.56
10/31/2021 5:45:00 AM 11.12 52.016 0.03 6.61 4.15 10.56
10/31/2021 6:00:00 AM 11.11 51.998 0.03 6.61 4.3 10.56
10/31/2021 6:15:00 AM 11.11 51.998 0.03 6.63 4.18 10.57
10/31/2021 6:30:00 AM 11.1 51.98 0.03 6.61 4.15 10.57
10/31/2021 6:45:00 AM 11.1 51.98 0.03 6.61 4.14 10.57
10/31/2021 7:00:00 AM 11.1 51.98 0.03 6.56 4.24 10.57
10/31/2021 7:15:00 AM 11.09 51.962 0.03 6.64 4.18 10.57
10/31/2021 7:30:00 AM 11.09 51.962 0.03 6.53 4.24 10.57
10/31/2021 7:45:00 AM 11.09 51.962 0.03 6.64 4.27 10.58
10/31/2021 8:00:00 AM 11.09 51.962 0.03 6.62 4.19 10.58
10/31/2021 8:15:00 AM 11.09 51.962 0.03 6.56 4.27 10.59
10/31/2021 8:30:00 AM 11.09 51.962 0.03 6.59 4.15 10.6
10/31/2021 8:45:00 AM 11.09 51.962 0.03 6.65 4.03 10.61
10/31/2021 9:00:00 AM 11.1 51.98 0.03 6.63 4.02 10.62
10/31/2021 9:15:00 AM 11.11 51.998 0.029 6.65 4.12 10.63
10/31/2021 9:30:00 AM 11.13 52.034 0.029 6.65 3.96 10.65
10/31/2021 9:45:00 AM -99999.99 -179968 -99999.99 -99999.99 -99999.99 -99999.99
10/31/2021 10:00:00 AM -99999.99 -179968 -99999.99 -99999.99 -99999.99 -99999.99
10/31/2021 10:15:00 AM 11.2 52.16 0.029 6.69 4.01 10.69
10/31/2021 10:30:00 AM 11.22 52.196 0.029 6.7 4.13 10.68
10/31/2021 10:45:00 AM 11.24 52.232 0.029 6.66 4.06 10.67
10/31/2021 11:00:00 AM 11.26 52.268 0.029 6.69 4.02 10.67
10/31/2021 11:15:00 AM 11.28 52.304 0.029 6.68 4.18 10.67
10/31/2021 11:30:00 AM 11.29 52.322 0.029 6.69 3.91 10.66
10/31/2021 11:45:00 AM 11.29 52.322 0.029 6.69 4 10.66
10/31/2021 12:00:00 PM 11.29 52.322 0.029 6.68 3.92 10.65
10/31/2021 12:15:00 PM -99999.99 -179968 -99999.99 -99999.99 -99999.99 -99999.99
10/31/2021 12:30:00 PM -99999.99 -179968 -99999.99 -99999.99 -99999.99 -99999.99
10/31/2021 12:45:00 PM 11.29 52.322 0.029 6.7 3.96 10.65
10/31/2021 1:00:00 PM -99999.99 -179968 -99999.99 -99999.99 -99999.99 -99999.99
10/31/2021 1:15:00 PM -99999.99 -179968 -99999.99 -99999.99 -99999.99 -99999.99
10/31/2021 1:30:00 PM 11.34 52.412 0.029 6.66 3.94 10.66
10/31/2021 1:45:00 PM 11.34 52.412 0.029 6.69 4 10.66
10/31/2021 2:00:00 PM 11.36 52.448 0.029 6.7 3.94 10.66
10/31/2021 2:15:00 PM 11.36 52.448 0.029 6.69 3.95 10.65
10/31/2021 2:30:00 PM 11.38 52.484 0.029 6.63 3.9 10.66
10/31/2021 2:45:00 PM 11.4 52.52 0.029 6.71 4.38 10.66
10/31/2021 3:00:00 PM 11.4 52.52 0.029 6.64 4.02 10.65
10/31/2021 3:15:00 PM -99999.99 -179968 -99999.99 -99999.99 -99999.99 -99999.99
10/31/2021 3:30:00 PM 11.41 52.538 0.029 6.7 3.85 10.64
10/31/2021 3:45:00 PM -99999.99 -179968 -99999.99 -99999.99 -99999.99 -99999.99
10/31/2021 4:00:00 PM -99999.99 -179968 -99999.99 -99999.99 -99999.99 -99999.99
10/31/2021 4:15:00 PM 11.41 52.538 0.029 6.68 4.14 10.62
10/31/2021 4:30:00 PM 11.41 52.538 0.029 6.69 3.89 10.62
10/31/2021 4:45:00 PM 11.42 52.556 0.029 6.68 3.9 10.63
10/31/2021 5:00:00 PM 11.4 52.52 0.029 6.59 3.89 10.62
10/31/2021 5:15:00 PM 11.4 52.52 0.029 6.68 3.92 10.61
10/31/2021 5:30:00 PM 11.38 52.484 0.029 6.66 3.99 10.61
10/31/2021 5:45:00 PM 11.37 52.466 0.029 6.67 3.84 10.61
10/31/2021 6:00:00 PM 11.35 52.43 0.029 6.66 3.85 10.6
10/31/2021 6:15:00 PM 11.32 52.376 0.029 6.64 4.07 10.59
10/31/2021 6:30:00 PM 11.3 52.34 0.029 6.66 3.82 10.58
10/31/2021 6:45:00 PM 11.28 52.304 0.029 6.54 3.95 10.6
10/31/2021 7:00:00 PM 11.25 52.25 0.029 6.6 3.92 10.6
10/31/2021 7:15:00 PM 11.23 52.214 0.029 6.57 3.99 10.61
10/31/2021 7:30:00 PM 11.2 52.16 0.029 6.63 3.88 10.61
10/31/2021 7:45:00 PM 11.18 52.124 0.029 6.62 3.84 10.62
10/31/2021 8:00:00 PM 11.15 52.07 0.029 6.62 3.9 10.63
10/31/2021 8:15:00 PM 11.12 52.016 0.029 6.63 3.98 10.64
10/31/2021 8:30:00 PM 11.09 51.962 0.029 6.62 3.8 10.64
10/31/2021 8:45:00 PM 11.06 51.908 0.029 6.61 3.96 10.66
10/31/2021 9:00:00 PM 11.03 51.854 0.029 6.61 3.83 10.67
10/31/2021 9:15:00 PM 11 51.8 0.029 6.54 3.86 10.68
10/31/2021 9:30:00 PM 10.97 51.746 0.029 6.62 3.92 10.69
10/31/2021 9:45:00 PM 10.93 51.674 0.029 6.61 4.11 10.7
10/31/2021 10:00:00 PM 10.9 51.62 0.029 6.61 3.75 10.71
10/31/2021 10:15:00 PM 10.88 51.584 0.029 6.56 3.84 10.72
10/31/2021 10:30:00 PM 10.86 51.548 0.029 6.56 3.81 10.72
10/31/2021 10:45:00 PM 10.84 51.512 0.029 6.6 3.93 10.73
10/31/2021 11:00:00 PM 10.82 51.476 0.029 6.59 3.76 10.74
10/31/2021 11:15:00 PM 10.8 51.44 0.029 6.59 3.76 10.74
10/31/2021 11:30:00 PM 10.78 51.404 0.029 6.6 3.86 10.74
10/31/2021 11:45:00 PM 10.77 51.386 0.029 6.61 3.82 10.76
11/1/2021 12:00:00 AM 10.75 51.35 0.029 6.59 3.82 10.76
11/1/2021 12:15:00 AM 10.74 51.332 0.029 6.54 3.78 10.76
11/1/2021 12:30:00 AM 10.73 51.314 0.029 6.61 3.8 10.76
11/1/2021 12:45:00 AM 10.72 51.296 0.029 6.61 3.82 10.77
11/1/2021 1:00:00 AM 10.71 51.278 0.029 6.57 3.71 10.77
11/1/2021 1:15:00 AM 10.7 51.26 0.029 6.61 3.73 10.77
11/1/2021 1:30:00 AM 10.69 51.242 0.029 6.52 3.8 10.78
11/1/2021 1:45:00 AM 10.69 51.242 0.029 6.61 3.78 10.78
11/1/2021 2:00:00 AM 10.69 51.242 0.029 6.6 3.77 10.78
11/1/2021 2:15:00 AM 10.69 51.242 0.029 6.59 3.84 10.79
11/1/2021 2:30:00 AM 10.69 51.242 0.029 6.62 3.8 10.78
11/1/2021 2:45:00 AM 10.69 51.242 0.029 6.61 3.73 10.79
11/1/2021 3:00:00 AM 10.68 51.224 0.029 6.61 3.76 10.8
11/1/2021 3:15:00 AM 10.67 51.206 0.029 6.59 3.78 10.8
11/1/2021 3:30:00 AM 10.66 51.188 0.029 6.55 3.72 10.8
11/1/2021 3:45:00 AM 10.63 51.134 0.029 6.6 3.83 10.81
11/1/2021 4:00:00 AM 10.6 51.08 0.029 6.61 4.11 10.82
11/1/2021 4:15:00 AM 10.57 51.026 0.029 6.62 3.87 10.83
11/1/2021 4:30:00 AM 10.54 50.972 0.029 6.61 3.96 10.84
11/1/2021 4:45:00 AM 10.52 50.936 0.029 6.6 3.94 10.85
11/1/2021 5:00:00 AM 10.49 50.882 0.029 6.55 3.74 10.86
11/1/2021 5:15:00 AM 10.46 50.828 0.029 6.57 3.99 10.87
11/1/2021 5:30:00 AM 10.43 50.774 0.029 6.57 3.77 10.88
11/1/2021 5:45:00 AM 10.41 50.738 0.029 6.61 3.77 10.89
11/1/2021 6:00:00 AM 10.37 50.666 0.029 6.58 3.74 10.9
11/1/2021 6:15:00 AM 10.34 50.612 0.029 6.61 3.9 10.91
11/1/2021 6:30:00 AM 10.3 50.54 0.029 6.53 3.86 10.93
11/1/2021 6:45:00 AM 10.26 50.468 0.029 6.61 3.81 10.94
11/1/2021 7:00:00 AM 10.22 50.396 0.029 6.58 3.87 10.95
11/1/2021 7:15:00 AM 10.18 50.324 0.029 6.59 3.8 10.96
11/1/2021 7:30:00 AM 10.14 50.252 0.029 6.56 3.74 10.98
11/1/2021 7:45:00 AM 10.09 50.162 0.029 6.58 3.86 10.99
11/1/2021 8:00:00 AM 10.05 50.09 0.029 6.58 3.85 11.01
11/1/2021 8:15:00 AM 10 50 0.029 6.57 3.76 11.04
11/1/2021 8:30:00 AM 9.96 49.928 0.029 6.59 3.69 11.06
11/1/2021 8:45:00 AM 9.92 49.856 0.029 6.6 3.7 11.09
11/1/2021 9:00:00 AM 9.88 49.784 0.029 6.56 3.73 11.11
11/1/2021 9:15:00 AM 9.85 49.73 0.029 6.6 3.65 11.12
11/1/2021 9:30:00 AM 9.82 49.676 0.029 6.58 3.72 11.15
11/1/2021 9:45:00 AM -99999.99 -179968 -99999.99 -99999.99 -99999.99 -99999.99
11/1/2021 10:00:00 AM 9.81 49.658 0.029 6.63 3.65 11.18
11/1/2021 10:15:00 AM -99999.99 -179968 -99999.99 -99999.99 -99999.99 -99999.99
11/1/2021 10:30:00 AM -99999.99 -179968 -99999.99 -99999.99 -99999.99 -99999.99
11/1/2021 10:45:00 AM 9.85 49.73 0.029 6.63 3.63 11.21
11/1/2021 11:00:00 AM 9.87 49.766 0.029 6.58 3.58 11.22
11/1/2021 11:15:00 AM 9.87 49.766 0.029 6.64 3.58 11.22
11/1/2021 11:30:00 AM 9.89 49.802 0.029 6.66 3.6 11.22
11/1/2021 11:45:00 AM 9.91 49.838 0.029 6.66 3.53 11.21
11/1/2021 12:00:00 PM 9.98 49.964 0.029 6.65 4.12 11.21
11/1/2021 12:15:00 PM 10.06 50.108 0.029 6.67 3.55 11.19
11/1/2021 12:30:00 PM 10.05 50.09 0.029 6.67 3.63 11.18
11/1/2021 12:45:00 PM 10.1 50.18 0.029 6.68 3.57 11.18
11/1/2021 1:00:00 PM 10.14 50.252 0.029 6.67 3.55 11.16
11/1/2021 1:15:00 PM 10.11 50.198 0.029 6.62 3.68 11.15
11/1/2021 1:30:00 PM 10.18 50.324 0.029 6.69 3.81 11.15
11/1/2021 1:45:00 PM 10.29 50.522 0.029 6.67 3.51 11.13
11/1/2021 2:00:00 PM 10.32 50.576 0.029 6.63 3.56 11.12
11/1/2021 2:15:00 PM 10.33 50.594 0.029 6.65 3.59 11.1
11/1/2021 2:30:00 PM 10.34 50.612 0.029 6.66 3.5 11.11
11/1/2021 2:45:00 PM 10.33 50.594 0.029 6.65 3.47 11.11
11/1/2021 3:00:00 PM 10.27 50.486 0.029 6.7 3.63 11.1
11/1/2021 3:15:00 PM 10.26 50.468 0.029 6.68 3.55 11.1
11/1/2021 3:30:00 PM 10.31 50.558 0.029 6.66 3.46 11.09
11/1/2021 3:45:00 PM 10.32 50.576 0.029 6.7 3.57 11.08
11/1/2021 4:00:00 PM 10.31 50.558 0.029 6.68 3.52 11.07
11/1/2021 4:15:00 PM 10.31 50.558 0.029 6.68 3.58 11.06
11/1/2021 4:30:00 PM 10.31 50.558 0.029 6.68 3.49 11.06
11/1/2021 4:45:00 PM 10.31 50.558 0.029 6.67 3.46 11.05
11/1/2021 5:00:00 PM 10.29 50.522 0.029 6.67 3.56 11.04
11/1/2021 5:15:00 PM 10.26 50.468 0.029 6.6 3.46 11.03
11/1/2021 5:30:00 PM 10.24 50.432 0.029 6.63 3.47 11.02
11/1/2021 5:45:00 PM 10.22 50.396 0.029 6.62 3.5 11.02
11/1/2021 6:00:00 PM 10.19 50.342 0.029 6.66 3.52 11.01
11/1/2021 6:15:00 PM 10.16 50.288 0.029 6.61 3.53 11
11/1/2021 6:30:00 PM 10.12 50.216 0.029 6.61 3.59 11
11/1/2021 6:45:00 PM 10.09 50.162 0.029 6.63 3.51 11.01
11/1/2021 7:00:00 PM 10.05 50.09 0.029 6.62 3.51 11.02
11/1/2021 7:15:00 PM 10.01 50.018 0.029 6.62 3.57 11.03
11/1/2021 7:30:00 PM 9.97 49.946 0.029 6.61 3.5 11.03
11/1/2021 7:45:00 PM 9.93 49.874 0.029 6.55 3.48 11.06
11/1/2021 8:00:00 PM 9.89 49.802 0.029 6.6 3.59 11.07
11/1/2021 8:15:00 PM 9.86 49.748 0.029 6.55 3.55 11.08
11/1/2021 8:30:00 PM 9.82 49.676 0.029 6.56 3.56 11.09
11/1/2021 8:45:00 PM 9.78 49.604 0.029 6.61 3.54 11.1
11/1/2021 9:00:00 PM 9.73 49.514 0.029 6.6 3.47 11.12
11/1/2021 9:15:00 PM 9.68 49.424 0.029 6.59 3.48 11.13
11/1/2021 9:30:00 PM 9.63 49.334 0.029 6.53 3.56 11.13
11/1/2021 9:45:00 PM 9.58 49.244 0.029 6.53 3.59 11.15
11/1/2021 10:00:00 PM 9.53 49.154 0.029 6.57 3.5 11.17
11/1/2021 10:15:00 PM 9.48 49.064 0.029 6.53 3.48 11.18
11/1/2021 10:30:00 PM 9.43 48.974 0.029 6.55 3.52 11.2
11/1/2021 10:45:00 PM 9.38 48.884 0.029 6.59 3.64 11.21
11/1/2021 11:00:00 PM 9.33 48.794 0.029 6.57 3.47 11.23
11/1/2021 11:15:00 PM 9.29 48.722 0.029 6.58 3.49 11.24
11/1/2021 11:30:00 PM 9.25 48.65 0.029 6.58 3.52 11.25
11/1/2021 11:45:00 PM 9.21 48.578 0.029 6.51 3.5 11.26
11/2/2021 12:00:00 AM 9.18 48.524 0.029 6.57 3.43 11.27
11/2/2021 12:15:00 AM 9.14 48.452 0.029 6.58 3.44 11.28
11/2/2021 12:30:00 AM 9.11 48.398 0.029 6.57 3.39 11.28
11/2/2021 12:45:00 AM 9.08 48.344 0.029 6.53 3.51 11.29
11/2/2021 1:00:00 AM 9.06 48.308 0.029 6.54 3.42 11.3
11/2/2021 1:15:00 AM 9.03 48.254 0.029 6.58 3.41 11.31
11/2/2021 1:30:00 AM 9.01 48.218 0.029 6.53 3.47 11.32
11/2/2021 1:45:00 AM 8.99 48.182 0.029 6.54 3.42 11.32
11/2/2021 2:00:00 AM 8.96 48.128 0.029 6.55 3.46 11.33
11/2/2021 2:15:00 AM 8.94 48.092 0.029 6.58 3.44 11.33
11/2/2021 2:30:00 AM 8.92 48.056 0.029 6.57 3.35 11.34
11/2/2021 2:45:00 AM 8.9 48.02 0.029 6.57 3.43 11.34
11/2/2021 3:00:00 AM 8.88 47.984 0.029 6.56 3.46 11.35
11/2/2021 3:15:00 AM 8.86 47.948 0.029 6.54 3.45 11.36
11/2/2021 3:30:00 AM 8.84 47.912 0.03 6.59 3.44 11.36
11/2/2021 3:45:00 AM 8.82 47.876 0.029 6.58 3.38 11.36
11/2/2021 4:00:00 AM 8.81 47.858 0.029 6.57 3.43 11.37
11/2/2021 4:15:00 AM 8.79 47.822 0.029 6.59 3.35 11.37
11/2/2021 4:30:00 AM 8.78 47.804 0.029 6.58 3.48 11.39
11/2/2021 4:45:00 AM 8.76 47.768 0.03 6.54 3.47 11.38
11/2/2021 5:00:00 AM 8.75 47.75 0.03 6.59 3.41 11.39
11/2/2021 5:15:00 AM 8.74 47.732 0.03 6.59 3.39 11.39
11/2/2021 5:30:00 AM 8.72 47.696 0.03 6.59 3.35 11.4
11/2/2021 5:45:00 AM 8.7 47.66 0.03 6.54 3.36 11.4
11/2/2021 6:00:00 AM 8.68 47.624 0.03 6.58 3.42 11.4
11/2/2021 6:15:00 AM 8.66 47.588 0.03 6.58 3.37 11.42
11/2/2021 6:30:00 AM 8.64 47.552 0.03 6.52 3.31 11.42
11/2/2021 6:45:00 AM 8.61 47.498 0.03 6.58 3.29 11.43
11/2/2021 7:00:00 AM 8.59 47.462 0.03 6.57 3.36 11.43
11/2/2021 7:15:00 AM 8.57 47.426 0.03 6.53 3.32 11.44
11/2/2021 7:30:00 AM 8.54 47.372 0.03 6.59 3.28 11.44
11/2/2021 7:45:00 AM 8.51 47.318 0.03 6.57 3.31 11.46
11/2/2021 8:00:00 AM 8.48 47.264 0.03 6.53 3.36 11.47
11/2/2021 8:15:00 AM 8.45 47.21 0.03 6.58 3.36 11.5
11/2/2021 8:30:00 AM 8.43 47.174 0.03 6.6 3.27 11.52
11/2/2021 8:45:00 AM 8.41 47.138 0.029 6.6 3.34 11.55
11/2/2021 9:00:00 AM 8.4 47.12 0.029 6.51 3.31 11.56
11/2/2021 9:15:00 AM -99999.99 -179968 -99999.99 -99999.99 -99999.99 -99999.99
11/2/2021 9:30:00 AM 8.39 47.102 0.029 6.64 3.25 11.6
11/2/2021 9:45:00 AM 8.39 47.102 0.029 6.63 3.26 11.63
11/2/2021 10:00:00 AM 8.42 47.156 0.029 6.63 3.37 11.63
11/2/2021 10:15:00 AM 8.45 47.21 0.029 6.64 3.24 11.64
11/2/2021 10:30:00 AM 8.5 47.3 0.029 6.62 3.28 11.64
11/2/2021 10:45:00 AM 8.54 47.372 0.029 6.66 3.19 11.63
11/2/2021 11:00:00 AM 8.55 47.39 0.029 6.62 3.24 11.6
11/2/2021 11:15:00 AM 8.59 47.462 0.029 6.65 3.28 11.59
11/2/2021 11:30:00 AM 8.68 47.624 0.029 6.68 3.28 11.58
11/2/2021 11:45:00 AM 8.74 47.732 0.029 6.67 3.28 11.57
11/2/2021 12:00:00 PM 8.81 47.858 0.029 6.7 3.23 11.56
11/2/2021 12:15:00 PM 8.87 47.966 0.029 6.65 3.25 11.54
11/2/2021 12:30:00 PM 8.91 48.038 0.029 6.64 3.26 11.53
11/2/2021 12:45:00 PM 9.04 48.272 0.029 6.71 3.19 11.51
11/2/2021 1:00:00 PM 8.99 48.182 0.029 6.67 3.3 11.48
11/2/2021 1:15:00 PM 8.97 48.146 0.029 6.72 3.19 11.48
11/2/2021 1:30:00 PM 8.97 48.146 0.029 6.68 3.28 11.48
11/2/2021 1:45:00 PM 8.96 48.128 0.029 6.66 3.2 11.48
11/2/2021 2:00:00 PM 9.09 48.362 0.029 6.69 3.24 11.48
11/2/2021 2:15:00 PM 9.11 48.398 0.029 6.71 3.29 11.46
11/2/2021 2:30:00 PM 9.06 48.308 0.029 6.67 3.18 11.44
11/2/2021 2:45:00 PM 9.03 48.254 0.029 6.71 3.22 11.4
11/2/2021 3:00:00 PM 9.03 48.254 0.029 6.71 3.2 11.41
11/2/2021 3:15:00 PM 9.07 48.326 0.029 6.66 3.19 11.43
11/2/2021 3:30:00 PM 9.12 48.416 0.029 6.72 3.2 11.43
11/2/2021 3:45:00 PM 9.13 48.434 0.029 6.64 3.36 11.42
11/2/2021 4:00:00 PM 9.12 48.416 0.029 6.66 3.34 11.41
11/2/2021 4:15:00 PM 9.14 48.452 0.029 6.69 3.21 11.41
11/2/2021 4:30:00 PM 9.14 48.452 0.029 6.67 3.22 11.4
11/2/2021 4:45:00 PM 9.14 48.452 0.029 6.66 3.23 11.4
11/2/2021 5:00:00 PM 9.14 48.452 0.029 6.68 3.25 11.39
11/2/2021 5:15:00 PM 9.13 48.434 0.029 6.7 3.23 11.38
11/2/2021 5:30:00 PM 9.12 48.416 0.029 6.7 3.23 11.36
11/2/2021 5:45:00 PM 9.11 48.398 0.029 6.68 3.25 11.33
11/2/2021 6:00:00 PM 9.09 48.362 0.029 6.65 3.3 11.31
11/2/2021 6:15:00 PM 9.08 48.344 0.03 6.63 3.25 11.3
11/2/2021 6:30:00 PM 9.06 48.308 0.03 6.63 3.33 11.3
11/2/2021 6:45:00 PM 9.05 48.29 0.03 6.66 3.21 11.3
11/2/2021 7:00:00 PM 9.04 48.272 0.03 6.64 3.31 11.3
11/2/2021 7:15:00 PM 9.02 48.236 0.03 6.56 3.31 11.31
11/2/2021 7:30:00 PM 9 48.2 0.03 6.63 3.29 11.31
11/2/2021 7:45:00 PM 8.98 48.164 0.03 6.62 3.3 11.31
11/2/2021 8:00:00 PM 8.96 48.128 0.03 6.58 3.36 11.33
11/2/2021 8:15:00 PM 8.94 48.092 0.03 6.64 3.29 11.33
11/2/2021 8:30:00 PM 8.92 48.056 0.03 6.58 3.24 11.34
11/2/2021 8:45:00 PM 8.9 48.02 0.03 6.56 3.27 11.34
11/2/2021 9:00:00 PM 8.87 47.966 0.03 6.59 3.24 11.35
11/2/2021 9:15:00 PM 8.84 47.912 0.03 6.58 3.33 11.36
11/2/2021 9:30:00 PM 8.8 47.84 0.03 6.62 3.35 11.37
11/2/2021 9:45:00 PM 8.77 47.786 0.03 6.62 3.35 11.37
11/2/2021 10:00:00 PM 8.73 47.714 0.03 6.63 3.28 11.39
11/2/2021 10:15:00 PM 8.69 47.642 0.03 6.61 3.36 11.4
11/2/2021 10:30:00 PM 8.66 47.588 0.03 6.62 3.25 11.41
11/2/2021 10:45:00 PM 8.63 47.534 0.03 6.6 3.27 11.42
11/2/2021 11:00:00 PM 8.6 47.48 0.03 6.52 3.28 11.42
11/2/2021 11:15:00 PM 8.56 47.408 0.03 6.61 3.34 11.44
11/2/2021 11:30:00 PM 8.51 47.318 0.03 6.61 3.56 11.45
11/2/2021 11:45:00 PM 8.47 47.246 0.03 6.57 3.3 11.46
11/3/2021 12:00:00 AM 8.43 47.174 0.03 6.6 3.39 11.47
11/3/2021 12:15:00 AM 8.4 47.12 0.03 6.59 3.31 11.48
11/3/2021 12:30:00 AM 8.36 47.048 0.03 6.51 3.32 11.5
11/3/2021 12:45:00 AM 8.34 47.012 0.03 6.59 3.36 11.5
11/3/2021 1:00:00 AM 8.31 46.958 0.03 6.6 3.38 11.51
11/3/2021 1:15:00 AM 8.28 46.904 0.03 6.56 3.29 11.52
11/3/2021 1:30:00 AM 8.26 46.868 0.03 6.6 3.35 11.53
11/3/2021 1:45:00 AM 8.24 46.832 0.03 6.58 3.32 11.54
11/3/2021 2:00:00 AM 8.21 46.778 0.03 6.57 3.31 11.54
11/3/2021 2:15:00 AM 8.19 46.742 0.03 6.53 3.33 11.55
11/3/2021 2:30:00 AM 8.17 46.706 0.03 6.59 3.26 11.56
11/3/2021 2:45:00 AM 8.16 46.688 0.03 6.61 3.27 11.56
11/3/2021 3:00:00 AM 8.15 46.67 0.03 6.51 3.35 11.57
11/3/2021 3:15:00 AM 8.13 46.634 0.03 6.6 3.3 11.57
11/3/2021 3:30:00 AM 8.12 46.616 0.03 6.61 3.27 11.58
11/3/2021 3:45:00 AM 8.11 46.598 0.03 6.56 3.26 11.58
11/3/2021 4:00:00 AM 8.1 46.58 0.03 6.59 3.28 11.58
11/3/2021 4:15:00 AM 8.09 46.562 0.03 6.61 3.23 11.58
11/3/2021 4:30:00 AM 8.09 46.562 0.03 6.51 3.35 11.58
11/3/2021 4:45:00 AM 8.08 46.544 0.03 6.61 3.27 11.58
11/3/2021 5:00:00 AM 8.07 46.526 0.03 6.57 3.26 11.59
11/3/2021 5:15:00 AM 8.06 46.508 0.03 6.55 3.24 11.59
11/3/2021 5:30:00 AM 8.05 46.49 0.03 6.57 3.23 11.59
11/3/2021 5:45:00 AM 8.04 46.472 0.03 6.61 3.23 11.6
11/3/2021 6:00:00 AM 8.03 46.454 0.03 6.59 3.23 11.6
11/3/2021 6:15:00 AM 8.02 46.436 0.03 6.57 3.28 11.6
11/3/2021 6:30:00 AM 8.01 46.418 0.03 6.59 3.29 11.6
11/3/2021 6:45:00 AM 8 46.4 0.03 6.62 3.23 11.61
11/3/2021 7:00:00 AM 7.98 46.364 0.03 6.58 3.19 11.61
11/3/2021 7:15:00 AM 7.96 46.328 0.03 6.58 3.22 11.62
11/3/2021 7:30:00 AM 7.95 46.31 0.03 6.58 3.24 11.62
11/3/2021 7:45:00 AM 7.94 46.292 0.03 6.56 3.22 11.63
11/3/2021 8:00:00 AM 7.92 46.256 0.03 6.58 3.26 11.64
11/3/2021 8:15:00 AM 7.91 46.238 0.03 6.57 3.21 11.66
11/3/2021 8:30:00 AM 7.91 46.238 0.03 6.57 3.17 11.68
11/3/2021 8:45:00 AM 7.89 46.202 0.03 6.63 3.2 11.7
11/3/2021 9:00:00 AM 7.89 46.202 0.03 6.64 3.22 11.73
11/3/2021 9:15:00 AM 7.89 46.202 0.03 6.61 3.16 11.75
11/3/2021 9:30:00 AM 7.91 46.238 0.03 6.62 3.21 11.78
11/3/2021 9:45:00 AM 7.92 46.256 0.03 6.67 3.13 11.78
11/3/2021 10:00:00 AM 7.92 46.256 0.03 6.65 3.13 11.77
11/3/2021 10:15:00 AM 7.95 46.31 0.03 6.58 3.13 11.79
11/3/2021 10:30:00 AM 7.97 46.346 0.03 6.68 3.1 11.8
11/3/2021 10:45:00 AM 7.99 46.382 0.03 6.68 3.16 11.8
11/3/2021 11:00:00 AM 8.01 46.418 0.03 6.64 3.17 11.8
11/3/2021 11:15:00 AM 8.04 46.472 0.03 6.67 3.15 11.8
11/3/2021 11:30:00 AM 8.06 46.508 0.03 6.66 3.1 11.78
11/3/2021 11:45:00 AM 8.09 46.562 0.03 6.69 3.13 11.79
11/3/2021 12:00:00 PM 8.13 46.634 0.03 6.68 3.13 11.78
11/3/2021 12:15:00 PM 8.16 46.688 0.029 6.61 3.32 11.77
11/3/2021 12:30:00 PM 8.19 46.742 0.03 6.68 3.11 11.77
11/3/2021 12:45:00 PM 8.24 46.832 0.029 6.71 3.12 11.76
11/3/2021 1:00:00 PM 8.31 46.958 0.029 6.72 3.07 11.75
11/3/2021 1:15:00 PM 8.38 47.084 0.029 6.7 3.09 11.72
11/3/2021 1:30:00 PM 8.37 47.066 0.029 6.62 3.07 11.71
11/3/2021 1:45:00 PM 8.37 47.066 0.029 6.66 3.14 11.68
11/3/2021 2:00:00 PM 8.37 47.066 0.029 6.71 3.15 11.68
11/3/2021 2:15:00 PM 8.42 47.156 0.029 6.67 3.12 11.67
11/3/2021 2:30:00 PM 8.41 47.138 0.029 6.71 3.11 11.66
11/3/2021 2:45:00 PM 8.5 47.3 0.029 6.64 3.09 11.66
11/3/2021 3:00:00 PM 8.57 47.426 0.029 6.71 3.07 11.65
11/3/2021 3:15:00 PM 8.62 47.516 0.029 6.73 3.15 11.64
11/3/2021 3:30:00 PM 8.57 47.426 0.03 6.68 3.09 11.62
11/3/2021 3:45:00 PM 8.54 47.372 0.03 6.71 3.06 11.63
11/3/2021 4:00:00 PM 8.52 47.336 0.03 6.7 3.07 11.64
11/3/2021 4:15:00 PM 8.53 47.354 0.03 6.64 3.1 11.63
11/3/2021 4:30:00 PM 8.54 47.372 0.03 6.71 3.06 11.63
11/3/2021 4:45:00 PM 8.52 47.336 0.03 6.7 3.09 11.6
11/3/2021 5:00:00 PM 8.51 47.318 0.03 6.71 3.27 11.55
11/3/2021 5:15:00 PM 8.47 47.246 0.03 6.67 3.1 11.54
11/3/2021 5:30:00 PM 8.46 47.228 0.03 6.64 3.11 11.54
11/3/2021 5:45:00 PM 8.44 47.192 0.03 6.63 3.09 11.54
11/3/2021 6:00:00 PM 8.43 47.174 0.03 6.64 3.14 11.52
11/3/2021 6:15:00 PM 8.41 47.138 0.03 6.62 3.13 11.52
11/3/2021 6:30:00 PM 8.39 47.102 0.03 6.58 3.14 11.51
11/3/2021 6:45:00 PM 8.37 47.066 0.03 6.66 3.14 11.52
11/3/2021 7:00:00 PM 8.35 47.03 0.03 6.52 3.24 11.52
11/3/2021 7:15:00 PM 8.33 46.994 0.03 6.64 5.04 11.52
11/3/2021 7:30:00 PM 8.31 46.958 0.03 6.53 3.21 11.54
11/3/2021 7:45:00 PM 8.29 46.922 0.03 6.58 3.15 11.55
11/3/2021 8:00:00 PM 8.27 46.886 0.03 6.63 3.36 11.55
11/3/2021 8:15:00 PM 8.25 46.85 0.03 6.63 3.63 11.55
11/3/2021 8:30:00 PM 8.23 46.814 0.03 6.53 3.16 11.57
11/3/2021 8:45:00 PM 8.21 46.778 0.03 6.61 3.17 11.57
11/3/2021 9:00:00 PM 8.18 46.724 0.03 6.63 3.27 11.58
11/3/2021 9:15:00 PM 8.15 46.67 0.03 6.56 3.24 11.58
11/3/2021 9:30:00 PM 8.12 46.616 0.03 6.55 3.16 11.59
11/3/2021 9:45:00 PM 8.09 46.562 0.03 6.57 3.19 11.6
11/3/2021 10:00:00 PM 8.05 46.49 0.03 6.55 3.19 11.61
11/3/2021 10:15:00 PM 8.02 46.436 0.03 6.62 3.23 11.62
11/3/2021 10:30:00 PM 7.99 46.382 0.03 6.49 3.19 11.63
11/3/2021 10:45:00 PM 7.94 46.292 0.03 6.59 3.11 11.64
11/3/2021 11:00:00 PM 7.91 46.238 0.03 6.61 3.14 11.66
11/3/2021 11:15:00 PM 7.88 46.184 0.03 6.59 3.14 11.66
11/3/2021 11:30:00 PM 7.86 46.148 0.03 6.52 3.19 11.67
11/3/2021 11:45:00 PM 7.83 46.094 0.03 6.61 3.44 11.69
11/4/2021 12:00:00 AM 7.81 46.058 0.03 6.53 3.13 11.69
11/4/2021 12:15:00 AM 7.78 46.004 0.03 6.61 3.13 11.69
11/4/2021 12:30:00 AM 7.76 45.968 0.03 6.61 3.08 11.71
11/4/2021 12:45:00 AM 7.74 45.932 0.03 6.55 3.13 11.71
11/4/2021 1:00:00 AM 7.71 45.878 0.03 6.61 3.11 11.72
11/4/2021 1:15:00 AM 7.69 45.842 0.03 6.52 3.27 11.73
11/4/2021 1:30:00 AM 7.66 45.788 0.03 6.62 3.14 11.73
11/4/2021 1:45:00 AM 7.63 45.734 0.03 6.55 3.14 11.74
11/4/2021 2:00:00 AM 7.6 45.68 0.03 6.61 3.2 11.75
11/4/2021 2:15:00 AM 7.57 45.626 0.03 6.58 3.1 11.76
11/4/2021 2:30:00 AM 7.54 45.572 0.03 6.53 3.08 11.76
11/4/2021 2:45:00 AM 7.51 45.518 0.03 6.61 3.16 11.77
11/4/2021 3:00:00 AM 7.48 45.464 0.03 6.55 3.16 11.78
11/4/2021 3:15:00 AM 7.45 45.41 0.03 6.61 3.09 11.79
11/4/2021 3:30:00 AM 7.41 45.338 0.03 6.49 3.12 11.8
11/4/2021 3:45:00 AM 7.38 45.284 0.03 6.58 3.12 11.81
11/4/2021 4:00:00 AM 7.35 45.23 0.03 6.59 3.14 11.82
11/4/2021 4:15:00 AM 7.32 45.176 0.03 6.57 3.17 11.83
11/4/2021 4:30:00 AM 7.29 45.122 0.03 6.59 3.13 11.84
11/4/2021 4:45:00 AM 7.27 45.086 0.03 6.6 3.19 11.85
11/4/2021 5:00:00 AM 7.25 45.05 0.03 6.6 3.11 11.86
11/4/2021 5:15:00 AM 7.22 44.996 0.03 6.58 3.14 11.86
11/4/2021 5:30:00 AM 7.2 44.96 0.03 6.6 3.13 11.88
11/4/2021 5:45:00 AM 7.18 44.924 0.03 6.55 3.12 11.88
11/4/2021 6:00:00 AM 7.15 44.87 0.03 6.54 3.12 11.89
11/4/2021 6:15:00 AM 7.11 44.798 0.03 6.55 3.13 11.89
11/4/2021 6:30:00 AM 7.09 44.762 0.03 6.58 3.21 11.9
11/4/2021 6:45:00 AM 7.08 44.744 0.03 6.54 3.15 11.91
11/4/2021 7:00:00 AM 7.07 44.726 0.03 6.59 3.16 11.91
11/4/2021 7:15:00 AM 7.05 44.69 0.03 6.52 3.08 11.91
11/4/2021 7:30:00 AM 7.04 44.672 0.03 6.56 3.15 11.93
11/4/2021 7:45:00 AM 7.02 44.636 0.03 6.56 3.05 11.93
11/4/2021 8:00:00 AM 7.01 44.618 0.03 6.55 3.18 11.95
11/4/2021 8:15:00 AM 7 44.6 0.03 6.56 3.1 11.96
11/4/2021 8:30:00 AM 6.99 44.582 0.03 6.61 3.14 11.99
11/4/2021 8:45:00 AM 6.99 44.582 0.03 6.62 3.11 12.01
11/4/2021 9:00:00 AM 6.99 44.582 0.03 6.63 3.03 12.04
11/4/2021 9:15:00 AM 6.99 44.582 0.03 6.64 3.02 12.07
11/4/2021 9:30:00 AM 6.99 44.582 0.03 6.65 3.09 12.09
11/4/2021 9:45:00 AM 7.01 44.618 0.03 6.66 3.05 12.1
11/4/2021 10:00:00 AM 7.05 44.69 0.03 6.66 3.05 12.11
11/4/2021 10:15:00 AM 7.02 44.636 0.03 6.63 3.07 12.1
11/4/2021 10:30:00 AM 7.03 44.654 0.03 6.67 2.99 12.1
11/4/2021 10:45:00 AM 7.05 44.69 0.03 6.62 3.04 12.1
11/4/2021 11:00:00 AM 7.08 44.744 0.03 6.67 3.01 12.1
11/4/2021 11:15:00 AM 7.12 44.816 0.03 6.67 3.03 12.08
11/4/2021 11:30:00 AM 7.17 44.906 0.03 6.62 3.01 12.08
11/4/2021 11:45:00 AM 7.22 44.996 0.03 6.66 2.95 12.06
11/4/2021 12:00:00 PM 7.29 45.122 0.03 6.67 2.95 12.06
11/4/2021 12:15:00 PM 7.38 45.284 0.03 6.67 3.04 12.04
11/4/2021 12:30:00 PM 7.5 45.5 0.03 6.68 3.03 12.01
11/4/2021 12:45:00 PM 7.58 45.644 0.03 6.69 3.01 12
11/4/2021 1:00:00 PM 7.62 45.716 0.03 6.72 2.96 11.97
11/4/2021 1:15:00 PM 7.62 45.716 0.03 6.72 2.95 11.94
11/4/2021 1:30:00 PM 7.63 45.734 0.03 6.72 2.91 11.92
11/4/2021 1:45:00 PM 7.67 45.806 0.03 6.65 2.95 11.91
11/4/2021 2:00:00 PM 7.7 45.86 0.03 6.68 2.96 11.9
11/4/2021 2:15:00 PM 7.75 45.95 0.03 6.73 2.94 11.89
11/4/2021 2:30:00 PM 7.82 46.076 0.03 6.63 2.92 11.89
11/4/2021 2:45:00 PM 7.92 46.256 0.03 6.71 2.95 11.87
11/4/2021 3:00:00 PM 7.98 46.364 0.03 6.7 2.92 11.86
11/4/2021 3:15:00 PM 8.04 46.472 0.03 6.71 2.97 11.84
11/4/2021 3:30:00 PM 8.06 46.508 0.03 6.73 2.88 11.82
11/4/2021 3:45:00 PM 8.03 46.454 0.03 6.75 3.03 11.81
11/4/2021 4:00:00 PM 8.02 46.436 0.03 6.62 2.97 11.8
11/4/2021 4:15:00 PM 8.01 46.418 0.03 6.73 3.01 11.78
11/4/2021 4:30:00 PM 8 46.4 0.03 6.73 2.99 11.76
11/4/2021 4:45:00 PM 8 46.4 0.03 6.71 2.94 11.76
11/4/2021 5:00:00 PM 8 46.4 0.03 6.67 2.97 11.74
11/4/2021 5:15:00 PM 8 46.4 0.03 6.67 2.99 11.73
11/4/2021 5:30:00 PM 7.99 46.382 0.03 6.7 2.99 11.71
11/4/2021 5:45:00 PM 7.98 46.364 0.03 6.61 2.96 11.69
11/4/2021 6:00:00 PM 7.96 46.328 0.03 6.69 3.17 11.66
11/4/2021 6:15:00 PM 7.95 46.31 0.03 6.63 3.84 11.64
11/4/2021 6:30:00 PM 7.93 46.274 0.03 6.68 2.97 11.63
11/4/2021 6:45:00 PM 7.91 46.238 0.03 6.66 3.01 11.63
11/4/2021 7:00:00 PM 7.89 46.202 0.03 6.56 3.02 11.64
11/4/2021 7:15:00 PM 7.87 46.166 0.03 6.66 3.07 11.64
11/4/2021 7:30:00 PM 7.84 46.112 0.03 6.54 3.05 11.65
11/4/2021 7:45:00 PM 7.82 46.076 0.03 6.67 3.06 11.66
11/4/2021 8:00:00 PM 7.79 46.022 0.03 6.52 3.05 11.66
11/4/2021 8:15:00 PM 7.76 45.968 0.03 6.58 2.98 11.67
11/4/2021 8:30:00 PM 7.73 45.914 0.03 6.58 3.03 11.68
11/4/2021 8:45:00 PM 7.7 45.86 0.03 6.64 3.06 11.68
11/4/2021 9:00:00 PM 7.68 45.824 0.03 6.57 3.06 11.7
11/4/2021 9:15:00 PM 7.64 45.752 0.03 6.61 3.06 11.71
11/4/2021 9:30:00 PM 7.6 45.68 0.03 6.63 3.07 11.72
11/4/2021 9:45:00 PM 7.55 45.59 0.03 6.54 3.01 11.73
11/4/2021 10:00:00 PM 7.51 45.518 0.03 6.57 3.15 11.74
11/4/2021 10:15:00 PM 7.46 45.428 0.03 6.61 3.05 11.76
11/4/2021 10:30:00 PM 7.41 45.338 0.03 6.61 3.06 11.77
11/4/2021 10:45:00 PM 7.36 45.248 0.03 6.62 3.14 11.79
11/4/2021 11:00:00 PM 7.31 45.158 0.03 6.58 3.05 11.8
11/4/2021 11:15:00 PM 7.26 45.068 0.03 6.56 3.08 11.82
11/4/2021 11:30:00 PM 7.2 44.96 0.03 6.6 3.06 11.84
11/4/2021 11:45:00 PM 7.15 44.87 0.03 6.59 3.05 11.86
11/5/2021 12:00:00 AM 7.1 44.78 0.03 6.57 3.1 11.87
11/5/2021 12:15:00 AM 7.05 44.69 0.03 6.58 3.07 11.89
11/5/2021 12:30:00 AM 7 44.6 0.03 6.54 3.07 11.9
11/5/2021 12:45:00 AM 6.94 44.492 0.03 6.57 3.11 11.92
11/5/2021 1:00:00 AM 6.89 44.402 0.03 6.6 3.08 11.94
11/5/2021 1:15:00 AM 6.85 44.33 0.03 6.52 2.93 11.95
11/5/2021 1:30:00 AM 6.8 44.24 0.03 6.54 3.06 11.97
11/5/2021 1:45:00 AM 6.76 44.168 0.03 6.58 3.07 11.98
11/5/2021 2:00:00 AM 6.72 44.096 0.03 6.55 3.14 12
11/5/2021 2:15:00 AM 6.68 44.024 0.03 6.58 3.04 12
11/5/2021 2:30:00 AM 6.63 43.934 0.03 6.58 3.06 12.02
11/5/2021 2:45:00 AM 6.59 43.862 0.03 6.59 3.04 12.04
11/5/2021 3:00:00 AM 6.55 43.79 0.03 6.59 3.13 12.05
11/5/2021 3:15:00 AM 6.51 43.718 0.03 6.54 3.04 12.06
11/5/2021 3:30:00 AM 6.47 43.646 0.03 6.55 3.01 12.08
11/5/2021 3:45:00 AM 6.43 43.574 0.03 6.56 3.01 12.09
11/5/2021 4:00:00 AM 6.39 43.502 0.03 6.56 3.05 12.1
11/5/2021 4:15:00 AM 6.35 43.43 0.03 6.51 3 12.11
11/5/2021 4:30:00 AM 6.31 43.358 0.03 6.58 3.02 12.13
11/5/2021 4:45:00 AM 6.27 43.286 0.03 6.54 3.05 12.15
11/5/2021 5:00:00 AM 6.23 43.214 0.03 6.57 3.04 12.16
11/5/2021 5:15:00 AM 6.19 43.142 0.03 6.54 3.03 12.18
11/5/2021 5:30:00 AM 6.15 43.07 0.03 6.58 3.03 12.18
11/5/2021 5:45:00 AM 6.11 42.998 0.03 6.53 3.12 12.2
11/5/2021 6:00:00 AM 6.07 42.926 0.03 6.54 3.1 12.23
11/5/2021 6:15:00 AM 6.03 42.854 0.03 6.57 3.06 12.23
11/5/2021 6:30:00 AM 5.99 42.782 0.03 6.48 3.02 12.24
11/5/2021 6:45:00 AM 5.95 42.71 0.03 6.57 3.03 12.27
11/5/2021 7:00:00 AM 5.91 42.638 0.03 6.54 3.02 12.27
11/5/2021 7:15:00 AM 5.87 42.566 0.03 6.57 3.04 12.29
11/5/2021 7:30:00 AM 5.83 42.494 0.03 6.54 3.01 12.32
11/5/2021 7:45:00 AM 5.79 42.422 0.03 6.5 3.01 12.34
11/5/2021 8:00:00 AM 5.75 42.35 0.03 6.57 2.98 12.36
11/5/2021 8:15:00 AM 5.71 42.278 0.03 6.48 3.13 12.37
11/5/2021 8:30:00 AM 5.68 42.224 0.03 6.53 2.99 12.41
11/5/2021 8:45:00 AM 5.65 42.17 0.03 6.54 3.05 12.44
11/5/2021 9:00:00 AM 5.63 42.134 0.03 6.55 3.03 12.48
11/5/2021 9:15:00 AM 5.62 42.116 0.03 6.59 2.88 12.51
11/5/2021 9:30:00 AM 5.6 42.08 0.03 6.53 2.97 12.53
11/5/2021 9:45:00 AM 5.59 42.062 0.03 6.61 2.97 12.54
11/5/2021 10:00:00 AM 5.59 42.062 0.03 6.5 2.99 12.55
11/5/2021 10:15:00 AM 5.61 42.098 0.03 6.61 2.98 12.57
11/5/2021 10:30:00 AM 5.65 42.17 0.03 6.52 2.93 12.57
11/5/2021 10:45:00 AM 5.7 42.26 0.03 6.57 2.99 12.57
11/5/2021 11:00:00 AM 5.74 42.332 0.03 6.62 2.92 12.57
11/5/2021 11:15:00 AM 5.8 42.44 0.03 6.62 2.93 12.56
11/5/2021 11:30:00 AM 5.87 42.566 0.03 6.62 2.94 12.54
11/5/2021 11:45:00 AM 5.95 42.71 0.03 6.6 2.99 12.52
11/5/2021 12:00:00 PM 6.04 42.872 0.03 6.64 2.98 12.49
11/5/2021 12:15:00 PM 6.15 43.07 0.03 6.63 2.91 12.48
11/5/2021 12:30:00 PM 6.25 43.25 0.03 6.67 2.89 12.43
11/5/2021 12:45:00 PM 6.32 43.376 0.03 6.67 2.97 12.4
11/5/2021 1:00:00 PM 6.44 43.592 0.03 6.66 2.95 12.38
11/5/2021 1:15:00 PM 6.6 43.88 0.03 6.64 2.91 12.34
11/5/2021 1:30:00 PM 6.77 44.186 0.03 6.72 2.84 12.3
11/5/2021 1:45:00 PM 6.85 44.33 0.03 6.67 2.93 12.25
11/5/2021 2:00:00 PM 6.87 44.366 0.03 6.68 2.91 12.22
11/5/2021 2:15:00 PM 6.98 44.564 0.03 6.68 2.88 12.19
11/5/2021 2:30:00 PM 7.13 44.834 0.03 6.71 2.89 12.17
11/5/2021 2:45:00 PM 7.2 44.96 0.03 6.68 2.87 12.14
11/5/2021 3:00:00 PM 7.26 45.068 0.03 6.71 2.97 12.11
11/5/2021 3:15:00 PM 7.31 45.158 0.03 6.71 3.02 12.07
11/5/2021 3:30:00 PM 7.32 45.176 0.03 6.72 2.88 12.05
11/5/2021 3:45:00 PM 7.35 45.23 0.03 6.63 2.88 12.03
11/5/2021 4:00:00 PM 7.39 45.302 0.03 6.74 2.87 12.02
11/5/2021 4:15:00 PM 7.4 45.32 0.03 6.74 2.93 12
11/5/2021 4:30:00 PM 7.38 45.284 0.03 6.64 2.9 11.99
11/5/2021 4:45:00 PM 7.35 45.23 0.03 6.73 2.89 11.98
11/5/2021 5:00:00 PM 7.32 45.176 0.03 6.64 2.91 11.97
11/5/2021 5:15:00 PM 7.27 45.086 0.03 6.71 2.94 11.96
11/5/2021 5:30:00 PM 7.22 44.996 0.03 6.59 2.93 11.96
11/5/2021 5:45:00 PM 7.17 44.906 0.03 6.67 2.89 11.96
11/5/2021 6:00:00 PM 7.13 44.834 0.03 6.7 2.93 11.95
11/5/2021 6:15:00 PM 7.08 44.744 0.03 6.69 2.91 11.94
11/5/2021 6:30:00 PM 7.04 44.672 0.03 6.56 2.9 11.93
11/5/2021 6:45:00 PM 7 44.6 0.03 6.62 3 11.94
11/5/2021 7:00:00 PM 6.96 44.528 0.03 6.67 2.98 11.95
11/5/2021 7:15:00 PM 6.92 44.456 0.03 6.59 3.03 11.96
11/5/2021 7:30:00 PM 6.88 44.384 0.03 6.61 2.97 11.97
11/5/2021 7:45:00 PM 6.85 44.33 0.03 6.57 2.98 11.98
11/5/2021 8:00:00 PM 6.82 44.276 0.031 6.61 3.01 11.98
11/5/2021 8:15:00 PM 6.78 44.204 0.031 6.64 2.95 12
11/5/2021 8:30:00 PM 6.74 44.132 0.031 6.54 3.05 12.01
11/5/2021 8:45:00 PM 6.7 44.06 0.031 6.63 2.98 12.02
11/5/2021 9:00:00 PM 6.67 44.006 0.031 6.55 3 12.03
11/5/2021 9:15:00 PM 6.63 43.934 0.031 6.6 2.98 12.05
11/5/2021 9:30:00 PM 6.58 43.844 0.031 6.57 2.92 12.05
11/5/2021 9:45:00 PM 6.54 43.772 0.031 6.53 2.97 12.07
11/5/2021 10:00:00 PM 6.5 43.7 0.031 6.62 3.06 12.08
11/5/2021 10:15:00 PM 6.45 43.61 0.031 6.57 3.09 12.1
11/5/2021 10:30:00 PM 6.41 43.538 0.031 6.57 2.98 12.11
11/5/2021 10:45:00 PM 6.36 43.448 0.031 6.52 3.05 12.12
11/5/2021 11:00:00 PM 6.32 43.376 0.031 6.54 3.03 12.14
11/5/2021 11:15:00 PM 6.28 43.304 0.031 6.57 3.02 12.16
11/5/2021 11:30:00 PM 6.23 43.214 0.031 6.56 2.99 12.17
11/5/2021 11:45:00 PM 6.19 43.142 0.031 6.56 3.02 12.19
11/6/2021 12:00:00 AM 6.15 43.07 0.031 6.56 2.95 12.21
11/6/2021 12:15:00 AM 6.11 42.998 0.031 6.56 2.96 12.21
11/6/2021 12:30:00 AM 6.07 42.926 0.031 6.52 3.01 12.23
11/6/2021 12:45:00 AM 6.02 42.836 0.031 6.54 3.03 12.25
11/6/2021 1:00:00 AM 5.98 42.764 0.031 6.52 2.96 12.26
11/6/2021 1:15:00 AM 5.94 42.692 0.031 6.52 2.98 12.27
11/6/2021 1:30:00 AM 5.91 42.638 0.031 6.57 2.99 12.27
11/6/2021 1:45:00 AM 5.87 42.566 0.031 6.54 3.04 12.3
11/6/2021 2:00:00 AM 5.83 42.494 0.031 6.58 2.97 12.31
11/6/2021 2:15:00 AM 5.79 42.422 0.031 6.46 2.98 12.33
11/6/2021 2:30:00 AM 5.75 42.35 0.031 6.57 2.96 12.33
11/6/2021 2:45:00 AM 5.71 42.278 0.031 6.49 2.96 12.35
11/6/2021 3:00:00 AM 5.67 42.206 0.031 6.52 3.04 12.36
11/6/2021 3:15:00 AM 5.64 42.152 0.031 6.53 3.02 12.37
11/6/2021 3:30:00 AM 5.6 42.08 0.031 6.54 2.95 12.38
11/6/2021 3:45:00 AM 5.56 42.008 0.031 6.55 2.97 12.4
11/6/2021 4:00:00 AM 5.52 41.936 0.031 6.53 2.98 12.41
11/6/2021 4:15:00 AM 5.48 41.864 0.031 6.55 2.97 12.43
11/6/2021 4:30:00 AM 5.44 41.792 0.031 6.56 2.96 12.44
11/6/2021 4:45:00 AM 5.4 41.72 0.031 6.49 3.02 12.45
11/6/2021 5:00:00 AM 5.37 41.666 0.031 6.51 2.95 12.47
11/6/2021 5:15:00 AM 5.33 41.594 0.031 6.54 3.01 12.48
11/6/2021 5:30:00 AM 5.29 41.522 0.031 6.51 3.03 12.5
11/6/2021 5:45:00 AM 5.25 41.45 0.031 6.57 3.04 12.52
11/6/2021 6:00:00 AM 5.21 41.378 0.031 6.47 3 12.52
11/6/2021 6:15:00 AM 5.18 41.324 0.031 6.57 2.94 12.54
11/6/2021 6:30:00 AM 5.14 41.252 0.031 6.51 2.88 12.55
11/6/2021 6:45:00 AM 5.1 41.18 0.031 6.54 2.92 12.57
11/6/2021 7:00:00 AM 5.06 41.108 0.031 6.57 2.99 12.57
11/6/2021 7:15:00 AM 5.03 41.054 0.031 6.47 2.96 12.59
11/6/2021 7:30:00 AM 4.99 40.982 0.031 6.52 3.02 12.6
11/6/2021 7:45:00 AM 4.95 40.91 0.031 6.51 2.97 12.61
11/6/2021 8:00:00 AM 4.92 40.856 0.031 6.57 2.98 12.63
11/6/2021 8:15:00 AM 4.88 40.784 0.031 6.51 2.96 12.66
11/6/2021 8:30:00 AM 4.85 40.73 0.031 6.51 2.96 12.7
11/6/2021 8:45:00 AM 4.83 40.694 0.031 6.54 2.95 12.73
11/6/2021 9:00:00 AM 4.8 40.64 0.031 6.57 2.96 12.75
11/6/2021 9:15:00 AM 4.78 40.604 0.031 6.51 2.92 12.78
11/6/2021 9:30:00 AM 4.77 40.586 0.031 6.58 2.92 12.8
11/6/2021 9:45:00 AM 4.76 40.568 0.031 6.53 2.96 12.81
11/6/2021 10:00:00 AM 4.76 40.568 0.031 6.55 2.94 12.83
11/6/2021 10:15:00 AM 4.78 40.604 0.031 6.56 2.89 12.84
11/6/2021 10:30:00 AM 4.82 40.676 0.031 6.62 2.87 12.84
11/6/2021 10:45:00 AM 4.87 40.766 0.031 6.58 2.87 12.85
11/6/2021 11:00:00 AM 4.92 40.856 0.031 6.64 2.86 12.85
11/6/2021 11:15:00 AM 4.98 40.964 0.031 6.55 2.93 12.83
11/6/2021 11:30:00 AM 5.05 41.09 0.031 6.64 2.89 12.82
11/6/2021 11:45:00 AM 5.13 41.234 0.03 6.58 2.85 12.79
11/6/2021 12:00:00 PM 5.23 41.414 0.03 6.66 2.85 12.76
11/6/2021 12:15:00 PM 5.34 41.612 0.03 6.65 2.87 12.73
11/6/2021 12:30:00 PM 5.46 41.828 0.03 6.67 2.87 12.69
11/6/2021 12:45:00 PM 5.58 42.044 0.03 6.64 2.82 12.66
11/6/2021 1:00:00 PM 5.71 42.278 0.03 6.63 2.89 12.62
11/6/2021 1:15:00 PM 5.84 42.512 0.03 6.7 2.84 12.58
11/6/2021 1:30:00 PM 5.97 42.746 0.03 6.7 2.81 12.52
11/6/2021 1:45:00 PM 6.11 42.998 0.03 6.66 2.85 12.47
11/6/2021 2:00:00 PM 6.24 43.232 0.03 6.67 2.87 12.43
11/6/2021 2:15:00 PM 6.37 43.466 0.03 6.67 2.79 12.39
11/6/2021 2:30:00 PM 6.5 43.7 0.03 6.74 2.84 12.35
11/6/2021 2:45:00 PM 6.62 43.916 0.03 6.7 2.8 12.31
11/6/2021 3:00:00 PM 6.72 44.096 0.03 6.74 2.82 12.27
11/6/2021 3:15:00 PM 6.79 44.222 0.03 6.67 2.83 12.23
11/6/2021 3:30:00 PM 6.85 44.33 0.03 6.71 2.85 12.2
11/6/2021 3:45:00 PM 6.87 44.366 0.03 6.74 2.8 12.18
11/6/2021 4:00:00 PM 6.88 44.384 0.03 6.71 2.86 12.16
11/6/2021 4:15:00 PM 6.88 44.384 0.03 6.73 2.85 12.14
11/6/2021 4:30:00 PM 6.87 44.366 0.03 6.61 2.84 12.13
11/6/2021 4:45:00 PM 6.83 44.294 0.03 6.73 2.77 12.11
11/6/2021 5:00:00 PM 6.81 44.258 0.031 6.71 2.82 12.09
11/6/2021 5:15:00 PM 6.78 44.204 0.031 6.59 2.88 12.09
11/6/2021 5:30:00 PM 6.74 44.132 0.031 6.7 2.83 12.07
11/6/2021 5:45:00 PM 6.7 44.06 0.031 6.65 2.88 12.06
11/6/2021 6:00:00 PM 6.66 43.988 0.031 6.65 2.81 12.05
11/6/2021 6:15:00 PM 6.63 43.934 0.031 6.67 2.88 12.04
11/6/2021 6:30:00 PM 6.6 43.88 0.031 6.6 2.86 12.03
11/6/2021 6:45:00 PM 6.57 43.826 0.031 6.63 2.9 12.02
11/6/2021 7:00:00 PM 6.54 43.772 0.031 6.66 2.9 12.03
11/6/2021 7:15:00 PM 6.51 43.718 0.031 6.57 2.9 12.03
11/6/2021 7:30:00 PM 6.47 43.646 0.031 6.57 2.96 12.04
11/6/2021 7:45:00 PM 6.44 43.592 0.031 6.65 2.94 12.06
11/6/2021 8:00:00 PM 6.41 43.538 0.031 6.62 2.92 12.06
11/6/2021 8:15:00 PM 6.38 43.484 0.031 6.62 2.96 12.07
11/6/2021 8:30:00 PM 6.34 43.412 0.031 6.6 2.97 12.08
11/6/2021 8:45:00 PM 6.31 43.358 0.031 6.61 2.99 12.09
11/6/2021 9:00:00 PM 6.27 43.286 0.031 6.58 2.9 12.1
11/6/2021 9:15:00 PM 6.23 43.214 0.031 6.59 2.91 12.12
11/6/2021 9:30:00 PM 6.2 43.16 0.031 6.63 2.93 12.12
11/6/2021 9:45:00 PM 6.16 43.088 0.031 6.62 2.86 12.14
11/6/2021 10:00:00 PM 6.12 43.016 0.031 6.63 2.92 12.16
11/6/2021 10:15:00 PM 6.09 42.962 0.031 6.62 2.94 12.16
11/6/2021 10:30:00 PM 6.04 42.872 0.031 6.56 2.97 12.18
11/6/2021 10:45:00 PM 6.01 42.818 0.031 6.54 2.93 12.19
11/6/2021 11:00:00 PM 5.97 42.746 0.031 6.57 3 12.21
11/6/2021 11:15:00 PM 5.93 42.674 0.031 6.61 2.96 12.22
11/6/2021 11:30:00 PM 5.88 42.584 0.031 6.62 3 12.23
11/6/2021 11:45:00 PM 5.84 42.512 0.031 6.51 2.85 12.25
11/7/2021 12:00:00 AM 5.8 42.44 0.031 6.61 2.96 12.26
11/7/2021 12:15:00 AM 5.76 42.368 0.031 6.61 2.96 12.26
11/7/2021 12:30:00 AM 5.72 42.296 0.031 6.54 2.97 12.29
11/7/2021 12:45:00 AM 5.68 42.224 0.031 6.57 2.97 12.3
11/7/2021 1:00:00 AM 5.64 42.152 0.031 6.53 2.98 12.3
11/7/2021 1:15:00 AM 5.6 42.08 0.031 6.59 2.94 12.32
11/7/2021 1:30:00 AM 5.56 42.008 0.031 6.58 2.93 12.33
11/7/2021 1:45:00 AM 5.52 41.936 0.031 6.53 2.92 12.35
11/7/2021 2:00:00 AM 5.49 41.882 0.031 6.59 2.9 12.36
11/7/2021 2:15:00 AM 5.44 41.792 0.031 6.6 2.92 12.38
11/7/2021 2:30:00 AM 5.41 41.738 0.031 6.52 2.94 12.39
11/7/2021 2:45:00 AM 5.37 41.666 0.031 6.57 2.95 12.4
11/7/2021 3:00:00 AM 5.34 41.612 0.031 6.58 2.91 12.4
11/7/2021 3:15:00 AM 5.3 41.54 0.031 6.59 2.99 12.42
11/7/2021 3:30:00 AM 5.27 41.486 0.031 6.5 2.96 12.43
11/7/2021 3:45:00 AM 5.23 41.414 0.031 6.56 2.94 12.44
11/7/2021 4:00:00 AM 5.2 41.36 0.031 6.52 3.03 12.45
11/7/2021 4:15:00 AM 5.16 41.288 0.031 6.57 2.91 12.46
11/7/2021 4:30:00 AM 5.13 41.234 0.031 6.5 2.93 12.48
11/7/2021 4:45:00 AM 5.09 41.162 0.031 6.54 3.02 12.49
11/7/2021 5:00:00 AM 5.06 41.108 0.031 6.57 3.03 12.5
11/7/2021 5:15:00 AM 5.02 41.036 0.031 6.54 2.96 12.51
11/7/2021 5:30:00 AM 4.99 40.982 0.031 6.5 2.96 12.52
11/7/2021 5:45:00 AM 4.97 40.946 0.031 6.5 2.88 12.52
11/7/2021 6:00:00 AM 4.92 40.856 0.031 6.53 2.93 12.55
11/7/2021 6:15:00 AM 4.89 40.802 0.031 6.56 2.93 12.56
11/7/2021 6:30:00 AM 4.85 40.73 0.031 6.57 2.88 12.57
11/7/2021 6:45:00 AM 4.82 40.676 0.031 6.57 3.06 12.59
11/7/2021 7:00:00 AM 4.78 40.604 0.031 6.57 2.95 12.59
11/7/2021 7:15:00 AM 4.75 40.55 0.031 6.54 3.01 12.62
11/7/2021 7:30:00 AM 4.71 40.478 0.031 6.49 3.13 12.63
11/7/2021 7:45:00 AM 4.68 40.424 0.031 6.57 2.93 12.64
11/7/2021 8:00:00 AM 4.65 40.37 0.031 6.57 2.9 12.65
11/7/2021 8:15:00 AM 4.62 40.316 0.031 6.53 2.89 12.69
11/7/2021 8:30:00 AM 4.6 40.28 0.031 6.54 2.91 12.72
11/7/2021 8:45:00 AM 4.58 40.244 0.031 6.52 2.9 12.75
11/7/2021 9:00:00 AM 4.55 40.19 0.031 6.58 2.94 12.77
11/7/2021 9:15:00 AM 4.54 40.172 0.031 6.55 2.97 12.8
11/7/2021 9:30:00 AM 4.54 40.172 0.031 6.58 2.9 12.81
11/7/2021 9:45:00 AM 4.53 40.154 0.031 6.59 2.93 12.84
11/7/2021 10:00:00 AM 4.54 40.172 0.031 6.59 2.91 12.84
11/7/2021 10:15:00 AM 4.56 40.208 0.031 6.51 2.88 12.87
11/7/2021 10:30:00 AM 4.6 40.28 0.031 6.55 2.89 12.86
11/7/2021 10:45:00 AM 4.66 40.388 0.031 6.56 2.84 12.86
11/7/2021 11:00:00 AM 4.72 40.496 0.031 6.64 2.89 12.86
11/7/2021 11:15:00 AM 4.78 40.604 0.031 6.53 2.85 12.85
11/7/2021 11:30:00 AM 4.85 40.73 0.031 6.65 2.84 12.83
11/7/2021 11:45:00 AM 4.93 40.874 0.031 6.56 2.83 12.82
11/7/2021 12:00:00 PM 5.03 41.054 0.031 6.64 2.89 12.79
11/7/2021 12:15:00 PM 5.14 41.252 0.031 6.63 2.87 12.76
11/7/2021 12:30:00 PM 5.26 41.468 0.031 6.63 2.88 12.72
11/7/2021 12:45:00 PM 5.39 41.702 0.031 6.66 2.83 12.68
11/7/2021 1:00:00 PM 5.51 41.918 0.031 6.59 2.77 12.64
11/7/2021 1:15:00 PM 5.65 42.17 0.031 6.68 2.86 12.6
11/7/2021 1:30:00 PM 5.79 42.422 0.031 6.69 2.78 12.54
11/7/2021 1:45:00 PM 5.93 42.674 0.031 6.68 2.83 12.5
11/7/2021 2:00:00 PM 6.06 42.908 0.031 6.7 2.74 12.47
11/7/2021 2:15:00 PM 6.2 43.16 0.031 6.71 2.77 12.41
11/7/2021 2:30:00 PM 6.34 43.412 0.031 6.72 2.85 12.37
11/7/2021 2:45:00 PM 6.47 43.646 0.031 6.62 2.75 12.33
11/7/2021 3:00:00 PM 6.58 43.844 0.031 6.73 2.77 12.29
11/7/2021 3:15:00 PM 6.66 43.988 0.031 6.71 2.77 12.25
11/7/2021 3:30:00 PM 6.72 44.096 0.031 6.73 2.75 12.23
11/7/2021 3:45:00 PM 6.76 44.168 0.031 6.71 2.74 12.18
11/7/2021 4:00:00 PM 6.78 44.204 0.031 6.69 2.79 12.16
11/7/2021 4:15:00 PM 6.79 44.222 0.031 6.63 2.78 12.14
11/7/2021 4:30:00 PM 6.8 44.24 0.031 6.69 2.82 12.12
11/7/2021 4:45:00 PM 6.79 44.222 0.031 6.71 2.83 12.1
11/7/2021 5:00:00 PM 6.78 44.204 0.031 6.7 2.83 12.07
11/7/2021 5:15:00 PM 6.76 44.168 0.031 6.7 2.87 12.06
11/7/2021 5:30:00 PM 6.74 44.132 0.031 6.68 2.78 12.03
11/7/2021 5:45:00 PM 6.7 44.06 0.031 6.69 2.79 12.02
11/7/2021 6:00:00 PM 6.68 44.024 0.031 6.67 2.93 11.99
11/7/2021 6:15:00 PM 6.64 43.952 0.031 6.66 2.8 11.99
11/7/2021 6:30:00 PM 6.63 43.934 0.031 6.66 2.81 11.97
11/7/2021 6:45:00 PM 6.59 43.862 0.031 6.63 2.93 11.97
11/7/2021 7:00:00 PM 6.57 43.826 0.031 6.66 2.82 11.98
11/7/2021 7:15:00 PM 6.55 43.79 0.031 6.65 2.84 11.98
11/7/2021 7:30:00 PM 6.53 43.754 0.031 6.51 2.82 11.97
11/7/2021 7:45:00 PM 6.51 43.718 0.031 6.65 2.79 12
11/7/2021 8:00:00 PM 6.48 43.664 0.031 6.63 2.91 12
11/7/2021 8:15:00 PM 6.46 43.628 0.031 6.58 2.84 12.01
11/7/2021 8:30:00 PM 6.44 43.592 0.031 6.61 2.86 12.02
11/7/2021 8:45:00 PM 6.42 43.556 0.031 6.6 2.79 12.01
11/7/2021 9:00:00 PM 6.39 43.502 0.031 6.6 2.92 12.04
11/7/2021 9:15:00 PM 6.37 43.466 0.031 6.55 2.87 12.04
11/7/2021 9:30:00 PM 6.34 43.412 0.031 6.56 2.97 12.05
11/7/2021 9:45:00 PM 6.32 43.376 0.031 6.63 2.94 12.06
11/7/2021 10:00:00 PM 6.29 43.322 0.031 6.6 2.83 12.07
11/7/2021 10:15:00 PM 6.27 43.286 0.031 6.56 2.9 12.08
11/7/2021 10:30:00 PM 6.24 43.232 0.031 6.63 2.85 12.09
11/7/2021 10:45:00 PM 6.21 43.178 0.031 6.58 2.83 12.09
11/7/2021 11:00:00 PM 6.18 43.124 0.031 6.62 2.86 12.1
11/7/2021 11:15:00 PM 6.15 43.07 0.031 6.53 2.83 12.13
11/7/2021 11:30:00 PM 6.12 43.016 0.031 6.61 2.91 12.14
11/7/2021 11:45:00 PM 6.08 42.944 0.031 6.59 2.84 12.14
11/8/2021 12:00:00 AM 6.05 42.89 0.031 6.61 2.91 12.15
11/8/2021 12:15:00 AM 6.01 42.818 0.031 6.54 2.85 12.17
11/8/2021 12:30:00 AM 5.98 42.764 0.031 6.58 2.92 12.16
11/8/2021 12:45:00 AM 5.93 42.674 0.031 6.49 3 12.2
11/8/2021 1:00:00 AM 5.9 42.62 0.031 6.61 2.98 12.2
11/8/2021 1:15:00 AM 5.86 42.548 0.031 6.52 2.83 12.2
11/8/2021 1:30:00 AM 5.83 42.494 0.031 6.61 2.89 12.24
11/8/2021 1:45:00 AM 5.79 42.422 0.031 6.6 2.91 12.24
11/8/2021 2:00:00 AM 5.76 42.368 0.031 6.6 2.84 12.24
11/8/2021 2:15:00 AM 5.73 42.314 0.031 6.6 2.95 12.27
11/8/2021 2:30:00 AM 5.7 42.26 0.031 6.61 2.9 12.27
11/8/2021 2:45:00 AM 5.67 42.206 0.031 6.48 2.78 12.28
11/8/2021 3:00:00 AM 5.63 42.134 0.031 6.6 2.86 12.29
11/8/2021 3:15:00 AM 5.61 42.098 0.031 6.59 2.85 12.3
11/8/2021 3:30:00 AM 5.57 42.026 0.031 6.6 2.89 12.31
11/8/2021 3:45:00 AM 5.55 41.99 0.031 6.54 3.01 12.32
11/8/2021 4:00:00 AM 5.52 41.936 0.031 6.58 2.81 12.33
11/8/2021 4:15:00 AM 5.49 41.882 0.031 6.6 2.87 12.34
11/8/2021 4:30:00 AM 5.47 41.846 0.031 6.57 2.99 12.35
11/8/2021 4:45:00 AM 5.43 41.774 0.031 6.58 2.84 12.36
11/8/2021 5:00:00 AM 5.41 41.738 0.031 6.59 3.02 12.36
11/8/2021 5:15:00 AM 5.38 41.684 0.031 6.59 2.93 12.38
11/8/2021 5:30:00 AM 5.36 41.648 0.031 6.49 2.98 12.38
11/8/2021 5:45:00 AM 5.33 41.594 0.031 6.54 2.86 12.39
11/8/2021 6:00:00 AM 5.3 41.54 0.031 6.59 2.87 12.4
11/8/2021 6:15:00 AM 5.28 41.504 0.031 6.45 2.81 12.41
11/8/2021 6:30:00 AM 5.25 41.45 0.031 6.55 2.85 12.43
11/8/2021 6:45:00 AM 5.22 41.396 0.031 6.59 2.8 12.44
11/8/2021 7:00:00 AM 5.2 41.36 0.031 6.59 2.85 12.45
11/8/2021 7:15:00 AM 5.17 41.306 0.031 6.51 2.8 12.47
11/8/2021 7:30:00 AM 5.16 41.288 0.031 6.49 2.83 12.45
11/8/2021 7:45:00 AM 5.14 41.252 0.032 6.51 2.9 12.47
11/8/2021 8:00:00 AM 5.11 41.198 0.031 6.51 2.83 12.48
11/8/2021 8:15:00 AM 5.08 41.144 0.031 6.56 2.86 12.52
11/8/2021 8:30:00 AM 5.06 41.108 0.031 6.51 2.86 12.56
11/8/2021 8:45:00 AM 5.06 41.108 0.031 6.57 2.81 12.57
11/8/2021 9:00:00 AM 5.04 41.072 0.031 6.49 2.83 12.61
11/8/2021 9:15:00 AM 5.03 41.054 0.031 6.55 2.83 12.64
11/8/2021 9:30:00 AM 5.03 41.054 0.031 6.59 2.78 12.66
11/8/2021 9:45:00 AM 5.03 41.054 0.031 6.61 2.77 12.68
11/8/2021 10:00:00 AM 5.04 41.072 0.031 6.54 2.75 12.7
11/8/2021 10:15:00 AM 5.07 41.126 0.031 6.59 2.82 12.71
11/8/2021 10:30:00 AM 5.11 41.198 0.031 6.61 2.79 12.72
11/8/2021 10:45:00 AM 5.19 41.342 0.031 6.62 2.8 12.7
11/8/2021 11:00:00 AM 5.25 41.45 0.031 6.52 2.76 12.71
11/8/2021 11:15:00 AM 5.32 41.576 0.031 6.65 2.75 12.7
11/8/2021 11:30:00 AM 5.41 41.738 0.031 6.63 2.78 12.68
11/8/2021 11:45:00 AM 5.5 41.9 0.031 6.65 2.75 12.64
11/8/2021 12:00:00 PM 5.61 42.098 0.031 6.6 2.75 12.62
11/8/2021 12:15:00 PM 5.73 42.314 0.031 6.65 2.75 12.6
11/8/2021 12:30:00 PM 5.86 42.548 0.031 6.68 2.7 12.55
11/8/2021 12:45:00 PM 5.99 42.782 0.031 6.68 2.75 12.52
11/8/2021 1:00:00 PM 6.13 43.034 0.031 6.69 2.74 12.47
11/8/2021 1:15:00 PM 6.27 43.286 0.031 6.63 2.77 12.43
11/8/2021 1:30:00 PM 6.42 43.556 0.031 6.68 2.73 12.38
11/8/2021 1:45:00 PM 6.57 43.826 0.031 6.65 2.76 12.34
11/8/2021 2:00:00 PM 6.71 44.078 0.031 6.66 2.65 12.29
11/8/2021 2:15:00 PM 6.86 44.348 0.031 6.71 2.65 12.25
11/8/2021 2:30:00 PM 7.01 44.618 0.031 6.67 2.72 12.19
11/8/2021 2:45:00 PM 7.15 44.87 0.031 6.68 2.78 12.16
11/8/2021 3:00:00 PM 7.28 45.104 0.031 6.66 2.73 12.1
11/8/2021 3:15:00 PM 7.37 45.266 0.031 6.74 2.65 12.08
11/8/2021 3:30:00 PM 7.45 45.41 0.031 6.64 2.78 12.03
11/8/2021 3:45:00 PM 7.49 45.482 0.031 6.74 2.66 12
11/8/2021 4:00:00 PM 7.53 45.554 0.031 6.6 2.74 11.97
11/8/2021 4:15:00 PM 7.57 45.626 0.031 6.72 2.66 11.94
11/8/2021 4:30:00 PM 7.59 45.662 0.031 6.63 2.66 11.92
11/8/2021 4:45:00 PM 7.6 45.68 0.031 6.72 2.68 11.88
11/8/2021 5:00:00 PM 7.59 45.662 0.031 6.68 2.63 11.85
11/8/2021 5:15:00 PM 7.59 45.662 0.031 6.62 2.66 11.83
11/8/2021 5:30:00 PM 7.57 45.626 0.031 6.67 2.77 11.8
11/8/2021 5:45:00 PM 7.54 45.572 0.031 6.69 2.76 11.78
11/8/2021 6:00:00 PM 7.52 45.536 0.031 6.61 2.74 11.76
11/8/2021 6:15:00 PM 7.49 45.482 0.031 6.66 2.79 11.74
11/8/2021 6:30:00 PM 7.48 45.464 0.031 6.64 2.78 11.72
11/8/2021 6:45:00 PM 7.45 45.41 0.031 6.57 2.76 11.71
11/8/2021 7:00:00 PM 7.43 45.374 0.031 6.65 2.82 11.72
11/8/2021 7:15:00 PM 7.42 45.356 0.032 6.57 2.78 11.7
11/8/2021 7:30:00 PM 7.4 45.32 0.031 6.63 2.89 11.71
11/8/2021 7:45:00 PM 7.38 45.284 0.031 6.5 2.84 11.73
11/8/2021 8:00:00 PM 7.36 45.248 0.031 6.63 2.84 11.73
11/8/2021 8:15:00 PM 7.34 45.212 0.032 6.49 2.83 11.72
11/8/2021 8:30:00 PM 7.32 45.176 0.032 6.61 2.75 11.73
11/8/2021 8:45:00 PM 7.3 45.14 0.032 6.58 2.87 11.73
11/8/2021 9:00:00 PM 7.27 45.086 0.031 6.59 2.9 11.75
11/8/2021 9:15:00 PM 7.25 45.05 0.031 6.64 2.78 11.76
11/8/2021 9:30:00 PM 7.24 45.032 0.032 6.58 2.77 11.76
11/8/2021 9:45:00 PM 7.22 44.996 0.032 6.59 2.82 11.75
11/8/2021 10:00:00 PM 7.19 44.942 0.031 6.62 2.87 11.78
11/8/2021 10:15:00 PM 7.17 44.906 0.032 6.58 2.79 11.78
11/8/2021 10:30:00 PM 7.15 44.87 0.032 6.58 2.88 11.79
11/8/2021 10:45:00 PM 7.13 44.834 0.032 6.58 2.78 11.79
11/8/2021 11:00:00 PM 7.1 44.78 0.032 6.57 2.81 11.8
11/8/2021 11:15:00 PM 7.08 44.744 0.032 6.57 2.83 11.8
11/8/2021 11:30:00 PM 7.05 44.69 0.032 6.58 2.85 11.82
11/8/2021 11:45:00 PM 7.02 44.636 0.032 6.6 2.82 11.83
11/9/2021 12:00:00 AM 6.99 44.582 0.032 6.58 2.92 11.83
11/9/2021 12:15:00 AM 6.97 44.546 0.032 6.59 2.86 11.85
11/9/2021 12:30:00 AM 6.94 44.492 0.032 6.59 2.85 11.85
11/9/2021 12:45:00 AM 6.91 44.438 0.032 6.51 2.87 11.86
11/9/2021 1:00:00 AM 6.87 44.366 0.032 6.55 2.77 11.87
11/9/2021 1:15:00 AM 6.84 44.312 0.032 6.58 2.84 11.88
11/9/2021 1:30:00 AM 6.81 44.258 0.032 6.59 2.82 11.87
11/9/2021 1:45:00 AM 6.78 44.204 0.032 6.59 2.78 11.89
11/9/2021 2:00:00 AM 6.74 44.132 0.032 6.48 2.85 11.91
11/9/2021 2:15:00 AM 6.71 44.078 0.032 6.6 2.84 11.92
11/9/2021 2:30:00 AM 6.67 44.006 0.032 6.6 2.84 11.93
11/9/2021 2:45:00 AM 6.64 43.952 0.032 6.6 2.78 11.93
11/9/2021 3:00:00 AM 6.6 43.88 0.032 6.54 2.88 11.96
11/9/2021 3:15:00 AM 6.58 43.844 0.032 6.59 2.86 11.95
11/9/2021 3:30:00 AM 6.54 43.772 0.032 6.54 2.92 11.98
11/9/2021 3:45:00 AM 6.51 43.718 0.032 6.58 2.77 11.98
11/9/2021 4:00:00 AM 6.48 43.664 0.032 6.55 2.88 11.99
11/9/2021 4:15:00 AM 6.44 43.592 0.032 6.56 2.84 12.01
11/9/2021 4:30:00 AM 6.41 43.538 0.032 6.61 2.8 12.02
11/9/2021 4:45:00 AM 6.38 43.484 0.032 6.61 2.89 12.03
11/9/2021 5:00:00 AM 6.35 43.43 0.032 6.6 2.93 12.02
11/9/2021 5:15:00 AM 6.31 43.358 0.032 6.51 2.84 12.05
11/9/2021 5:30:00 AM 6.3 43.34 0.032 6.52 3.09 12.02
11/9/2021 5:45:00 AM 6.26 43.268 0.032 6.56 2.79 12.07
11/9/2021 6:00:00 AM 6.23 43.214 0.032 6.57 2.82 12.06
11/9/2021 6:15:00 AM 6.2 43.16 0.032 6.54 2.82 12.08
11/9/2021 6:30:00 AM 6.16 43.088 0.032 6.51 2.82 12.1
11/9/2021 6:45:00 AM 6.15 43.07 0.032 6.57 2.8 12.1
11/9/2021 7:00:00 AM 6.11 42.998 0.032 6.59 2.83 12.13
11/9/2021 7:15:00 AM 6.08 42.944 0.032 6.5 2.9 12.13
11/9/2021 7:30:00 AM 6.06 42.908 0.032 6.53 2.78 12.15
11/9/2021 7:45:00 AM 6.03 42.854 0.032 6.53 2.8 12.14
11/9/2021 8:00:00 AM 6.01 42.818 0.032 6.61 2.81 12.18
11/9/2021 8:15:00 AM 6 42.8 0.032 6.59 2.85 12.2
11/9/2021 8:30:00 AM 5.99 42.782 0.032 6.55 2.74 12.22
11/9/2021 8:45:00 AM 5.96 42.728 0.032 6.62 2.78 12.27
11/9/2021 9:00:00 AM 5.96 42.728 0.032 6.52 2.77 12.29
11/9/2021 9:15:00 AM 5.95 42.71 0.032 6.53 2.84 12.32
11/9/2021 9:30:00 AM 5.95 42.71 0.032 6.56 2.8 12.37
11/9/2021 9:45:00 AM 5.96 42.728 0.032 6.61 2.75 12.38
11/9/2021 10:00:00 AM 5.97 42.746 0.032 6.57 2.81 12.38
11/9/2021 10:15:00 AM 5.99 42.782 0.032 6.65 2.72 12.4
11/9/2021 10:30:00 AM 6.04 42.872 0.031 6.67 2.78 12.42
11/9/2021 10:45:00 AM 6.11 42.998 0.031 6.65 2.72 12.4
11/9/2021 11:00:00 AM 6.18 43.124 0.031 6.54 2.71 12.4
11/9/2021 11:15:00 AM 6.27 43.286 0.031 6.62 2.83 12.38
11/9/2021 11:30:00 AM 6.35 43.43 0.031 6.67 2.73 12.37
11/9/2021 11:45:00 AM 6.45 43.61 0.031 6.59 2.84 12.33
11/9/2021 12:00:00 PM 6.55 43.79 0.031 6.68 2.74 12.33
11/9/2021 12:15:00 PM 6.67 44.006 0.031 6.67 2.68 12.29
11/9/2021 12:30:00 PM 6.8 44.24 0.031 6.66 2.69 12.26
11/9/2021 12:45:00 PM 6.94 44.492 0.031 6.67 2.74 12.2
11/9/2021 1:00:00 PM 7.06 44.708 0.031 6.68 2.65 12.19
11/9/2021 1:15:00 PM 7.2 44.96 0.031 6.66 2.76 12.14
11/9/2021 1:30:00 PM 7.34 45.212 0.031 6.66 2.71 12.09
11/9/2021 1:45:00 PM 7.48 45.464 0.031 6.69 2.64 12.05
11/9/2021 2:00:00 PM 7.62 45.716 0.031 6.72 2.71 12.02
11/9/2021 2:15:00 PM 7.74 45.932 0.031 6.68 2.73 11.99
11/9/2021 2:30:00 PM 7.87 46.166 0.031 6.73 2.67 11.95
11/9/2021 2:45:00 PM 8.02 46.436 0.031 6.68 2.62 11.91
11/9/2021 3:00:00 PM 8.19 46.742 0.031 6.68 2.69 11.86
11/9/2021 3:15:00 PM 8.3 46.94 0.031 6.67 2.67 11.83
11/9/2021 3:30:00 PM 8.33 46.994 0.031 6.74 2.7 11.8
11/9/2021 3:45:00 PM 8.37 47.066 0.031 6.7 2.65 11.77
11/9/2021 4:00:00 PM 8.41 47.138 0.031 6.68 2.72 11.75
11/9/2021 4:15:00 PM 8.44 47.192 0.031 6.71 2.71 11.71
11/9/2021 4:30:00 PM 8.46 47.228 0.031 6.71 2.76 11.67
11/9/2021 4:45:00 PM 8.46 47.228 0.031 6.73 2.72 11.62
11/9/2021 5:00:00 PM 8.47 47.246 0.031 6.72 2.66 11.6
11/9/2021 5:15:00 PM 8.47 47.246 0.031 6.66 2.71 11.56
11/9/2021 5:30:00 PM 8.46 47.228 0.031 6.68 2.74 11.52
11/9/2021 5:45:00 PM 8.45 47.21 0.031 6.69 2.65 11.49
11/9/2021 6:00:00 PM 8.45 47.21 0.032 6.61 2.75 11.44
11/9/2021 6:15:00 PM 8.44 47.192 0.032 6.67 2.66 11.42
11/9/2021 6:30:00 PM 8.44 47.192 0.032 6.59 2.66 11.36
11/9/2021 6:45:00 PM 8.42 47.156 0.032 6.64 2.71 11.39
11/9/2021 7:00:00 PM 8.42 47.156 0.032 6.51 2.77 11.36
11/9/2021 7:15:00 PM 8.42 47.156 0.032 6.61 2.71 11.37
11/9/2021 7:30:00 PM 8.41 47.138 0.032 6.63 2.72 11.38
11/9/2021 7:45:00 PM 8.4 47.12 0.032 6.6 2.74 11.36
11/9/2021 8:00:00 PM 8.38 47.084 0.032 6.57 2.79 11.37
11/9/2021 8:15:00 PM 8.38 47.084 0.032 6.63 2.84 11.38
11/9/2021 8:30:00 PM 8.39 47.102 0.032 6.52 2.75 11.38
11/9/2021 8:45:00 PM 8.39 47.102 0.032 6.55 2.79 11.37
11/9/2021 9:00:00 PM 8.36 47.048 0.032 6.61 2.82 11.38
11/9/2021 9:15:00 PM 8.34 47.012 0.032 6.6 2.83 11.37
11/9/2021 9:30:00 PM 8.32 46.976 0.032 6.56 2.79 11.38
11/9/2021 9:45:00 PM 8.32 46.976 0.032 6.61 2.76 11.38
11/9/2021 10:00:00 PM 8.31 46.958 0.032 6.46 2.74 11.38
11/9/2021 10:15:00 PM 8.3 46.94 0.032 6.54 2.76 11.38
11/9/2021 10:30:00 PM 8.29 46.922 0.032 6.6 2.81 11.38
11/9/2021 10:45:00 PM 8.28 46.904 0.032 6.62 2.76 11.4
11/9/2021 11:00:00 PM 8.27 46.886 0.032 6.61 2.77 11.38
11/9/2021 11:15:00 PM 8.25 46.85 0.032 6.59 2.75 11.38
11/9/2021 11:30:00 PM 8.22 46.796 0.032 6.52 2.78 11.39
11/9/2021 11:45:00 PM 8.19 46.742 0.032 6.54 2.82 11.4
11/10/2021 12:00:00 AM 8.17 46.706 0.032 6.59 2.76 11.4
11/10/2021 12:15:00 AM 8.15 46.67 0.032 6.57 2.75 11.4
11/10/2021 12:30:00 AM 8.12 46.616 0.032 6.59 2.8 11.43
11/10/2021 12:45:00 AM 8.1 46.58 0.032 6.59 2.8 11.43
11/10/2021 1:00:00 AM 8.09 46.562 0.032 6.6 2.77 11.44
11/10/2021 1:15:00 AM 8.07 46.526 0.032 6.62 2.94 11.45
11/10/2021 1:30:00 AM 8.06 46.508 0.032 6.49 2.67 11.43
11/10/2021 1:45:00 AM 8.04 46.472 0.032 6.57 2.76 11.45
11/10/2021 2:00:00 AM 8.02 46.436 0.032 6.61 2.83 11.46
11/10/2021 2:15:00 AM 8.01 46.418 0.032 6.61 2.81 11.46
11/10/2021 2:30:00 AM 7.98 46.364 0.032 6.62 2.79 11.46
11/10/2021 2:45:00 AM 7.96 46.328 0.032 6.6 2.78 11.47
11/10/2021 3:00:00 AM 7.93 46.274 0.032 6.51 3 11.49
11/10/2021 3:15:00 AM 7.91 46.238 0.032 6.62 2.74 11.49
11/10/2021 3:30:00 AM 7.91 46.238 0.032 6.59 2.73 11.48
11/10/2021 3:45:00 AM 7.92 46.256 0.032 6.59 2.79 11.49
11/10/2021 4:00:00 AM 7.92 46.256 0.032 6.51 2.8 11.5
11/10/2021 4:15:00 AM 7.91 46.238 0.032 6.61 2.77 11.51
11/10/2021 4:30:00 AM 7.91 46.238 0.032 6.56 2.77 11.51
11/10/2021 4:45:00 AM 7.91 46.238 0.032 6.57 2.74 11.5
11/10/2021 5:00:00 AM 7.89 46.202 0.032 6.62 2.81 11.52
11/10/2021 5:15:00 AM 7.87 46.166 0.032 6.57 2.79 11.52
11/10/2021 5:30:00 AM 7.87 46.166 0.032 6.56 2.73 11.52
11/10/2021 5:45:00 AM 7.88 46.184 0.032 6.61 2.78 11.51
11/10/2021 6:00:00 AM 7.89 46.202 0.032 6.49 2.78 11.52
11/10/2021 6:15:00 AM 7.9 46.22 0.032 6.61 2.75 11.52
11/10/2021 6:30:00 AM 7.91 46.238 0.032 6.57 2.84 11.49
11/10/2021 6:45:00 AM 7.9 46.22 0.032 6.58 2.79 11.53
11/10/2021 7:00:00 AM 7.9 46.22 0.032 6.54 2.88 11.52
11/10/2021 7:15:00 AM 7.9 46.22 0.032 6.59 2.86 11.53
11/10/2021 7:30:00 AM 7.9 46.22 0.032 6.54 2.72 11.53
11/10/2021 7:45:00 AM 7.9 46.22 0.032 6.55 2.8 11.53
11/10/2021 8:00:00 AM 7.9 46.22 0.032 6.55 2.78 11.54
11/10/2021 8:15:00 AM 7.9 46.22 0.032 6.58 2.75 11.57
11/10/2021 8:30:00 AM 7.9 46.22 0.032 6.53 2.78 11.59
11/10/2021 8:45:00 AM 7.87 46.166 0.032 6.59 2.71 11.65
11/10/2021 9:00:00 AM 7.86 46.148 0.032 6.61 2.78 11.67
11/10/2021 9:15:00 AM 7.84 46.112 0.032 6.58 2.76 11.71
11/10/2021 9:30:00 AM 7.84 46.112 0.032 6.58 2.64 11.74
11/10/2021 9:45:00 AM 7.85 46.13 0.032 6.65 2.73 11.76
11/10/2021 10:00:00 AM 7.87 46.166 0.032 6.65 2.78 11.77
11/10/2021 10:15:00 AM 7.89 46.202 0.032 6.64 2.73 11.8
11/10/2021 10:30:00 AM 7.93 46.274 0.032 6.68 2.74 11.82
11/10/2021 10:45:00 AM 7.99 46.382 0.032 6.7 2.76 11.83
11/10/2021 11:00:00 AM 8.04 46.472 0.032 6.62 2.75 11.84
11/10/2021 11:15:00 AM 8.1 46.58 0.032 6.66 2.7 11.83
11/10/2021 11:30:00 AM 8.15 46.67 0.032 6.73 2.73 11.83
11/10/2021 11:45:00 AM 8.21 46.778 0.032 6.71 2.72 11.82
11/10/2021 12:00:00 PM 8.28 46.904 0.032 6.75 2.72 11.81
11/10/2021 12:15:00 PM 8.35 47.03 0.032 6.74 2.67 11.79
11/10/2021 12:30:00 PM 8.44 47.192 0.032 6.72 2.69 11.77
11/10/2021 12:45:00 PM 8.52 47.336 0.032 6.69 2.66 11.75
11/10/2021 1:00:00 PM 8.61 47.498 0.032 6.76 2.67 11.73
11/10/2021 1:15:00 PM 8.7 47.66 0.032 6.74 2.69 11.72
11/10/2021 1:30:00 PM 8.79 47.822 0.032 6.77 2.7 11.7
11/10/2021 1:45:00 PM 8.88 47.984 0.032 6.67 2.66 11.66
11/10/2021 2:00:00 PM 8.97 48.146 0.032 6.75 2.71 11.64
11/10/2021 2:15:00 PM 9.05 48.29 0.032 6.74 2.7 11.62
11/10/2021 2:30:00 PM 9.14 48.452 0.032 6.71 2.74 11.61
11/10/2021 2:45:00 PM 9.23 48.614 0.031 6.74 2.73 11.59
11/10/2021 3:00:00 PM 9.3 48.74 0.031 6.77 2.59 11.57
11/10/2021 3:15:00 PM 9.34 48.812 0.032 6.78 2.66 11.54
11/10/2021 3:30:00 PM 9.35 48.83 0.031 6.78 2.61 11.53
11/10/2021 3:45:00 PM 9.34 48.812 0.032 6.77 2.76 11.51
11/10/2021 4:00:00 PM 9.32 48.776 0.032 6.77 2.64 11.49
11/10/2021 4:15:00 PM 9.29 48.722 0.032 6.71 2.75 11.48
11/10/2021 4:30:00 PM 9.27 48.686 0.032 6.74 2.78 11.45
11/10/2021 4:45:00 PM 9.22 48.596 0.032 6.76 2.69 11.43
11/10/2021 5:00:00 PM 9.18 48.524 0.032 6.75 2.71 11.42
11/10/2021 5:15:00 PM 9.15 48.47 0.032 6.7 2.69 11.4
11/10/2021 5:30:00 PM 9.11 48.398 0.032 6.7 2.66 11.39
11/10/2021 5:45:00 PM 9.05 48.29 0.032 6.72 2.93 11.35
11/10/2021 6:00:00 PM 8.98 48.164 0.032 6.67 2.63 11.31
11/10/2021 6:15:00 PM 8.91 48.038 0.032 6.68 2.72 11.29
11/10/2021 6:30:00 PM 8.84 47.912 0.032 6.56 2.72 11.27
11/10/2021 6:45:00 PM 8.76 47.768 0.032 6.63 2.73 11.29
11/10/2021 7:00:00 PM 8.7 47.66 0.032 6.67 2.8 11.32
11/10/2021 7:15:00 PM 8.64 47.552 0.032 6.65 2.86 11.33
11/10/2021 7:30:00 PM 8.59 47.462 0.032 6.58 2.86 11.35
11/10/2021 7:45:00 PM 8.55 47.39 0.032 6.59 2.82 11.35
11/10/2021 8:00:00 PM 8.49 47.282 0.032 6.66 2.78 11.39
11/10/2021 8:15:00 PM 8.44 47.192 0.032 6.58 2.84 11.4
11/10/2021 8:30:00 PM 8.39 47.102 0.032 6.64 2.85 11.39
11/10/2021 8:45:00 PM 8.32 46.976 0.032 6.56 2.81 11.43
11/10/2021 9:00:00 PM 8.25 46.85 0.032 6.64 2.8 11.45
11/10/2021 9:15:00 PM 8.2 46.76 0.032 6.66 2.82 11.46
11/10/2021 9:30:00 PM 8.14 46.652 0.032 6.53 2.73 11.48
11/10/2021 9:45:00 PM 8.09 46.562 0.032 6.66 2.94 11.5
11/10/2021 10:00:00 PM 8.02 46.436 0.032 6.51 2.83 11.52
11/10/2021 10:15:00 PM 7.97 46.346 0.032 6.64 2.81 11.53
11/10/2021 10:30:00 PM 7.92 46.256 0.032 6.62 2.8 11.55
11/10/2021 10:45:00 PM 7.86 46.148 0.032 6.64 2.78 11.57
11/10/2021 11:00:00 PM 7.81 46.058 0.032 6.6 2.85 11.58
11/10/2021 11:15:00 PM 7.75 45.95 0.032 6.63 2.8 11.6
11/10/2021 11:30:00 PM 7.69 45.842 0.032 6.65 2.81 11.62
11/10/2021 11:45:00 PM 7.63 45.734 0.032 6.62 2.81 11.64
11/11/2021 12:00:00 AM 7.58 45.644 0.032 6.63 2.99 11.65
11/11/2021 12:15:00 AM 7.52 45.536 0.032 6.62 2.92 11.68
11/11/2021 12:30:00 AM 7.47 45.446 0.032 6.61 2.75 11.68
11/11/2021 12:45:00 AM 7.41 45.338 0.032 6.63 2.9 11.7
11/11/2021 1:00:00 AM 7.35 45.23 0.032 6.65 2.82 11.72
11/11/2021 1:15:00 AM 7.29 45.122 0.032 6.57 2.83 11.74
11/11/2021 1:30:00 AM 7.24 45.032 0.032 6.57 2.82 11.75
11/11/2021 1:45:00 AM 7.18 44.924 0.032 6.59 2.82 11.78
11/11/2021 2:00:00 AM 7.12 44.816 0.032 6.64 2.88 11.78
11/11/2021 2:15:00 AM 7.07 44.726 0.032 6.64 2.82 11.8
11/11/2021 2:30:00 AM 7.01 44.618 0.032 6.64 2.81 11.82
11/11/2021 2:45:00 AM 6.96 44.528 0.032 6.65 2.84 11.85
11/11/2021 3:00:00 AM 6.93 44.474 0.032 6.64 2.77 11.86
11/11/2021 3:15:00 AM 6.91 44.438 0.032 6.64 2.82 11.87
11/11/2021 3:30:00 AM 6.9 44.42 0.032 6.65 2.85 11.88
11/11/2021 3:45:00 AM 6.88 44.384 0.032 6.63 2.82 11.89
11/11/2021 4:00:00 AM 6.86 44.348 0.032 6.61 2.91 11.9
11/11/2021 4:15:00 AM 6.84 44.312 0.032 6.63 2.84 11.91
11/11/2021 4:30:00 AM 6.81 44.258 0.032 6.6 2.82 11.91
11/11/2021 4:45:00 AM 6.77 44.186 0.032 6.63 2.76 11.92
11/11/2021 5:00:00 AM 6.73 44.114 0.032 6.62 3.01 11.92
11/11/2021 5:15:00 AM 6.69 44.042 0.032 6.62 2.75 11.93
11/11/2021 5:30:00 AM 6.65 43.97 0.032 6.62 2.81 11.94
11/11/2021 5:45:00 AM 6.63 43.934 0.032 6.62 2.85 11.95
11/11/2021 6:00:00 AM 6.6 43.88 0.032 6.61 2.78 11.95
11/11/2021 6:15:00 AM 6.58 43.844 0.032 6.6 2.79 11.96
11/11/2021 6:30:00 AM 6.56 43.808 0.032 6.62 2.78 11.97
11/11/2021 6:45:00 AM 6.53 43.754 0.032 6.65 2.74 11.98
11/11/2021 7:00:00 AM 6.49 43.682 0.032 6.6 2.79 12
11/11/2021 7:15:00 AM 6.45 43.61 0.032 6.63 2.76 12
11/11/2021 7:30:00 AM 6.43 43.574 0.033 6.64 2.8 12
11/11/2021 7:45:00 AM 6.38 43.484 0.032 6.53 2.8 12.02
11/11/2021 8:00:00 AM 6.35 43.43 0.032 6.62 2.83 12.03
11/11/2021 8:15:00 AM 6.32 43.376 0.032 6.63 2.77 12.06
11/11/2021 8:30:00 AM 6.3 43.34 0.032 6.65 2.78 12.09
11/11/2021 8:45:00 AM 6.28 43.304 0.032 6.61 2.76 12.15
11/11/2021 9:00:00 AM 6.27 43.286 0.032 6.68 2.87 12.22
11/11/2021 9:15:00 AM 6.28 43.304 0.032 6.54 2.75 12.26
11/11/2021 9:30:00 AM 6.28 43.304 0.032 6.65 2.92 12.3
11/11/2021 9:45:00 AM 6.31 43.358 0.032 6.7 2.74 12.34
11/11/2021 10:00:00 AM 6.35 43.43 0.032 6.69 2.73 12.35
11/11/2021 10:15:00 AM 6.4 43.52 0.032 6.69 2.69 12.36
11/11/2021 10:30:00 AM 6.44 43.592 0.032 6.72 2.78 12.36
11/11/2021 10:45:00 AM 6.49 43.682 0.032 6.64 2.74 12.36
11/11/2021 11:00:00 AM 6.57 43.826 0.032 6.74 2.81 12.36
11/11/2021 11:15:00 AM 6.65 43.97 0.032 6.76 2.7 12.34
11/11/2021 11:30:00 AM 6.75 44.15 0.032 6.62 2.71 12.31
11/11/2021 11:45:00 AM 6.82 44.276 0.032 6.75 2.77 12.3
11/11/2021 12:00:00 PM 6.92 44.456 0.032 6.77 2.73 12.27
11/11/2021 12:15:00 PM 7.02 44.636 0.032 6.65 2.7 12.24
11/11/2021 12:30:00 PM 7.13 44.834 0.032 6.71 2.72 12.22
11/11/2021 12:45:00 PM 7.25 45.05 0.032 6.77 2.75 12.18
11/11/2021 1:00:00 PM 7.42 45.356 0.032 6.78 2.85 12.14
11/11/2021 1:15:00 PM 7.59 45.662 0.032 6.76 2.68 12.09
11/11/2021 1:30:00 PM 7.68 45.824 0.032 6.76 2.91 12.04
11/11/2021 1:45:00 PM 7.73 45.914 0.032 6.79 2.66 12.01
11/11/2021 2:00:00 PM 7.78 46.004 0.032 6.78 2.71 11.99
11/11/2021 2:15:00 PM 7.88 46.184 0.032 6.78 2.69 11.97
11/11/2021 2:30:00 PM 8.01 46.418 0.032 6.8 2.65 11.93
11/11/2021 2:45:00 PM 8.11 46.598 0.032 6.75 2.69 11.89
11/11/2021 3:00:00 PM 8.27 46.886 0.032 6.72 2.64 11.86
11/11/2021 3:15:00 PM 8.35 47.03 0.032 6.81 2.77 11.83
11/11/2021 3:30:00 PM 8.44 47.192 0.032 6.74 2.7 11.79
11/11/2021 3:45:00 PM 8.49 47.282 0.032 6.73 2.66 11.75
11/11/2021 4:00:00 PM 8.49 47.282 0.032 6.8 2.71 11.72
11/11/2021 4:15:00 PM 8.51 47.318 0.032 6.75 2.71 11.7
11/11/2021 4:30:00 PM 8.54 47.372 0.032 6.81 2.68 11.68
11/11/2021 4:45:00 PM 8.56 47.408 0.032 6.7 2.66 11.65
11/11/2021 5:00:00 PM 8.57 47.426 0.032 6.78 2.6 11.61
11/11/2021 5:15:00 PM 8.57 47.426 0.032 6.68 2.7 11.56
11/11/2021 5:30:00 PM 8.56 47.408 0.032 6.73 2.68 11.52
11/11/2021 5:45:00 PM 8.54 47.372 0.032 6.76 2.67 11.46
11/11/2021 6:00:00 PM 8.53 47.354 0.032 6.67 2.7 11.4
11/11/2021 6:15:00 PM 8.52 47.336 0.032 6.72 2.69 11.35
11/11/2021 6:30:00 PM 8.52 47.336 0.032 6.7 2.71 11.33
11/11/2021 6:45:00 PM 8.53 47.354 0.032 6.68 2.73 11.32
11/11/2021 7:00:00 PM 8.54 47.372 0.032 6.7 2.81 11.31
11/11/2021 7:15:00 PM 8.56 47.408 0.032 6.7 2.71 11.3
11/11/2021 7:30:00 PM 8.58 47.444 0.032 6.65 2.77 11.28
11/11/2021 7:45:00 PM 8.59 47.462 0.032 6.66 2.78 11.28
11/11/2021 8:00:00 PM 8.6 47.48 0.033 6.67 2.79 11.28
11/11/2021 8:15:00 PM 8.59 47.462 0.033 6.66 2.82 11.28
11/11/2021 8:30:00 PM 8.59 47.462 0.033 6.66 2.78 11.28
11/11/2021 8:45:00 PM 8.59 47.462 0.033 6.66 2.67 11.26
11/11/2021 9:00:00 PM 8.61 47.498 0.033 6.68 2.7 11.26
11/11/2021 9:15:00 PM 8.65 47.57 0.033 6.61 2.68 11.24
11/11/2021 9:30:00 PM 8.68 47.624 0.033 6.7 2.71 11.24
11/11/2021 9:45:00 PM 8.71 47.678 0.033 6.61 2.77 11.23
11/11/2021 10:00:00 PM 8.74 47.732 0.033 6.66 2.76 11.21
11/11/2021 10:15:00 PM 8.77 47.786 0.033 6.67 2.73 11.22
11/11/2021 10:30:00 PM 8.8 47.84 0.033 6.69 2.76 11.2
11/11/2021 10:45:00 PM 8.83 47.894 0.033 6.66 2.77 11.19
11/11/2021 11:00:00 PM 8.86 47.948 0.033 6.63 2.7 11.18
11/11/2021 11:15:00 PM 8.9 48.02 0.033 6.69 2.74 11.17
11/11/2021 11:30:00 PM 8.94 48.092 0.033 6.69 2.75 11.16
11/11/2021 11:45:00 PM 8.98 48.164 0.033 6.68 2.72 11.15
11/12/2021 12:00:00 AM 9 48.2 0.033 6.56 2.73 11.14
11/12/2021 12:15:00 AM 9.03 48.254 0.033 6.61 2.8 11.13
11/12/2021 12:30:00 AM 9.06 48.308 0.033 6.62 2.77 11.11
11/12/2021 12:45:00 AM 9.08 48.344 0.033 6.69 2.75 11.11
11/12/2021 1:00:00 AM 9.1 48.38 0.033 6.57 2.74 11.1
11/12/2021 1:15:00 AM 9.12 48.416 0.033 6.68 2.84 11.09
11/12/2021 1:30:00 AM 9.15 48.47 0.033 6.67 2.8 11.07
11/12/2021 1:45:00 AM 9.19 48.542 0.033 6.67 2.73 11.06
11/12/2021 2:00:00 AM 9.23 48.614 0.033 6.63 2.73 11.05
11/12/2021 2:15:00 AM 9.27 48.686 0.033 6.65 2.85 11.04
11/12/2021 2:30:00 AM 9.3 48.74 0.033 6.69 2.73 11.04
11/12/2021 2:45:00 AM 9.34 48.812 0.033 6.67 2.77 11.01
11/12/2021 3:00:00 AM 9.37 48.866 0.033 6.68 3.59 11
11/12/2021 3:15:00 AM 9.41 48.938 0.033 6.68 2.8 10.98
11/12/2021 3:30:00 AM 9.43 48.974 0.033 6.62 2.84 10.98
11/12/2021 3:45:00 AM 9.48 49.064 0.033 6.68 2.98 10.97
11/12/2021 4:00:00 AM 9.51 49.118 0.033 6.66 2.86 10.95
11/12/2021 4:15:00 AM 9.52 49.136 0.033 6.6 3.01 10.94
11/12/2021 4:30:00 AM 9.54 49.172 0.033 6.68 2.89 10.93
11/12/2021 4:45:00 AM 9.53 49.154 0.033 6.67 2.92 10.94
11/12/2021 5:00:00 AM 9.52 49.136 0.033 6.59 3.09 10.93
11/12/2021 5:15:00 AM 9.52 49.136 0.033 6.68 3.28 10.95
11/12/2021 5:30:00 AM 9.53 49.154 0.033 6.55 3.1 10.94
11/12/2021 5:45:00 AM 9.53 49.154 0.033 6.63 3.4 10.95
11/12/2021 6:00:00 AM 9.54 49.172 0.033 6.67 3.74 10.94
11/12/2021 6:15:00 AM 9.53 49.154 0.033 6.6 3.91 10.94
11/12/2021 6:30:00 AM 9.53 49.154 0.033 6.64 3.79 10.94
11/12/2021 6:45:00 AM 9.54 49.172 0.033 6.59 3.73 10.94
11/12/2021 7:00:00 AM 9.54 49.172 0.033 6.62 3.76 10.95
11/12/2021 7:15:00 AM 9.52 49.136 0.033 6.67 4.14 10.94
11/12/2021 7:30:00 AM 9.5 49.1 0.033 6.69 4.24 10.96
11/12/2021 7:45:00 AM 9.46 49.028 0.033 6.68 4.34 10.97
11/12/2021 8:00:00 AM 9.44 48.992 0.033 6.69 4.44 10.98
11/12/2021 8:15:00 AM 9.42 48.956 0.033 6.7 4 11.01
11/12/2021 8:30:00 AM 9.39 48.902 0.033 6.67 4.02 11.02
11/12/2021 8:45:00 AM 9.36 48.848 0.033 6.71 4.13 11.07
11/12/2021 9:00:00 AM 9.34 48.812 0.033 6.73 4.4 11.13
11/12/2021 9:15:00 AM 9.32 48.776 0.032 6.63 4.45 11.19
11/12/2021 9:30:00 AM 9.29 48.722 0.032 6.73 4.33 11.22
11/12/2021 9:45:00 AM 9.25 48.65 0.032 6.73 4.04 11.24
11/12/2021 10:00:00 AM 9.23 48.614 0.032 6.78 4.13 11.28
11/12/2021 10:15:00 AM 9.21 48.578 0.032 6.66 4.04 11.31
11/12/2021 10:30:00 AM 9.22 48.596 0.032 6.78 4.05 11.34
11/12/2021 10:45:00 AM 9.23 48.614 0.032 6.8 3.97 11.36
11/12/2021 11:00:00 AM 9.24 48.632 0.032 6.76 3.91 11.38
11/12/2021 11:15:00 AM 9.25 48.65 0.032 6.81 3.85 11.39
11/12/2021 11:30:00 AM 9.27 48.686 0.032 6.76 4.02 11.4
11/12/2021 11:45:00 AM 9.29 48.722 0.032 6.81 3.92 11.4
11/12/2021 12:00:00 PM 9.32 48.776 0.032 6.82 4.01 11.4
11/12/2021 12:15:00 PM 9.36 48.848 0.032 6.8 3.95 11.4
11/12/2021 12:30:00 PM 9.41 48.938 0.031 6.83 3.95 11.4
11/12/2021 12:45:00 PM 9.47 49.046 0.031 6.71 4.06 11.39
11/12/2021 1:00:00 PM 9.51 49.118 0.031 6.77 4.01 11.38
11/12/2021 1:15:00 PM 9.56 49.208 0.031 6.84 3.84 11.37
11/12/2021 1:30:00 PM 9.63 49.334 0.031 6.84 3.89 11.37
11/12/2021 1:45:00 PM 9.69 49.442 0.031 6.84 3.86 11.35
11/12/2021 2:00:00 PM 9.74 49.532 0.031 6.82 3.87 11.35
11/12/2021 2:15:00 PM 9.81 49.658 0.031 6.85 3.78 11.33
11/12/2021 2:30:00 PM 9.88 49.784 0.031 6.82 4.01 11.32
11/12/2021 2:45:00 PM 9.92 49.856 0.031 6.75 3.88 11.29
11/12/2021 3:00:00 PM 9.93 49.874 0.031 6.79 3.92 11.28
11/12/2021 3:15:00 PM 9.88 49.784 0.031 6.83 3.86 11.25
11/12/2021 3:30:00 PM 9.88 49.784 0.031 6.82 3.96 11.25
11/12/2021 3:45:00 PM 9.88 49.784 0.031 6.81 3.95 11.24
11/12/2021 4:00:00 PM 9.84 49.712 0.031 6.83 3.88 11.22
11/12/2021 4:15:00 PM 9.81 49.658 0.031 6.81 3.86 11.22
11/12/2021 4:30:00 PM 9.75 49.55 0.031 6.79 3.84 11.18
11/12/2021 4:45:00 PM 9.71 49.478 0.031 6.77 3.84 11.16
11/12/2021 5:00:00 PM 9.65 49.37 0.031 6.78 3.69 11.17
11/12/2021 5:15:00 PM 9.59 49.262 0.031 6.76 3.72 11.14
11/12/2021 5:30:00 PM 9.52 49.136 0.031 6.74 3.68 11.12
11/12/2021 5:45:00 PM 9.45 49.01 0.031 6.72 3.56 11.1
11/12/2021 6:00:00 PM 9.38 48.884 0.031 6.73 3.54 11.08
11/12/2021 6:15:00 PM 9.31 48.758 0.032 6.65 3.42 11.07
11/12/2021 6:30:00 PM 9.25 48.65 0.032 6.62 3.51 11.07
11/12/2021 6:45:00 PM 9.2 48.56 0.032 6.7 3.33 11.07
11/12/2021 7:00:00 PM 9.14 48.452 0.032 6.63 3.38 11.08
11/12/2021 7:15:00 PM 9.09 48.362 0.032 6.68 3.3 11.1
11/12/2021 7:30:00 PM 9.03 48.254 0.032 6.67 3.86 11.1
11/12/2021 7:45:00 PM 8.97 48.146 0.032 6.59 3.26 11.13
11/12/2021 8:00:00 PM 8.91 48.038 0.032 6.69 3.23 11.14
11/12/2021 8:15:00 PM 8.85 47.93 0.032 6.54 3.26 11.17
11/12/2021 8:30:00 PM 8.81 47.858 0.032 6.68 3.21 11.17
11/12/2021 8:45:00 PM 8.75 47.75 0.032 6.62 3.21 11.19
11/12/2021 9:00:00 PM 8.68 47.624 0.032 6.65 3.22 11.2
11/12/2021 9:15:00 PM 8.63 47.534 0.032 6.68 3.23 11.22
11/12/2021 9:30:00 PM 8.6 47.48 0.032 6.63 3.23 11.24
11/12/2021 9:45:00 PM 8.56 47.408 0.032 6.65 3.18 11.25
11/12/2021 10:00:00 PM 8.52 47.336 0.032 6.57 3.16 11.26
11/12/2021 10:15:00 PM 8.47 47.246 0.032 6.67 3.17 11.27
11/12/2021 10:30:00 PM 8.4 47.12 0.032 6.65 3.08 11.29
11/12/2021 10:45:00 PM 8.33 46.994 0.032 6.64 3.22 11.3
11/12/2021 11:00:00 PM 8.26 46.868 0.032 6.64 3.17 11.32
11/12/2021 11:15:00 PM 8.2 46.76 0.032 6.63 3.15 11.34
11/12/2021 11:30:00 PM 8.15 46.67 0.032 6.62 3.09 11.35
11/12/2021 11:45:00 PM 8.1 46.58 0.032 6.61 3.03 11.37
11/13/2021 12:00:00 AM 8.04 46.472 0.032 6.65 3.12 11.38
11/13/2021 12:15:00 AM 7.98 46.364 0.032 6.64 3.15 11.4
11/13/2021 12:30:00 AM 7.92 46.256 0.032 6.66 3.06 11.42
11/13/2021 12:45:00 AM 7.85 46.13 0.032 6.54 3.12 11.43
11/13/2021 1:00:00 AM 7.79 46.022 0.032 6.64 3.24 11.45
11/13/2021 1:15:00 AM 7.74 45.932 0.032 6.65 3.14 11.46
11/13/2021 1:30:00 AM 7.68 45.824 0.032 6.63 3.06 11.48
11/13/2021 1:45:00 AM 7.64 45.752 0.032 6.61 3.17 11.48
11/13/2021 2:00:00 AM 7.58 45.644 0.032 6.54 3.18 11.51
11/13/2021 2:15:00 AM 7.55 45.59 0.032 6.65 3.02 11.52
11/13/2021 2:30:00 AM 7.52 45.536 0.032 6.62 3.08 11.52
11/13/2021 2:45:00 AM 7.49 45.482 0.032 6.59 3.04 11.53
11/13/2021 3:00:00 AM 7.45 45.41 0.032 6.66 3.01 11.55
11/13/2021 3:15:00 AM 7.43 45.374 0.032 6.66 3.04 11.55
11/13/2021 3:30:00 AM 7.41 45.338 0.032 6.65 3.06 11.56
11/13/2021 3:45:00 AM 7.38 45.284 0.032 6.61 3.03 11.57
11/13/2021 4:00:00 AM 7.36 45.248 0.032 6.65 3 11.58
11/13/2021 4:15:00 AM 7.34 45.212 0.032 6.53 3.11 11.59
11/13/2021 4:30:00 AM 7.32 45.176 0.032 6.58 2.97 11.6
11/13/2021 4:45:00 AM 7.3 45.14 0.032 6.64 3.05 11.59
11/13/2021 5:00:00 AM 7.28 45.104 0.032 6.61 3 11.6
11/13/2021 5:15:00 AM 7.26 45.068 0.032 6.66 3.02 11.6
11/13/2021 5:30:00 AM 7.24 45.032 0.032 6.58 3.07 11.61
11/13/2021 5:45:00 AM 7.24 45.032 0.032 6.65 3.02 11.61
11/13/2021 6:00:00 AM 7.22 44.996 0.032 6.56 3.05 11.63
11/13/2021 6:15:00 AM 7.22 44.996 0.032 6.61 3.01 11.62
11/13/2021 6:30:00 AM 7.2 44.96 0.032 6.57 3.04 11.63
11/13/2021 6:45:00 AM 7.19 44.942 0.032 6.64 2.96 11.63
11/13/2021 7:00:00 AM 7.19 44.942 0.032 6.55 2.96 11.63
11/13/2021 7:15:00 AM 7.18 44.924 0.032 6.58 2.94 11.63
11/13/2021 7:30:00 AM 7.17 44.906 0.032 6.64 3.01 11.63
11/13/2021 7:45:00 AM 7.16 44.888 0.032 6.58 2.97 11.63
11/13/2021 8:00:00 AM 7.15 44.87 0.032 6.61 2.98 11.64
11/13/2021 8:15:00 AM 7.14 44.852 0.032 6.64 2.94 11.65
11/13/2021 8:30:00 AM 7.14 44.852 0.032 6.55 2.92 11.66
11/13/2021 8:45:00 AM 7.14 44.852 0.032 6.63 2.93 11.67
11/13/2021 9:00:00 AM 7.15 44.87 0.032 6.61 2.97 11.69
11/13/2021 9:15:00 AM 7.16 44.888 0.032 6.62 2.95 11.73
11/13/2021 9:30:00 AM 7.17 44.906 0.032 6.67 2.88 11.75
11/13/2021 9:45:00 AM 7.19 44.942 0.032 6.7 2.86 11.76
11/13/2021 10:00:00 AM 7.2 44.96 0.032 6.56 2.92 11.77
11/13/2021 10:15:00 AM 7.2 44.96 0.032 6.73 2.86 11.83
11/13/2021 10:30:00 AM 7.21 44.978 0.032 6.72 2.97 11.86
11/13/2021 10:45:00 AM 7.22 44.996 0.032 6.7 2.87 11.85
11/13/2021 11:00:00 AM 7.22 44.996 0.032 6.68 2.85 11.86
11/13/2021 11:15:00 AM 7.2 44.96 0.032 6.72 2.97 11.89
11/13/2021 11:30:00 AM 7.2 44.96 0.032 6.71 2.81 11.92
11/13/2021 11:45:00 AM 7.24 45.032 0.032 6.71 2.92 11.98
11/13/2021 12:00:00 PM 7.27 45.086 0.032 6.73 2.86 11.98
11/13/2021 12:15:00 PM 7.28 45.104 0.032 6.76 2.91 11.99
11/13/2021 12:30:00 PM 7.26 45.068 0.032 6.79 2.82 12
11/13/2021 12:45:00 PM 7.22 44.996 0.032 6.8 2.83 11.98
11/13/2021 1:00:00 PM 7.2 44.96 0.032 6.77 2.88 11.96
11/13/2021 1:15:00 PM 7.21 44.978 0.032 6.79 2.9 12
11/13/2021 1:30:00 PM 7.27 45.086 0.032 6.81 2.89 12.01
11/13/2021 1:45:00 PM 7.32 45.176 0.032 6.66 2.81 11.99
11/13/2021 2:00:00 PM 7.3 45.14 0.032 6.78 2.83 11.98
11/13/2021 2:15:00 PM 7.24 45.032 0.032 6.79 2.8 11.97
11/13/2021 2:30:00 PM 7.19 44.942 0.032 6.8 2.87 11.98
11/13/2021 2:45:00 PM 7.18 44.924 0.032 6.8 2.89 11.97
11/13/2021 3:00:00 PM 7.16 44.888 0.032 6.78 2.87 11.93
11/13/2021 3:15:00 PM 7.14 44.852 0.032 6.76 2.86 11.92
11/13/2021 3:30:00 PM 7.12 44.816 0.032 6.68 2.88 11.93
11/13/2021 3:45:00 PM 7.11 44.798 0.032 6.72 2.84 11.94
11/13/2021 4:00:00 PM 7.11 44.798 0.032 6.76 2.91 11.96
11/13/2021 4:15:00 PM 7.09 44.762 0.032 6.78 2.85 11.94
11/13/2021 4:30:00 PM 7.07 44.726 0.032 6.75 2.9 11.92
11/13/2021 4:45:00 PM 7.04 44.672 0.032 6.76 2.83 11.88
11/13/2021 5:00:00 PM 7.01 44.618 0.032 6.71 2.9 11.86
11/13/2021 5:15:00 PM 6.98 44.564 0.032 6.73 2.95 11.83
11/13/2021 5:30:00 PM 6.95 44.51 0.032 6.73 2.89 11.81
11/13/2021 5:45:00 PM 6.92 44.456 0.032 6.72 2.88 11.79
11/13/2021 6:00:00 PM 6.9 44.42 0.032 6.58 2.93 11.77
11/13/2021 6:15:00 PM 6.88 44.384 0.032 6.66 2.9 11.76
11/13/2021 6:30:00 PM 6.87 44.366 0.032 6.62 3.02 11.75
11/13/2021 6:45:00 PM 6.86 44.348 0.032 6.7 2.81 11.76
11/13/2021 7:00:00 PM 6.84 44.312 0.032 6.57 2.97 11.76
11/13/2021 7:15:00 PM 6.83 44.294 0.032 6.67 2.9 11.77
11/13/2021 7:30:00 PM 6.81 44.258 0.032 6.7 2.92 11.77
11/13/2021 7:45:00 PM 6.8 44.24 0.032 6.65 3 11.77
11/13/2021 8:00:00 PM 6.79 44.222 0.032 6.6 2.88 11.78
11/13/2021 8:15:00 PM 6.77 44.186 0.032 6.7 2.83 11.78
11/13/2021 8:30:00 PM 6.76 44.168 0.032 6.69 2.9 11.79
11/13/2021 8:45:00 PM 6.75 44.15 0.032 6.65 2.98 11.79
11/13/2021 9:00:00 PM 6.74 44.132 0.032 6.68 2.87 11.79
11/13/2021 9:15:00 PM 6.74 44.132 0.032 6.69 2.95 11.8
11/13/2021 9:30:00 PM 6.73 44.114 0.032 6.67 2.9 11.8
11/13/2021 9:45:00 PM 6.72 44.096 0.032 6.69 2.91 11.81
11/13/2021 10:00:00 PM 6.71 44.078 0.032 6.59 2.89 11.8
11/13/2021 10:15:00 PM 6.71 44.078 0.032 6.64 2.95 11.8
11/13/2021 10:30:00 PM 6.7 44.06 0.032 6.61 2.93 11.81
11/13/2021 10:45:00 PM 6.69 44.042 0.032 6.67 2.91 11.81
11/13/2021 11:00:00 PM 6.68 44.024 0.032 6.66 2.93 11.82
11/13/2021 11:15:00 PM 6.67 44.006 0.032 6.65 2.94 11.82
11/13/2021 11:30:00 PM 6.66 43.988 0.032 6.66 2.91 11.83
11/13/2021 11:45:00 PM 6.66 43.988 0.032 6.65 2.9 11.83
11/14/2021 12:00:00 AM 6.65 43.97 0.032 6.69 2.86 11.82
11/14/2021 12:15:00 AM 6.65 43.97 0.032 6.54 2.94 11.83
11/14/2021 12:30:00 AM 6.65 43.97 0.032 6.61 3.03 11.82
11/14/2021 12:45:00 AM 6.64 43.952 0.032 6.63 2.86 11.83
11/14/2021 1:00:00 AM 6.63 43.934 0.032 6.66 2.9 11.83
11/14/2021 1:15:00 AM 6.63 43.934 0.032 6.66 2.88 11.84
11/14/2021 1:30:00 AM 6.62 43.916 0.032 6.65 2.9 11.85
11/14/2021 1:45:00 AM 6.62 43.916 0.032 6.63 2.87 11.84
11/14/2021 2:00:00 AM 6.61 43.898 0.032 6.65 2.9 11.84
11/14/2021 2:15:00 AM 6.6 43.88 0.032 6.68 2.89 11.85
11/14/2021 2:30:00 AM 6.6 43.88 0.032 6.59 2.87 11.85
11/14/2021 2:45:00 AM 6.58 43.844 0.032 6.68 2.87 11.85
11/14/2021 3:00:00 AM 6.57 43.826 0.032 6.65 2.89 11.85
11/14/2021 3:15:00 AM 6.56 43.808 0.032 6.64 2.85 11.86
11/14/2021 3:30:00 AM 6.54 43.772 0.032 6.6 2.88 11.86
11/14/2021 3:45:00 AM 6.53 43.754 0.032 6.63 2.89 11.88
11/14/2021 4:00:00 AM 6.52 43.736 0.032 6.68 2.91 11.87
11/14/2021 4:15:00 AM 6.51 43.718 0.032 6.58 2.86 11.88
11/14/2021 4:30:00 AM 6.49 43.682 0.032 6.69 2.87 11.88
11/14/2021 4:45:00 AM 6.48 43.664 0.032 6.64 2.91 11.89
11/14/2021 5:00:00 AM 6.47 43.646 0.032 6.67 2.84 11.89
11/14/2021 5:15:00 AM 6.46 43.628 0.032 6.67 2.85 11.9
11/14/2021 5:30:00 AM 6.45 43.61 0.032 6.68 2.88 11.89
11/14/2021 5:45:00 AM 6.44 43.592 0.032 6.62 2.85 11.9
11/14/2021 6:00:00 AM 6.42 43.556 0.032 6.62 2.82 11.91
11/14/2021 6:15:00 AM 6.41 43.538 0.032 6.67 2.92 11.91
11/14/2021 6:30:00 AM 6.4 43.52 0.032 6.64 2.87 11.91
11/14/2021 6:45:00 AM 6.39 43.502 0.032 6.65 2.81 11.92
11/14/2021 7:00:00 AM 6.37 43.466 0.032 6.69 2.81 11.93
11/14/2021 7:15:00 AM 6.37 43.466 0.032 6.54 2.92 11.93
11/14/2021 7:30:00 AM 6.35 43.43 0.032 6.65 2.82 11.93
11/14/2021 7:45:00 AM 6.34 43.412 0.032 6.62 2.79 11.94
11/14/2021 8:00:00 AM 6.33 43.394 0.032 6.69 2.98 11.95
11/14/2021 8:15:00 AM 6.33 43.394 0.032 6.67 2.82 11.97
11/14/2021 8:30:00 AM 6.33 43.394 0.032 6.65 2.86 11.99
11/14/2021 8:45:00 AM 6.33 43.394 0.032 6.7 2.83 12.03
11/14/2021 9:00:00 AM 6.33 43.394 0.032 6.57 3.2 12.06
11/14/2021 9:15:00 AM 6.33 43.394 0.032 6.71 3.44 12.11
11/14/2021 9:30:00 AM 6.34 43.412 0.032 6.71 2.9 12.14
11/14/2021 9:45:00 AM 6.34 43.412 0.032 6.75 2.77 12.17
11/14/2021 10:00:00 AM 6.34 43.412 0.032 6.75 2.78 12.17
11/14/2021 10:15:00 AM 6.34 43.412 0.032 6.74 2.78 12.17
11/14/2021 10:30:00 AM 6.35 43.43 0.032 6.75 2.78 12.2
11/14/2021 10:45:00 AM 6.37 43.466 0.032 6.77 2.82 12.24
11/14/2021 11:00:00 AM 6.42 43.556 0.032 6.78 2.81 12.28
11/14/2021 11:15:00 AM 6.47 43.646 0.032 6.8 2.77 12.29
11/14/2021 11:30:00 AM 6.51 43.718 0.032 6.76 2.79 12.3
11/14/2021 11:45:00 AM 6.53 43.754 0.032 6.77 2.81 12.29
11/14/2021 12:00:00 PM 6.55 43.79 0.032 6.8 2.87 12.29
11/14/2021 12:15:00 PM 6.58 43.844 0.032 6.81 2.77 12.27
11/14/2021 12:30:00 PM 6.61 43.898 0.032 6.69 2.76 12.27
11/14/2021 12:45:00 PM 6.64 43.952 0.032 6.82 2.81 12.26
11/14/2021 1:00:00 PM 6.66 43.988 0.032 6.76 2.75 12.22
11/14/2021 1:15:00 PM 6.66 43.988 0.032 6.82 2.81 12.21
11/14/2021 1:30:00 PM 6.67 44.006 0.032 6.81 2.76 12.21
11/14/2021 1:45:00 PM 6.67 44.006 0.032 6.82 2.86 12.18
11/14/2021 2:00:00 PM 6.66 43.988 0.032 6.69 2.79 12.16
11/14/2021 2:15:00 PM 6.65 43.97 0.032 6.81 2.78 12.14
11/14/2021 2:30:00 PM 6.64 43.952 0.032 6.81 2.95 12.13
11/14/2021 2:45:00 PM 6.64 43.952 0.032 6.78 2.83 12.13
11/14/2021 3:00:00 PM 6.64 43.952 0.032 6.8 2.78 12.12
11/14/2021 3:15:00 PM 6.62 43.916 0.032 6.8 2.81 12.1
11/14/2021 3:30:00 PM 6.61 43.898 0.032 6.8 2.79 12.09
11/14/2021 3:45:00 PM 6.59 43.862 0.032 6.78 2.83 12.05
11/14/2021 4:00:00 PM 6.56 43.808 0.032 6.74 2.84 12.01
11/14/2021 4:15:00 PM -99999.99 -179968 -99999.99 -99999.99 -99999.99 -99999.99
11/14/2021 4:30:00 PM -99999.99 -179968 -99999.99 -99999.99 -99999.99 -99999.99
11/14/2021 4:45:00 PM 6.5 43.7 0.032 6.76 2.87 11.98
11/14/2021 5:00:00 PM 6.47 43.646 0.032 6.62 2.89 11.97
11/14/2021 5:15:00 PM 6.43 43.574 0.032 6.74 2.82 11.96
11/14/2021 5:30:00 PM 6.37 43.466 0.032 6.73 2.82 11.94
11/14/2021 5:45:00 PM 6.27 43.286 0.032 6.64 2.92 11.92
11/14/2021 6:00:00 PM 6.18 43.124 0.032 6.72 2.83 11.92
11/14/2021 6:15:00 PM 6.07 42.926 0.032 6.65 2.84 11.92
11/14/2021 6:30:00 PM 5.97 42.746 0.032 6.65 2.87 11.94
11/14/2021 6:45:00 PM 5.93 42.674 0.032 6.69 2.81 11.96
11/14/2021 7:00:00 PM 5.89 42.602 0.032 6.52 2.92 11.97
11/14/2021 7:15:00 PM 5.85 42.53 0.032 6.66 2.92 12
11/14/2021 7:30:00 PM 5.82 42.476 0.032 6.63 2.91 12.02
11/14/2021 7:45:00 PM 5.8 42.44 0.032 6.58 2.87 12.03
11/14/2021 8:00:00 PM 5.78 42.404 0.032 6.67 2.87 12.04
11/14/2021 8:15:00 PM 5.77 42.386 0.032 6.65 2.92 12.04
11/14/2021 8:30:00 PM 5.74 42.332 0.032 6.63 3.04 12.05
11/14/2021 8:45:00 PM 5.73 42.314 0.032 6.66 3.04 12.07
11/14/2021 9:00:00 PM 5.72 42.296 0.032 6.65 3.06 12.07
11/14/2021 9:15:00 PM 5.71 42.278 0.032 6.61 3.19 12.06
11/14/2021 9:30:00 PM 5.7 42.26 0.032 6.62 3.21 12.07
11/14/2021 9:45:00 PM 5.7 42.26 0.032 6.67 3.23 12.08
11/14/2021 10:00:00 PM 5.69 42.242 0.032 6.67 3.39 12.08
11/14/2021 10:15:00 PM 5.68 42.224 0.032 6.55 3.48 12.08
11/14/2021 10:30:00 PM 5.68 42.224 0.032 6.62 3.39 12.08
11/14/2021 10:45:00 PM 5.67 42.206 0.032 6.65 3.41 12.08
11/14/2021 11:00:00 PM 5.66 42.188 0.032 6.63 3.35 12.09
11/14/2021 11:15:00 PM 5.65 42.17 0.032 6.67 3.36 12.09
11/14/2021 11:30:00 PM 5.64 42.152 0.032 6.66 3.93 12.1
11/14/2021 11:45:00 PM 5.64 42.152 0.032 6.64 3.21 12.1
11/15/2021 12:00:00 AM 5.63 42.134 0.032 6.61 3.17 12.1
11/15/2021 12:15:00 AM 5.63 42.134 0.032 6.64 3.13 12.1
11/15/2021 12:30:00 AM 5.63 42.134 0.032 6.65 3.09 12.11
11/15/2021 12:45:00 AM 5.63 42.134 0.032 6.68 3.03 12.1
11/15/2021 1:00:00 AM 5.63 42.134 0.032 6.66 3.03 12.1
11/15/2021 1:15:00 AM 5.63 42.134 0.032 6.67 3.04 12.1
11/15/2021 1:30:00 AM 5.62 42.116 0.032 6.66 3.06 12.1
11/15/2021 1:45:00 AM 5.62 42.116 0.032 6.6 3.02 12.1
11/15/2021 2:00:00 AM 5.62 42.116 0.032 6.66 3.09 12.1
11/15/2021 2:15:00 AM 5.61 42.098 0.032 6.64 3.04 12.1
11/15/2021 2:30:00 AM 5.61 42.098 0.032 6.67 3.01 12.11
11/15/2021 2:45:00 AM 5.61 42.098 0.032 6.68 3.05 12.11
11/15/2021 3:00:00 AM 5.6 42.08 0.032 6.68 3.11 12.11
11/15/2021 3:15:00 AM 5.6 42.08 0.033 6.68 3.04 12.11
11/15/2021 3:30:00 AM 5.6 42.08 0.033 6.68 3.06 12.11
11/15/2021 3:45:00 AM 5.6 42.08 0.033 6.69 2.99 12.11
11/15/2021 4:00:00 AM 5.59 42.062 0.033 6.68 3.03 12.11
11/15/2021 4:15:00 AM 5.59 42.062 0.033 6.68 3.03 12.11
11/15/2021 4:30:00 AM 5.59 42.062 0.033 6.67 3.02 12.11
11/15/2021 4:45:00 AM 5.59 42.062 0.033 6.63 3.05 12.11
11/15/2021 5:00:00 AM 5.59 42.062 0.033 6.69 3 12.11
11/15/2021 5:15:00 AM 5.58 42.044 0.033 6.65 3 12.12
11/15/2021 5:30:00 AM 5.58 42.044 0.033 6.67 2.99 12.12
11/15/2021 5:45:00 AM 5.58 42.044 0.033 6.68 2.97 12.12
11/15/2021 6:00:00 AM 5.58 42.044 0.033 6.69 2.97 12.12
11/15/2021 6:15:00 AM 5.58 42.044 0.033 6.68 2.99 12.12
11/15/2021 6:30:00 AM 5.58 42.044 0.033 6.68 2.96 12.12
11/15/2021 6:45:00 AM 5.58 42.044 0.033 6.64 3.01 12.12
11/15/2021 7:00:00 AM 5.58 42.044 0.033 6.61 2.95 12.13
11/15/2021 7:15:00 AM 5.57 42.026 0.033 6.67 3 12.13
11/15/2021 7:30:00 AM 5.57 42.026 0.033 6.69 2.95 12.13
11/15/2021 7:45:00 AM 5.57 42.026 0.033 6.68 2.95 12.14
11/15/2021 8:00:00 AM 5.57 42.026 0.033 6.69 3.01 12.14
11/15/2021 8:15:00 AM 5.57 42.026 0.033 6.65 2.96 12.15
11/15/2021 8:30:00 AM 5.57 42.026 0.033 6.69 2.88 12.17
11/15/2021 8:45:00 AM 5.58 42.044 0.033 6.69 3.02 12.22
11/15/202